<?xml version="1.0" encoding="UTF-8" standalone="no" ?>
<gpx xmlns="http://www.topografix.com/GPX/1/1" xmlns:xsi="http://www.w3.org/2001/XMLSchema-instance" xsi:schemaLocation="http://www.topografix.com/GPX/1/1 http://www.topografix.com/GPX/1/1/gpx.xsd" version="1.1" creator="VisuGPX - https://www.visugpx.com">
  <metadata>
    <name>GR34-finistere-sud</name>
    <desc><![CDATA[Randonnée en Bretagne sur le GR34 à travers le Finistère de Trunvel à Concarneau. Gîte d'étape, Maison d'hôtes, Chambres d'hôtes, Hôtel, Camping, Refuge, Auberge.]]></desc>
  </metadata>
  <trk>
    <name><![CDATA[GR34 De Trunvel à Concarneau (Finistère) (2020)]]></name>
    <desc><![CDATA[Randonnée en Bretagne sur le GR34 à travers le Finistère de Trunvel à Concarneau. Gîte d'étape, Maison d'hôtes, Chambres d'hôtes, Hôtel, Camping, Refuge, Auberge.]]></desc>
    <extensions>
      <line xmlns="http://www.topografix.com/GPX/gpx_style/0/2">
        <color>0000FF</color>
        <width>4</width>
      </line>
    </extensions>
    <trkseg>
      <trkpt lat="47.87135" lon="-3.91711">
        <ele>4.384</ele>
        <time>2016-04-26T11:30:05Z</time>
      </trkpt>
      <trkpt lat="47.8694" lon="-3.91604">
        <ele>7.908</ele>
        <time>2020-01-03T18:12:03Z</time>
      </trkpt>
      <trkpt lat="47.86898" lon="-3.91559">
        <ele>6.217</ele>
        <time>2020-01-03T18:11:43Z</time>
      </trkpt>
      <trkpt lat="47.86887" lon="-3.91574">
        <ele>7.425</ele>
        <time>2020-01-03T18:11:23Z</time>
      </trkpt>
      <trkpt lat="47.86878" lon="-3.91664">
        <ele>9.683</ele>
        <time>2020-12-18T23:49:51Z</time>
      </trkpt>
      <trkpt lat="47.86844" lon="-3.91715">
        <ele>7.136</ele>
        <time>2020-12-18T23:49:31Z</time>
      </trkpt>
      <trkpt lat="47.86852" lon="-3.91758">
        <ele>6.788</ele>
        <time>2020-12-18T23:49:11Z</time>
      </trkpt>
      <trkpt lat="47.8688" lon="-3.91783">
        <ele>7.273</ele>
        <time>2020-12-18T23:48:51Z</time>
      </trkpt>
      <trkpt lat="47.86931" lon="-3.91897">
        <ele>6.162</ele>
        <time>2020-12-18T23:48:31Z</time>
      </trkpt>
      <trkpt lat="47.86953" lon="-3.91917">
        <ele>8.639</ele>
        <time>2020-01-03T18:10:23Z</time>
      </trkpt>
      <trkpt lat="47.86983" lon="-3.92099">
        <ele>8.612</ele>
        <time>2020-01-03T18:10:03Z</time>
      </trkpt>
      <trkpt lat="47.87028" lon="-3.92269">
        <ele>9.03</ele>
        <time>2020-01-03T18:09:43Z</time>
      </trkpt>
      <trkpt lat="47.87022" lon="-3.92318">
        <ele>8.444</ele>
        <time>2020-01-03T18:09:23Z</time>
      </trkpt>
      <trkpt lat="47.86992" lon="-3.92368">
        <ele>6.308</ele>
        <time>2020-01-03T18:09:03Z</time>
      </trkpt>
      <trkpt lat="47.86969" lon="-3.92498">
        <ele>7.617</ele>
        <time>2020-01-03T18:08:43Z</time>
      </trkpt>
      <trkpt lat="47.86971" lon="-3.92588">
        <ele>7.789</ele>
        <time>2020-12-18T23:46:11Z</time>
      </trkpt>
      <trkpt lat="47.86994" lon="-3.92662">
        <ele>6.685</ele>
        <time>2020-12-18T23:45:51Z</time>
      </trkpt>
      <trkpt lat="47.87048" lon="-3.92709">
        <ele>7.621</ele>
        <time>2020-01-03T18:07:43Z</time>
      </trkpt>
      <trkpt lat="47.87113" lon="-3.92861">
        <ele>5.133</ele>
        <time>2020-01-03T18:07:23Z</time>
      </trkpt>
      <trkpt lat="47.87144" lon="-3.92975">
        <ele>5.038</ele>
        <time>2020-01-03T18:07:03Z</time>
      </trkpt>
      <trkpt lat="47.87246" lon="-3.93058">
        <ele>3.077</ele>
        <time>2020-01-03T18:06:43Z</time>
      </trkpt>
      <trkpt lat="47.87288" lon="-3.93043">
        <ele>3.384</ele>
        <time>2020-01-03T18:06:23Z</time>
      </trkpt>
      <trkpt lat="47.87339" lon="-3.92949">
        <ele>5.557</ele>
        <time>2020-01-03T18:06:03Z</time>
      </trkpt>
      <trkpt lat="47.87377" lon="-3.92902">
        <ele>5.895</ele>
        <time>2020-01-03T18:05:43Z</time>
      </trkpt>
      <trkpt lat="47.8749" lon="-3.92868">
        <ele>8.469</ele>
        <time>2020-01-03T18:05:23Z</time>
      </trkpt>
      <trkpt lat="47.8753" lon="-3.92872">
        <ele>10.808</ele>
        <time>2020-01-03T18:05:03Z</time>
      </trkpt>
      <trkpt lat="47.87612" lon="-3.92964">
        <ele>11.318</ele>
        <time>2020-01-03T18:04:43Z</time>
      </trkpt>
      <trkpt lat="47.87678" lon="-3.93024">
        <ele>11.517</ele>
        <time>2020-01-03T18:04:23Z</time>
      </trkpt>
      <trkpt lat="47.87744" lon="-3.93037">
        <ele>9.336</ele>
        <time>2020-01-03T18:04:03Z</time>
      </trkpt>
      <trkpt lat="47.87818" lon="-3.93011">
        <ele>2.846</ele>
        <time>2020-01-03T18:03:43Z</time>
      </trkpt>
      <trkpt lat="47.87898" lon="-3.93005">
        <ele>3.888</ele>
        <time>2020-01-03T18:03:23Z</time>
      </trkpt>
      <trkpt lat="47.8798" lon="-3.93064">
        <ele>6.533</ele>
        <time>2020-12-18T23:40:51Z</time>
      </trkpt>
      <trkpt lat="47.88058" lon="-3.93088">
        <ele>8.162</ele>
        <time>2020-12-18T23:40:31Z</time>
      </trkpt>
      <trkpt lat="47.88202" lon="-3.9331">
        <ele>11.059</ele>
        <time>2019-08-22T17:01:36Z</time>
      </trkpt>
      <trkpt lat="47.88254" lon="-3.93395">
        <ele>12.462</ele>
        <time>2019-08-22T17:01:16Z</time>
      </trkpt>
      <trkpt lat="47.883" lon="-3.93625">
        <ele>13.59</ele>
        <time>2019-08-22T17:00:56Z</time>
      </trkpt>
      <trkpt lat="47.88323" lon="-3.93818">
        <ele>8.834</ele>
        <time>2019-08-22T17:00:36Z</time>
      </trkpt>
      <trkpt lat="47.88347" lon="-3.93891">
        <ele>15.308</ele>
        <time>2019-08-22T17:00:16Z</time>
      </trkpt>
      <trkpt lat="47.88353" lon="-3.93981">
        <ele>7.126</ele>
        <time>2019-08-22T16:59:56Z</time>
      </trkpt>
      <trkpt lat="47.88383" lon="-3.94048">
        <ele>9.006</ele>
        <time>2019-08-22T16:59:36Z</time>
      </trkpt>
      <trkpt lat="47.88386" lon="-3.94088">
        <ele>9.089</ele>
        <time>2019-08-22T16:59:16Z</time>
      </trkpt>
      <trkpt lat="47.8846" lon="-3.94226">
        <ele>4.839</ele>
        <time>2019-08-22T16:58:56Z</time>
      </trkpt>
      <trkpt lat="47.88496" lon="-3.94243">
        <ele>6.971</ele>
        <time>2019-08-22T16:58:36Z</time>
      </trkpt>
      <trkpt lat="47.88523" lon="-3.94282">
        <ele>8.026</ele>
        <time>2019-08-22T16:58:16Z</time>
      </trkpt>
      <trkpt lat="47.8854" lon="-3.94355">
        <ele>6.125</ele>
        <time>2019-08-22T16:57:56Z</time>
      </trkpt>
      <trkpt lat="47.88581" lon="-3.94412">
        <ele>8.182</ele>
        <time>2019-08-22T16:57:36Z</time>
      </trkpt>
      <trkpt lat="47.88619" lon="-3.94419">
        <ele>10.355</ele>
        <time>2019-08-22T16:57:16Z</time>
      </trkpt>
      <trkpt lat="47.88668" lon="-3.94462">
        <ele>6.933</ele>
        <time>2019-08-22T16:56:56Z</time>
      </trkpt>
      <trkpt lat="47.88707" lon="-3.94451">
        <ele>10.317</ele>
        <time>2019-08-22T16:56:36Z</time>
      </trkpt>
      <trkpt lat="47.88736" lon="-3.9449">
        <ele>12.308</ele>
        <time>2019-08-22T16:56:16Z</time>
      </trkpt>
      <trkpt lat="47.88719" lon="-3.9455">
        <ele>9.613</ele>
        <time>2019-08-22T16:55:56Z</time>
      </trkpt>
      <trkpt lat="47.88723" lon="-3.94631">
        <ele>7.776</ele>
        <time>2019-08-22T16:55:36Z</time>
      </trkpt>
      <trkpt lat="47.88712" lon="-3.947">
        <ele>3.116</ele>
        <time>2019-08-22T16:55:16Z</time>
      </trkpt>
      <trkpt lat="47.88745" lon="-3.94706">
        <ele>6.456</ele>
        <time>2019-08-22T16:54:56Z</time>
      </trkpt>
      <trkpt lat="47.88768" lon="-3.94747">
        <ele>4.498</ele>
        <time>2019-08-22T16:54:36Z</time>
      </trkpt>
      <trkpt lat="47.88814" lon="-3.94767">
        <ele>3.283</ele>
        <time>2019-08-22T16:54:16Z</time>
      </trkpt>
      <trkpt lat="47.88861" lon="-3.94717">
        <ele>12.652</ele>
        <time>2019-08-22T16:53:56Z</time>
      </trkpt>
      <trkpt lat="47.89017" lon="-3.9467">
        <ele>7.589</ele>
        <time>2019-08-22T16:53:36Z</time>
      </trkpt>
      <trkpt lat="47.89122" lon="-3.94509">
        <ele>16.932</ele>
        <time>2019-08-22T16:53:16Z</time>
      </trkpt>
      <trkpt lat="47.89225" lon="-3.9446">
        <ele>14.61</ele>
        <time>2019-08-22T16:52:56Z</time>
      </trkpt>
      <trkpt lat="47.89284" lon="-3.94408">
        <ele>10.734</ele>
        <time>2019-08-22T16:52:36Z</time>
      </trkpt>
      <trkpt lat="47.89306" lon="-3.94307">
        <ele>13.808</ele>
        <time>2019-08-22T16:52:16Z</time>
      </trkpt>
      <trkpt lat="47.89404" lon="-3.94262">
        <ele>10.017</ele>
        <time>2019-08-22T16:51:56Z</time>
      </trkpt>
      <trkpt lat="47.89402" lon="-3.94095">
        <ele>18.207</ele>
        <time>2019-08-22T16:51:36Z</time>
      </trkpt>
      <trkpt lat="47.89427" lon="-3.94078">
        <ele>15.184</ele>
        <time>2019-08-22T16:51:16Z</time>
      </trkpt>
      <trkpt lat="47.89493" lon="-3.9417">
        <ele>15.399</ele>
        <time>2019-08-22T16:50:56Z</time>
      </trkpt>
      <trkpt lat="47.89486" lon="-3.94269">
        <ele>16.151</ele>
        <time>2019-08-22T16:50:36Z</time>
      </trkpt>
      <trkpt lat="47.89457" lon="-3.94303">
        <ele>11.926</ele>
        <time>2019-08-22T16:50:16Z</time>
      </trkpt>
      <trkpt lat="47.89454" lon="-3.94331">
        <ele>13.265</ele>
        <time>2019-08-22T16:49:56Z</time>
      </trkpt>
      <trkpt lat="47.89408" lon="-3.94374">
        <ele>18.712</ele>
        <time>2019-08-22T16:49:36Z</time>
      </trkpt>
      <trkpt lat="47.89352" lon="-3.94391">
        <ele>15.315</ele>
        <time>2019-08-22T16:49:16Z</time>
      </trkpt>
      <trkpt lat="47.89303" lon="-3.9453">
        <ele>21.173</ele>
        <time>2019-08-22T16:48:56Z</time>
      </trkpt>
      <trkpt lat="47.89183" lon="-3.94595">
        <ele>16.487</ele>
        <time>2019-08-22T16:48:36Z</time>
      </trkpt>
      <trkpt lat="47.89142" lon="-3.94659">
        <ele>12.108</ele>
        <time>2019-08-22T16:48:16Z</time>
      </trkpt>
      <trkpt lat="47.89117" lon="-3.94818">
        <ele>13.707</ele>
        <time>2019-08-22T16:47:56Z</time>
      </trkpt>
      <trkpt lat="47.89091" lon="-3.94855">
        <ele>8.043</ele>
        <time>2019-08-22T16:47:36Z</time>
      </trkpt>
      <trkpt lat="47.8909" lon="-3.94891">
        <ele>6.913</ele>
        <time>2019-08-22T16:47:16Z</time>
      </trkpt>
      <trkpt lat="47.89071" lon="-3.94958">
        <ele>3.781</ele>
        <time>2019-08-22T16:46:56Z</time>
      </trkpt>
      <trkpt lat="47.89146" lon="-3.9496">
        <ele>6.293</ele>
        <time>2019-08-22T16:46:36Z</time>
      </trkpt>
      <trkpt lat="47.89146" lon="-3.94919">
        <ele>13.328</ele>
        <time>2019-08-22T16:46:16Z</time>
      </trkpt>
      <trkpt lat="47.89166" lon="-3.949">
        <ele>16.157</ele>
        <time>2019-08-22T16:45:56Z</time>
      </trkpt>
      <trkpt lat="47.89257" lon="-3.94951">
        <ele>11.844</ele>
        <time>2019-08-22T16:45:36Z</time>
      </trkpt>
      <trkpt lat="47.8931" lon="-3.94955">
        <ele>13.397</ele>
        <time>2019-08-22T16:45:16Z</time>
      </trkpt>
      <trkpt lat="47.89346" lon="-3.94908">
        <ele>16.445</ele>
        <time>2019-08-22T16:44:56Z</time>
      </trkpt>
      <trkpt lat="47.89371" lon="-3.94803">
        <ele>20.289</ele>
        <time>2019-08-22T16:44:36Z</time>
      </trkpt>
      <trkpt lat="47.89465" lon="-3.94762">
        <ele>14.808</ele>
        <time>2019-08-22T16:44:16Z</time>
      </trkpt>
      <trkpt lat="47.89535" lon="-3.94706">
        <ele>14.907</ele>
        <time>2019-08-22T16:43:56Z</time>
      </trkpt>
      <trkpt lat="47.89612" lon="-3.94687">
        <ele>10.361</ele>
        <time>2019-08-22T16:43:36Z</time>
      </trkpt>
      <trkpt lat="47.89691" lon="-3.94691">
        <ele>9.431</ele>
        <time>2019-08-22T16:43:16Z</time>
      </trkpt>
      <trkpt lat="47.89722" lon="-3.94724">
        <ele>7.847</ele>
        <time>2019-08-22T16:42:56Z</time>
      </trkpt>
      <trkpt lat="47.89758" lon="-3.94745">
        <ele>9.649</ele>
        <time>2019-08-22T16:42:36Z</time>
      </trkpt>
      <trkpt lat="47.89788" lon="-3.94724">
        <ele>14.924</ele>
        <time>2019-08-22T16:42:16Z</time>
      </trkpt>
      <trkpt lat="47.89845" lon="-3.94769">
        <ele>12.943</ele>
        <time>2019-08-22T16:41:56Z</time>
      </trkpt>
      <trkpt lat="47.89956" lon="-3.94719">
        <ele>14.51</ele>
        <time>2019-08-22T16:41:36Z</time>
      </trkpt>
      <trkpt lat="47.89996" lon="-3.94724">
        <ele>12.113</ele>
        <time>2019-08-22T16:41:16Z</time>
      </trkpt>
      <trkpt lat="47.90107" lon="-3.94672">
        <ele>17.321</ele>
        <time>2019-08-22T16:40:56Z</time>
      </trkpt>
      <trkpt lat="47.90147" lon="-3.94616">
        <ele>16.725</ele>
        <time>2019-08-22T16:40:36Z</time>
      </trkpt>
      <trkpt lat="47.90232" lon="-3.94571">
        <ele>14.908</ele>
        <time>2019-08-22T16:40:16Z</time>
      </trkpt>
      <trkpt lat="47.9027" lon="-3.94526">
        <ele>17.821</ele>
        <time>2019-08-22T16:39:56Z</time>
      </trkpt>
      <trkpt lat="47.90326" lon="-3.94518">
        <ele>15.865</ele>
        <time>2019-08-22T16:39:36Z</time>
      </trkpt>
      <trkpt lat="47.90362" lon="-3.94496">
        <ele>20.893</ele>
        <time>2019-08-22T16:39:16Z</time>
      </trkpt>
      <trkpt lat="47.90507" lon="-3.94548">
        <ele>17.057</ele>
        <time>2019-08-22T16:38:56Z</time>
      </trkpt>
      <trkpt lat="47.9052" lon="-3.94582">
        <ele>13.629</ele>
        <time>2019-08-22T16:38:36Z</time>
      </trkpt>
      <trkpt lat="47.905" lon="-3.94621">
        <ele>10.094</ele>
        <time>2019-08-22T16:38:16Z</time>
      </trkpt>
      <trkpt lat="47.90472" lon="-3.94606">
        <ele>8.273</ele>
        <time>2019-08-22T16:37:56Z</time>
      </trkpt>
      <trkpt lat="47.90411" lon="-3.94696">
        <ele>24.63</ele>
        <time>2019-08-22T16:37:36Z</time>
      </trkpt>
      <trkpt lat="47.90359" lon="-3.94721">
        <ele>25.983</ele>
        <time>2019-08-22T16:37:16Z</time>
      </trkpt>
      <trkpt lat="47.90313" lon="-3.94712">
        <ele>24.241</ele>
        <time>2020-12-18T23:15:31Z</time>
      </trkpt>
      <trkpt lat="47.90219" lon="-3.94746">
        <ele>19.715</ele>
        <time>2020-12-18T23:15:11Z</time>
      </trkpt>
      <trkpt lat="47.9013" lon="-3.94775">
        <ele>21.308</ele>
        <time>2020-12-18T23:14:51Z</time>
      </trkpt>
      <trkpt lat="47.90119" lon="-3.94799">
        <ele>21.325</ele>
        <time>2019-08-22T16:35:56Z</time>
      </trkpt>
      <trkpt lat="47.90074" lon="-3.94822">
        <ele>20.823</ele>
        <time>2019-08-22T16:35:36Z</time>
      </trkpt>
      <trkpt lat="47.8994" lon="-3.94833">
        <ele>11.797</ele>
        <time>2019-08-22T16:35:16Z</time>
      </trkpt>
      <trkpt lat="47.89936" lon="-3.94934">
        <ele>10.397</ele>
        <time>2019-08-22T16:34:56Z</time>
      </trkpt>
      <trkpt lat="47.89911" lon="-3.94981">
        <ele>8.999</ele>
        <time>2019-08-22T16:34:36Z</time>
      </trkpt>
      <trkpt lat="47.89886" lon="-3.9499">
        <ele>7.564</ele>
        <time>2019-08-22T16:34:16Z</time>
      </trkpt>
      <trkpt lat="47.89852" lon="-3.9505">
        <ele>8.273</ele>
        <time>2019-08-22T16:33:56Z</time>
      </trkpt>
      <trkpt lat="47.89841" lon="-3.95129">
        <ele>9.89</ele>
        <time>2019-08-22T16:33:36Z</time>
      </trkpt>
      <trkpt lat="47.89824" lon="-3.95153">
        <ele>11.573</ele>
        <time>2019-08-22T16:33:16Z</time>
      </trkpt>
      <trkpt lat="47.89805" lon="-3.9514">
        <ele>9.211</ele>
        <time>2019-08-22T16:32:56Z</time>
      </trkpt>
      <trkpt lat="47.89739" lon="-3.95151">
        <ele>12.325</ele>
        <time>2019-08-22T16:32:36Z</time>
      </trkpt>
      <trkpt lat="47.89703" lon="-3.9514">
        <ele>11.808</ele>
        <time>2019-08-22T16:32:16Z</time>
      </trkpt>
      <trkpt lat="47.8953" lon="-3.95243">
        <ele>13.124</ele>
        <time>2019-08-22T16:31:56Z</time>
      </trkpt>
      <trkpt lat="47.89496" lon="-3.95224">
        <ele>9.031</ele>
        <time>2019-08-22T16:31:36Z</time>
      </trkpt>
      <trkpt lat="47.8945" lon="-3.95232">
        <ele>8.096</ele>
        <time>2019-08-22T16:31:16Z</time>
      </trkpt>
      <trkpt lat="47.89424" lon="-3.95391">
        <ele>8.281</ele>
        <time>2019-08-22T16:30:56Z</time>
      </trkpt>
      <trkpt lat="47.89445" lon="-3.95436">
        <ele>8.113</ele>
        <time>2019-08-22T16:30:36Z</time>
      </trkpt>
      <trkpt lat="47.89435" lon="-3.95477">
        <ele>7.358</ele>
        <time>2019-08-22T16:30:16Z</time>
      </trkpt>
      <trkpt lat="47.89441" lon="-3.95526">
        <ele>6.747</ele>
        <time>2019-08-22T16:29:56Z</time>
      </trkpt>
      <trkpt lat="47.89503" lon="-3.95623">
        <ele>9.074</ele>
        <time>2019-08-22T16:29:36Z</time>
      </trkpt>
      <trkpt lat="47.89565" lon="-3.95651">
        <ele>10.317</ele>
        <time>2019-08-22T16:29:16Z</time>
      </trkpt>
      <trkpt lat="47.89615" lon="-3.957">
        <ele>9.655</ele>
        <time>2019-08-22T16:28:56Z</time>
      </trkpt>
      <trkpt lat="47.89637" lon="-3.95687">
        <ele>10.349</ele>
        <time>2019-08-22T16:28:36Z</time>
      </trkpt>
      <trkpt lat="47.8966" lon="-3.95704">
        <ele>10.008</ele>
        <time>2019-08-22T16:28:16Z</time>
      </trkpt>
      <trkpt lat="47.89671" lon="-3.95736">
        <ele>9.418</ele>
        <time>2019-08-22T16:27:56Z</time>
      </trkpt>
      <trkpt lat="47.8969" lon="-3.95754">
        <ele>10.517</ele>
        <time>2019-08-22T16:27:36Z</time>
      </trkpt>
      <trkpt lat="47.89725" lon="-3.95857">
        <ele>11.436</ele>
        <time>2020-12-18T23:05:51Z</time>
      </trkpt>
      <trkpt lat="47.89725" lon="-3.95915">
        <ele>11.139</ele>
        <time>2020-12-18T23:05:31Z</time>
      </trkpt>
      <trkpt lat="47.89706" lon="-3.95927">
        <ele>9.481</ele>
        <time>2019-08-22T16:26:36Z</time>
      </trkpt>
      <trkpt lat="47.89696" lon="-3.95975">
        <ele>5.956</ele>
        <time>2019-08-22T16:26:16Z</time>
      </trkpt>
      <trkpt lat="47.89731" lon="-3.96022">
        <ele>4.875</ele>
        <time>2020-12-18T23:04:31Z</time>
      </trkpt>
      <trkpt lat="47.89726" lon="-3.96121">
        <ele>3.182</ele>
        <time>2019-08-22T16:25:36Z</time>
      </trkpt>
      <trkpt lat="47.897" lon="-3.96243">
        <ele>2.355</ele>
        <time>2019-08-22T16:25:16Z</time>
      </trkpt>
      <trkpt lat="47.89667" lon="-3.96601">
        <ele>5.063</ele>
        <time>2019-08-22T16:24:56Z</time>
      </trkpt>
      <trkpt lat="47.89575" lon="-3.97168">
        <ele>6.767</ele>
        <time>2019-08-22T16:24:36Z</time>
      </trkpt>
      <trkpt lat="47.89553" lon="-3.97213">
        <ele>4.008</ele>
        <time>2019-08-22T16:24:16Z</time>
      </trkpt>
      <trkpt lat="47.89565" lon="-3.97292">
        <ele>0.007</ele>
        <time>2019-08-22T16:23:56Z</time>
      </trkpt>
      <trkpt lat="47.89682" lon="-3.97385">
        <ele>0.343</ele>
        <time>2020-12-18T23:02:11Z</time>
      </trkpt>
      <trkpt lat="47.89748" lon="-3.97388">
        <ele>4.013</ele>
        <time>2020-12-18T23:01:51Z</time>
      </trkpt>
      <trkpt lat="47.89771" lon="-3.97338">
        <ele>3.173</ele>
        <time>2020-12-18T23:01:31Z</time>
      </trkpt>
      <trkpt lat="47.89845" lon="-3.97352">
        <ele>3.085</ele>
        <time>2020-12-18T23:01:11Z</time>
      </trkpt>
      <trkpt lat="47.89851" lon="-3.97292">
        <ele>4.21</ele>
        <time>2019-08-22T16:21:16Z</time>
      </trkpt>
      <trkpt lat="47.90189" lon="-3.97348">
        <ele>9.299</ele>
        <time>2020-12-18T23:00:31Z</time>
      </trkpt>
      <trkpt lat="47.90173" lon="-3.97476">
        <ele>8.316</ele>
        <time>2020-12-18T23:00:11Z</time>
      </trkpt>
      <trkpt lat="47.90176" lon="-3.97528">
        <ele>5.749</ele>
        <time>2020-12-18T22:59:51Z</time>
      </trkpt>
      <trkpt lat="47.90148" lon="-3.97573">
        <ele>1.877</ele>
        <time>2020-12-18T22:59:31Z</time>
      </trkpt>
      <trkpt lat="47.902" lon="-3.97555">
        <ele>6.491</ele>
        <time>2020-12-18T22:59:11Z</time>
      </trkpt>
      <trkpt lat="47.90256" lon="-3.97563">
        <ele>5.908</ele>
        <time>2020-12-18T22:58:51Z</time>
      </trkpt>
      <trkpt lat="47.90389" lon="-3.97628">
        <ele>5.823</ele>
        <time>2020-12-18T22:58:31Z</time>
      </trkpt>
      <trkpt lat="47.90472" lon="-3.97689">
        <ele>5.003</ele>
        <time>2020-12-18T22:58:11Z</time>
      </trkpt>
      <trkpt lat="47.90505" lon="-3.97693">
        <ele>5.259</ele>
        <time>2020-12-18T22:57:51Z</time>
      </trkpt>
      <trkpt lat="47.90533" lon="-3.97709">
        <ele>5.622</ele>
        <time>2020-12-18T22:57:31Z</time>
      </trkpt>
      <trkpt lat="47.90577" lon="-3.97688">
        <ele>7.024</ele>
        <time>2020-12-18T22:57:11Z</time>
      </trkpt>
      <trkpt lat="47.90612" lon="-3.97717">
        <ele>5.259</ele>
        <time>2020-12-18T22:56:51Z</time>
      </trkpt>
      <trkpt lat="47.90685" lon="-3.97706">
        <ele>9.648</ele>
        <time>2020-12-18T22:56:31Z</time>
      </trkpt>
      <trkpt lat="47.90763" lon="-3.97676">
        <ele>12.295</ele>
        <time>2020-12-18T22:56:11Z</time>
      </trkpt>
      <trkpt lat="47.90861" lon="-3.97689">
        <ele>10.618</ele>
        <time>2020-12-18T22:55:51Z</time>
      </trkpt>
      <trkpt lat="47.9093" lon="-3.97698">
        <ele>8.446</ele>
        <time>2020-12-18T22:55:31Z</time>
      </trkpt>
      <trkpt lat="47.90921" lon="-3.97772">
        <ele>6.54</ele>
        <time>2020-12-18T22:55:11Z</time>
      </trkpt>
      <trkpt lat="47.90886" lon="-3.97843">
        <ele>8.608</ele>
        <time>2020-12-18T22:54:51Z</time>
      </trkpt>
      <trkpt lat="47.90802" lon="-3.97841">
        <ele>8.414</ele>
        <time>2020-12-18T22:54:31Z</time>
      </trkpt>
      <trkpt lat="47.90753" lon="-3.97871">
        <ele>7.922</ele>
        <time>2020-12-18T22:54:11Z</time>
      </trkpt>
      <trkpt lat="47.90662" lon="-3.97907">
        <ele>7.442</ele>
        <time>2020-12-18T22:53:51Z</time>
      </trkpt>
      <trkpt lat="47.90631" lon="-3.97911">
        <ele>8.112</ele>
        <time>2020-12-18T22:53:31Z</time>
      </trkpt>
      <trkpt lat="47.90625" lon="-3.97931">
        <ele>9.024</ele>
        <time>2020-12-18T22:53:11Z</time>
      </trkpt>
      <trkpt lat="47.90569" lon="-3.97913">
        <ele>4.639</ele>
        <time>2020-12-18T22:52:51Z</time>
      </trkpt>
      <trkpt lat="47.90519" lon="-3.97939">
        <ele>7.148</ele>
        <time>2020-12-18T22:52:31Z</time>
      </trkpt>
      <trkpt lat="47.90493" lon="-3.97939">
        <ele>7.135</ele>
        <time>2020-12-18T22:52:11Z</time>
      </trkpt>
      <trkpt lat="47.9046" lon="-3.97917">
        <ele>4.268</ele>
        <time>2020-12-18T22:51:51Z</time>
      </trkpt>
      <trkpt lat="47.90377" lon="-3.97902">
        <ele>7.746</ele>
        <time>2020-12-18T22:51:31Z</time>
      </trkpt>
      <trkpt lat="47.90349" lon="-3.97936">
        <ele>4.32</ele>
        <time>2020-12-18T22:51:11Z</time>
      </trkpt>
      <trkpt lat="47.90325" lon="-3.97994">
        <ele>6.308</ele>
        <time>2020-12-18T22:50:51Z</time>
      </trkpt>
      <trkpt lat="47.90304" lon="-3.98023">
        <ele>6.511</ele>
        <time>2020-12-18T22:50:31Z</time>
      </trkpt>
      <trkpt lat="47.90272" lon="-3.98015">
        <ele>3.747</ele>
        <time>2020-12-18T22:50:11Z</time>
      </trkpt>
      <trkpt lat="47.90223" lon="-3.97957">
        <ele>3.445</ele>
        <time>2020-12-18T22:49:51Z</time>
      </trkpt>
      <trkpt lat="47.90188" lon="-3.97955">
        <ele>4.433</ele>
        <time>2019-08-22T16:18:36Z</time>
      </trkpt>
      <trkpt lat="47.90137" lon="-3.98007">
        <ele>7.485</ele>
        <time>2019-08-22T16:18:16Z</time>
      </trkpt>
      <trkpt lat="47.90088" lon="-3.9802">
        <ele>7.25</ele>
        <time>2019-08-22T16:17:56Z</time>
      </trkpt>
      <trkpt lat="47.90028" lon="-3.98077">
        <ele>10.459</ele>
        <time>2019-08-22T16:17:36Z</time>
      </trkpt>
      <trkpt lat="47.89978" lon="-3.9809">
        <ele>7.636</ele>
        <time>2019-08-22T16:17:16Z</time>
      </trkpt>
      <trkpt lat="47.89932" lon="-3.98157">
        <ele>8.319</ele>
        <time>2019-08-22T16:16:56Z</time>
      </trkpt>
      <trkpt lat="47.89907" lon="-3.98168">
        <ele>8.747</ele>
        <time>2019-08-22T16:16:36Z</time>
      </trkpt>
      <trkpt lat="47.89844" lon="-3.98125">
        <ele>5.041</ele>
        <time>2019-08-22T16:16:16Z</time>
      </trkpt>
      <trkpt lat="47.89808" lon="-3.98114">
        <ele>4.208</ele>
        <time>2019-08-22T16:15:56Z</time>
      </trkpt>
      <trkpt lat="47.89759" lon="-3.98163">
        <ele>5.917</ele>
        <time>2019-08-22T16:15:36Z</time>
      </trkpt>
      <trkpt lat="47.89699" lon="-3.98176">
        <ele>6.552</ele>
        <time>2019-08-22T16:15:16Z</time>
      </trkpt>
      <trkpt lat="47.89654" lon="-3.98155">
        <ele>4.058</ele>
        <time>2019-08-22T16:14:56Z</time>
      </trkpt>
      <trkpt lat="47.89632" lon="-3.98097">
        <ele>5.285</ele>
        <time>2019-08-22T16:14:36Z</time>
      </trkpt>
      <trkpt lat="47.89596" lon="-3.98103">
        <ele>9.147</ele>
        <time>2019-08-22T16:14:16Z</time>
      </trkpt>
      <trkpt lat="47.89545" lon="-3.98084">
        <ele>10.452</ele>
        <time>2019-08-22T16:13:56Z</time>
      </trkpt>
      <trkpt lat="47.89486" lon="-3.98045">
        <ele>5.141</ele>
        <time>2019-08-22T16:13:36Z</time>
      </trkpt>
      <trkpt lat="47.89378" lon="-3.9821">
        <ele>3.818</ele>
        <time>2019-08-22T16:12:56Z</time>
      </trkpt>
      <trkpt lat="47.89418" lon="-3.98292">
        <ele>11.681</ele>
        <time>2019-08-22T16:12:36Z</time>
      </trkpt>
      <trkpt lat="47.89391" lon="-3.98333">
        <ele>6.479</ele>
        <time>2019-08-22T16:12:16Z</time>
      </trkpt>
      <trkpt lat="47.89411" lon="-3.98378">
        <ele>7.863</ele>
        <time>2019-08-22T16:11:56Z</time>
      </trkpt>
      <trkpt lat="47.89437" lon="-3.98453">
        <ele>7.908</ele>
        <time>2019-08-22T16:11:36Z</time>
      </trkpt>
      <trkpt lat="47.895" lon="-3.98513">
        <ele>5.527</ele>
        <time>2019-08-22T16:11:16Z</time>
      </trkpt>
      <trkpt lat="47.89535" lon="-3.98496">
        <ele>9.061</ele>
        <time>2019-08-22T16:10:56Z</time>
      </trkpt>
      <trkpt lat="47.89594" lon="-3.98571">
        <ele>6.777</ele>
        <time>2019-08-22T16:10:36Z</time>
      </trkpt>
      <trkpt lat="47.89571" lon="-3.98631">
        <ele>7.334</ele>
        <time>2019-08-22T16:10:16Z</time>
      </trkpt>
      <trkpt lat="47.89562" lon="-3.98678">
        <ele>1.766</ele>
        <time>2019-08-22T16:09:56Z</time>
      </trkpt>
      <trkpt lat="47.89563" lon="-3.9873">
        <ele>1.731</ele>
        <time>2019-08-22T16:09:36Z</time>
      </trkpt>
      <trkpt lat="47.8956" lon="-3.98869">
        <ele>1.02</ele>
        <time>2019-08-22T16:09:16Z</time>
      </trkpt>
      <trkpt lat="47.89583" lon="-3.98946">
        <ele>6.077</ele>
        <time>2019-08-22T16:08:56Z</time>
      </trkpt>
      <trkpt lat="47.89638" lon="-3.98998">
        <ele>5.14</ele>
        <time>2019-08-22T16:08:36Z</time>
      </trkpt>
      <trkpt lat="47.89714" lon="-3.99022">
        <ele>9.168</ele>
        <time>2019-08-22T16:08:16Z</time>
      </trkpt>
      <trkpt lat="47.89695" lon="-3.9925">
        <ele>11.032</ele>
        <time>2019-08-22T16:07:56Z</time>
      </trkpt>
      <trkpt lat="47.89653" lon="-3.99229">
        <ele>8.908</ele>
        <time>2019-08-22T16:07:36Z</time>
      </trkpt>
      <trkpt lat="47.89603" lon="-3.9922">
        <ele>7.011</ele>
        <time>2019-08-22T16:07:16Z</time>
      </trkpt>
      <trkpt lat="47.8952" lon="-3.99161">
        <ele>3.983</ele>
        <time>2019-08-22T16:06:56Z</time>
      </trkpt>
      <trkpt lat="47.89463" lon="-3.99169">
        <ele>8.462</ele>
        <time>2019-08-22T16:06:36Z</time>
      </trkpt>
      <trkpt lat="47.89398" lon="-3.99089">
        <ele>2.211</ele>
        <time>2019-08-22T16:06:16Z</time>
      </trkpt>
      <trkpt lat="47.89354" lon="-3.99055">
        <ele>2.863</ele>
        <time>2019-08-22T16:05:56Z</time>
      </trkpt>
      <trkpt lat="47.89313" lon="-3.98961">
        <ele>3.288</ele>
        <time>2019-08-22T16:05:36Z</time>
      </trkpt>
      <trkpt lat="47.89338" lon="-3.98914">
        <ele>0.047</ele>
        <time>2019-08-22T16:05:16Z</time>
      </trkpt>
      <trkpt lat="47.8933" lon="-3.98887">
        <ele>0.064</ele>
        <time>2019-08-22T16:04:56Z</time>
      </trkpt>
      <trkpt lat="47.8925" lon="-3.98843">
        <ele>3.537</ele>
        <time>2019-08-22T16:04:36Z</time>
      </trkpt>
      <trkpt lat="47.89179" lon="-3.98785">
        <ele>4.375</ele>
        <time>2019-08-22T16:04:16Z</time>
      </trkpt>
      <trkpt lat="47.89103" lon="-3.98763">
        <ele>7.269</ele>
        <time>2019-08-22T16:03:56Z</time>
      </trkpt>
      <trkpt lat="47.89078" lon="-3.98737">
        <ele>7.408</ele>
        <time>2019-08-22T16:03:36Z</time>
      </trkpt>
      <trkpt lat="47.89065" lon="-3.98709">
        <ele>6.011</ele>
        <time>2019-08-22T16:03:16Z</time>
      </trkpt>
      <trkpt lat="47.89045" lon="-3.98698">
        <ele>7.592</ele>
        <time>2019-08-22T16:02:56Z</time>
      </trkpt>
      <trkpt lat="47.89048" lon="-3.98674">
        <ele>6.032</ele>
        <time>2019-08-22T16:02:36Z</time>
      </trkpt>
      <trkpt lat="47.89005" lon="-3.98554">
        <ele>5.052</ele>
        <time>2019-08-22T16:02:16Z</time>
      </trkpt>
      <trkpt lat="47.88989" lon="-3.98434">
        <ele>2.264</ele>
        <time>2019-08-22T16:01:56Z</time>
      </trkpt>
      <trkpt lat="47.88991" lon="-3.98389">
        <ele>1.329</ele>
        <time>2016-04-28T00:50:17Z</time>
      </trkpt>
      <trkpt lat="47.88906" lon="-3.982">
        <ele>2.758</ele>
        <time>2016-04-28T00:49:57Z</time>
      </trkpt>
      <trkpt lat="47.88854" lon="-3.98178">
        <ele>8.035</ele>
        <time>2016-04-28T00:49:37Z</time>
      </trkpt>
      <trkpt lat="47.88745" lon="-3.98406">
        <ele>6.628</ele>
        <time>2016-04-28T00:49:17Z</time>
      </trkpt>
      <trkpt lat="47.88706" lon="-3.98543">
        <ele>5.996</ele>
        <time>2016-04-28T00:48:57Z</time>
      </trkpt>
      <trkpt lat="47.88566" lon="-3.98753">
        <ele>5.51</ele>
        <time>2016-04-28T00:48:37Z</time>
      </trkpt>
      <trkpt lat="47.88428" lon="-3.98925">
        <ele>5.008</ele>
        <time>2016-04-28T00:48:17Z</time>
      </trkpt>
      <trkpt lat="47.88355" lon="-3.98998">
        <ele>6.717</ele>
        <time>2016-04-28T00:47:57Z</time>
      </trkpt>
      <trkpt lat="47.8828" lon="-3.99015">
        <ele>16.961</ele>
        <time>2016-04-28T00:47:37Z</time>
      </trkpt>
      <trkpt lat="47.88188" lon="-3.98972">
        <ele>14.248</ele>
        <time>2016-04-28T00:47:17Z</time>
      </trkpt>
      <trkpt lat="47.88099" lon="-3.98886">
        <ele>13.293</ele>
        <time>2016-04-28T00:46:57Z</time>
      </trkpt>
      <trkpt lat="47.88057" lon="-3.98867">
        <ele>13.425</ele>
        <time>2016-04-28T00:46:37Z</time>
      </trkpt>
      <trkpt lat="47.88038" lon="-3.98828">
        <ele>11.92</ele>
        <time>2016-04-28T00:46:17Z</time>
      </trkpt>
      <trkpt lat="47.88027" lon="-3.98794">
        <ele>10.439</ele>
        <time>2016-04-28T00:45:57Z</time>
      </trkpt>
      <trkpt lat="47.87962" lon="-3.98732">
        <ele>7.666</ele>
        <time>2016-04-28T00:45:37Z</time>
      </trkpt>
      <trkpt lat="47.87942" lon="-3.98751">
        <ele>16.739</ele>
        <time>2016-04-28T00:45:17Z</time>
      </trkpt>
      <trkpt lat="47.87914" lon="-3.9871">
        <ele>12.187</ele>
        <time>2016-04-28T00:44:57Z</time>
      </trkpt>
      <trkpt lat="47.87886" lon="-3.9874">
        <ele>20.291</ele>
        <time>2016-04-28T00:44:37Z</time>
      </trkpt>
      <trkpt lat="47.87858" lon="-3.98738">
        <ele>19.508</ele>
        <time>2016-04-28T00:44:17Z</time>
      </trkpt>
      <trkpt lat="47.87815" lon="-3.98695">
        <ele>13.517</ele>
        <time>2016-04-28T00:43:57Z</time>
      </trkpt>
      <trkpt lat="47.87788" lon="-3.98706">
        <ele>17.252</ele>
        <time>2016-04-28T00:43:37Z</time>
      </trkpt>
      <trkpt lat="47.87734" lon="-3.9867">
        <ele>14.058</ele>
        <time>2016-04-28T00:43:17Z</time>
      </trkpt>
      <trkpt lat="47.87665" lon="-3.98655">
        <ele>20.833</ele>
        <time>2016-04-28T00:42:57Z</time>
      </trkpt>
      <trkpt lat="47.87595" lon="-3.98541">
        <ele>10.775</ele>
        <time>2016-04-28T00:42:37Z</time>
      </trkpt>
      <trkpt lat="47.87559" lon="-3.98532">
        <ele>9.57</ele>
        <time>2016-04-28T00:42:17Z</time>
      </trkpt>
      <trkpt lat="47.87484" lon="-3.98573">
        <ele>12.349</ele>
        <time>2016-04-28T00:41:57Z</time>
      </trkpt>
      <trkpt lat="47.87356" lon="-3.98556">
        <ele>7.676</ele>
        <time>2016-04-28T00:41:37Z</time>
      </trkpt>
      <trkpt lat="47.87358" lon="-3.98534">
        <ele>5.739</ele>
        <time>2020-12-18T22:23:51Z</time>
      </trkpt>
      <trkpt lat="47.87343" lon="-3.98529">
        <ele>5.887</ele>
        <time>2020-12-18T22:23:31Z</time>
      </trkpt>
      <trkpt lat="47.8735" lon="-3.98484">
        <ele>2.441</ele>
        <time>2020-12-18T22:23:11Z</time>
      </trkpt>
      <trkpt lat="47.87328" lon="-3.98484">
        <ele>2.908</ele>
        <time>2020-12-18T22:22:51Z</time>
      </trkpt>
      <trkpt lat="47.87304" lon="-3.98534">
        <ele>8.42</ele>
        <time>2016-04-28T00:39:17Z</time>
      </trkpt>
      <trkpt lat="47.87278" lon="-3.98534">
        <ele>6.5</ele>
        <time>2016-04-28T00:38:57Z</time>
      </trkpt>
      <trkpt lat="47.87272" lon="-3.98515">
        <ele>4.757</ele>
        <time>2016-04-28T00:38:37Z</time>
      </trkpt>
      <trkpt lat="47.87251" lon="-3.9856">
        <ele>7.45</ele>
        <time>2016-04-28T00:38:17Z</time>
      </trkpt>
      <trkpt lat="47.87218" lon="-3.98562">
        <ele>7.852</ele>
        <time>2016-04-28T00:37:57Z</time>
      </trkpt>
      <trkpt lat="47.87182" lon="-3.98539">
        <ele>8.837</ele>
        <time>2016-04-28T00:37:37Z</time>
      </trkpt>
      <trkpt lat="47.87146" lon="-3.98554">
        <ele>10.966</ele>
        <time>2016-04-28T00:37:17Z</time>
      </trkpt>
      <trkpt lat="47.86993" lon="-3.9853">
        <ele>14.483</ele>
        <time>2016-04-28T00:36:57Z</time>
      </trkpt>
      <trkpt lat="47.86954" lon="-3.98442">
        <ele>6.046</ele>
        <time>2016-04-28T00:36:37Z</time>
      </trkpt>
      <trkpt lat="47.86864" lon="-3.98528">
        <ele>15.834</ele>
        <time>2016-04-28T00:36:17Z</time>
      </trkpt>
      <trkpt lat="47.86866" lon="-3.9855">
        <ele>15.818</ele>
        <time>2016-04-28T00:35:57Z</time>
      </trkpt>
      <trkpt lat="47.86832" lon="-3.98571">
        <ele>13.808</ele>
        <time>2016-04-28T00:35:37Z</time>
      </trkpt>
      <trkpt lat="47.86803" lon="-3.98569">
        <ele>10.311</ele>
        <time>2016-04-28T00:35:17Z</time>
      </trkpt>
      <trkpt lat="47.86779" lon="-3.98607">
        <ele>10.847</ele>
        <time>2016-04-28T00:34:57Z</time>
      </trkpt>
      <trkpt lat="47.86727" lon="-3.98595">
        <ele>8.326</ele>
        <time>2016-04-28T00:34:37Z</time>
      </trkpt>
      <trkpt lat="47.86708" lon="-3.98627">
        <ele>12.253</ele>
        <time>2016-04-28T00:34:17Z</time>
      </trkpt>
      <trkpt lat="47.86684" lon="-3.98601">
        <ele>9.785</ele>
        <time>2016-04-28T00:33:57Z</time>
      </trkpt>
      <trkpt lat="47.86649" lon="-3.98597">
        <ele>9.58</ele>
        <time>2016-04-28T00:33:37Z</time>
      </trkpt>
      <trkpt lat="47.86625" lon="-3.98584">
        <ele>9.039</ele>
        <time>2016-04-28T00:33:17Z</time>
      </trkpt>
      <trkpt lat="47.8663" lon="-3.98545">
        <ele>7.636</ele>
        <time>2016-04-28T00:32:57Z</time>
      </trkpt>
      <trkpt lat="47.86616" lon="-3.98511">
        <ele>2.749</ele>
        <time>2016-04-28T00:32:37Z</time>
      </trkpt>
      <trkpt lat="47.86593" lon="-3.98539">
        <ele>8.387</ele>
        <time>2016-04-28T00:32:17Z</time>
      </trkpt>
      <trkpt lat="47.86543" lon="-3.98528">
        <ele>10.561</ele>
        <time>2016-04-28T00:31:57Z</time>
      </trkpt>
      <trkpt lat="47.86518" lon="-3.98492">
        <ele>7.008</ele>
        <time>2016-04-28T00:31:37Z</time>
      </trkpt>
      <trkpt lat="47.86525" lon="-3.98468">
        <ele>4.217</ele>
        <time>2016-04-28T00:31:17Z</time>
      </trkpt>
      <trkpt lat="47.86505" lon="-3.98442">
        <ele>2.352</ele>
        <time>2016-04-28T00:30:57Z</time>
      </trkpt>
      <trkpt lat="47.86491" lon="-3.98477">
        <ele>4.658</ele>
        <time>2016-04-28T00:30:37Z</time>
      </trkpt>
      <trkpt lat="47.86471" lon="-3.98453">
        <ele>3.426</ele>
        <time>2016-04-28T00:30:17Z</time>
      </trkpt>
      <trkpt lat="47.86394" lon="-3.98492">
        <ele>9.568</ele>
        <time>2016-04-28T00:29:57Z</time>
      </trkpt>
      <trkpt lat="47.86386" lon="-3.98612">
        <ele>14.053</ele>
        <time>2016-04-28T00:29:37Z</time>
      </trkpt>
      <trkpt lat="47.86341" lon="-3.98592">
        <ele>13.862</ele>
        <time>2016-04-28T00:29:17Z</time>
      </trkpt>
      <trkpt lat="47.86327" lon="-3.98599">
        <ele>13.389</ele>
        <time>2016-04-28T00:28:57Z</time>
      </trkpt>
      <trkpt lat="47.86301" lon="-3.98588">
        <ele>13.022</ele>
        <time>2016-04-28T00:28:37Z</time>
      </trkpt>
      <trkpt lat="47.86278" lon="-3.98693">
        <ele>16.02</ele>
        <time>2016-04-28T00:28:17Z</time>
      </trkpt>
      <trkpt lat="47.86209" lon="-3.98659">
        <ele>15.264</ele>
        <time>2016-04-28T00:27:57Z</time>
      </trkpt>
      <trkpt lat="47.86188" lon="-3.98629">
        <ele>14.008</ele>
        <time>2016-04-28T00:27:37Z</time>
      </trkpt>
      <trkpt lat="47.86197" lon="-3.98603">
        <ele>14.026</ele>
        <time>2016-04-28T00:27:17Z</time>
      </trkpt>
      <trkpt lat="47.86186" lon="-3.98532">
        <ele>13.76</ele>
        <time>2016-04-28T00:26:57Z</time>
      </trkpt>
      <trkpt lat="47.8616" lon="-3.98537">
        <ele>13.286</ele>
        <time>2016-04-28T00:26:37Z</time>
      </trkpt>
      <trkpt lat="47.86155" lon="-3.9855">
        <ele>13.523</ele>
        <time>2016-04-28T00:26:17Z</time>
      </trkpt>
      <trkpt lat="47.86112" lon="-3.98526">
        <ele>12.965</ele>
        <time>2016-04-28T00:25:57Z</time>
      </trkpt>
      <trkpt lat="47.86108" lon="-3.98534">
        <ele>13.47</ele>
        <time>2016-04-28T00:25:37Z</time>
      </trkpt>
      <trkpt lat="47.86079" lon="-3.98526">
        <ele>14.169</ele>
        <time>2016-04-28T00:25:17Z</time>
      </trkpt>
      <trkpt lat="47.86088" lon="-3.98479">
        <ele>12.126</ele>
        <time>2016-04-28T00:24:57Z</time>
      </trkpt>
      <trkpt lat="47.86043" lon="-3.9847">
        <ele>13.429</ele>
        <time>2016-04-28T00:24:37Z</time>
      </trkpt>
      <trkpt lat="47.86012" lon="-3.98451">
        <ele>13.837</ele>
        <time>2020-12-18T22:07:31Z</time>
      </trkpt>
      <trkpt lat="47.85975" lon="-3.98452">
        <ele>15.961</ele>
        <time>2020-12-18T22:07:11Z</time>
      </trkpt>
      <trkpt lat="47.85983" lon="-3.98363">
        <ele>11.208</ele>
        <time>2020-12-18T22:06:51Z</time>
      </trkpt>
      <trkpt lat="47.85975" lon="-3.98332">
        <ele>9.917</ele>
        <time>2020-12-18T22:06:31Z</time>
      </trkpt>
      <trkpt lat="47.85951" lon="-3.98322">
        <ele>10.007</ele>
        <time>2020-12-18T22:06:11Z</time>
      </trkpt>
      <trkpt lat="47.85966" lon="-3.98224">
        <ele>4.655</ele>
        <time>2020-12-18T22:05:51Z</time>
      </trkpt>
      <trkpt lat="47.85947" lon="-3.98226">
        <ele>6.153</ele>
        <time>2020-12-18T22:05:31Z</time>
      </trkpt>
      <trkpt lat="47.85926" lon="-3.98207">
        <ele>8.225</ele>
        <time>2020-12-18T22:05:11Z</time>
      </trkpt>
      <trkpt lat="47.85929" lon="-3.98191">
        <ele>6.79</ele>
        <time>2020-12-18T22:04:51Z</time>
      </trkpt>
      <trkpt lat="47.85895" lon="-3.9813">
        <ele>8.159</ele>
        <time>2020-12-18T22:04:31Z</time>
      </trkpt>
      <trkpt lat="47.85874" lon="-3.98129">
        <ele>10.696</ele>
        <time>2020-12-18T22:04:11Z</time>
      </trkpt>
      <trkpt lat="47.85866" lon="-3.98081">
        <ele>5.489</ele>
        <time>2020-12-18T22:03:51Z</time>
      </trkpt>
      <trkpt lat="47.85808" lon="-3.9803">
        <ele>10.167</ele>
        <time>2020-12-18T22:03:31Z</time>
      </trkpt>
      <trkpt lat="47.85787" lon="-3.98048">
        <ele>10.171</ele>
        <time>2020-12-18T22:03:11Z</time>
      </trkpt>
      <trkpt lat="47.8577" lon="-3.98036">
        <ele>9.408</ele>
        <time>2020-12-18T22:02:51Z</time>
      </trkpt>
      <trkpt lat="47.85773" lon="-3.97997">
        <ele>7.823</ele>
        <time>2020-12-18T22:02:31Z</time>
      </trkpt>
      <trkpt lat="47.8573" lon="-3.98001">
        <ele>8.703</ele>
        <time>2020-12-18T22:02:11Z</time>
      </trkpt>
      <trkpt lat="47.85703" lon="-3.97939">
        <ele>7.559</ele>
        <time>2020-12-18T22:01:51Z</time>
      </trkpt>
      <trkpt lat="47.85692" lon="-3.97885">
        <ele>6.551</ele>
        <time>2016-04-28T00:22:17Z</time>
      </trkpt>
      <trkpt lat="47.85708" lon="-3.97855">
        <ele>2.833</ele>
        <time>2016-04-28T00:21:57Z</time>
      </trkpt>
      <trkpt lat="47.85699" lon="-3.97825">
        <ele>3.018</ele>
        <time>2016-04-28T00:21:37Z</time>
      </trkpt>
      <trkpt lat="47.85686" lon="-3.97813">
        <ele>4.337</ele>
        <time>2016-04-28T00:21:17Z</time>
      </trkpt>
      <trkpt lat="47.85671" lon="-3.97821">
        <ele>6.644</ele>
        <time>2016-04-28T00:20:57Z</time>
      </trkpt>
      <trkpt lat="47.85667" lon="-3.97791">
        <ele>4.967</ele>
        <time>2016-04-28T00:20:37Z</time>
      </trkpt>
      <trkpt lat="47.85626" lon="-3.9776">
        <ele>7.275</ele>
        <time>2016-04-28T00:20:17Z</time>
      </trkpt>
      <trkpt lat="47.85598" lon="-3.97709">
        <ele>6.559</ele>
        <time>2016-04-28T00:19:57Z</time>
      </trkpt>
      <trkpt lat="47.85591" lon="-3.97643">
        <ele>5.408</ele>
        <time>2016-04-28T00:19:37Z</time>
      </trkpt>
      <trkpt lat="47.856" lon="-3.9763">
        <ele>4.607</ele>
        <time>2016-04-28T00:19:17Z</time>
      </trkpt>
      <trkpt lat="47.85588" lon="-3.97594">
        <ele>4.261</ele>
        <time>2016-04-28T00:18:57Z</time>
      </trkpt>
      <trkpt lat="47.85565" lon="-3.97585">
        <ele>6.131</ele>
        <time>2016-04-28T00:18:37Z</time>
      </trkpt>
      <trkpt lat="47.85563" lon="-3.97569">
        <ele>5.721</ele>
        <time>2016-04-28T00:18:17Z</time>
      </trkpt>
      <trkpt lat="47.85572" lon="-3.97553">
        <ele>4.143</ele>
        <time>2016-04-28T00:17:57Z</time>
      </trkpt>
      <trkpt lat="47.8557" lon="-3.97522">
        <ele>3.378</ele>
        <time>2016-04-28T00:17:37Z</time>
      </trkpt>
      <trkpt lat="47.85516" lon="-3.97518">
        <ele>5.427</ele>
        <time>2016-04-28T00:17:17Z</time>
      </trkpt>
      <trkpt lat="47.85505" lon="-3.97487">
        <ele>4.084</ele>
        <time>2016-04-28T00:16:57Z</time>
      </trkpt>
      <trkpt lat="47.85502" lon="-3.97514">
        <ele>5.577</ele>
        <time>2016-04-28T00:16:37Z</time>
      </trkpt>
      <trkpt lat="47.85481" lon="-3.97521">
        <ele>5.135</ele>
        <time>2016-04-28T00:16:17Z</time>
      </trkpt>
      <trkpt lat="47.85437" lon="-3.97602">
        <ele>6.189</ele>
        <time>2016-04-28T00:15:57Z</time>
      </trkpt>
      <trkpt lat="47.85415" lon="-3.97765">
        <ele>7.808</ele>
        <time>2016-04-28T00:15:37Z</time>
      </trkpt>
      <trkpt lat="47.85458" lon="-3.97945">
        <ele>8.41</ele>
        <time>2016-04-28T00:15:17Z</time>
      </trkpt>
      <trkpt lat="47.85467" lon="-3.9806">
        <ele>8.155</ele>
        <time>2016-04-28T00:14:57Z</time>
      </trkpt>
      <trkpt lat="47.85454" lon="-3.98133">
        <ele>8.434</ele>
        <time>2016-04-28T00:13:37Z</time>
      </trkpt>
      <trkpt lat="47.85402" lon="-3.98217">
        <ele>6.345</ele>
        <time>2016-04-28T00:13:17Z</time>
      </trkpt>
      <trkpt lat="47.85416" lon="-3.98281">
        <ele>9.957</ele>
        <time>2020-12-18T21:53:11Z</time>
      </trkpt>
      <trkpt lat="47.85435" lon="-3.98468">
        <ele>9.512</ele>
        <time>2016-04-28T00:12:37Z</time>
      </trkpt>
      <trkpt lat="47.85389" lon="-3.98663">
        <ele>7.921</ele>
        <time>2016-04-28T00:11:37Z</time>
      </trkpt>
      <trkpt lat="47.85361" lon="-3.98721">
        <ele>6.958</ele>
        <time>2016-04-28T00:11:17Z</time>
      </trkpt>
      <trkpt lat="47.85379" lon="-3.98774">
        <ele>7.741</ele>
        <time>2016-04-28T00:10:57Z</time>
      </trkpt>
      <trkpt lat="47.85433" lon="-3.98859">
        <ele>9.379</ele>
        <time>2016-04-28T00:10:37Z</time>
      </trkpt>
      <trkpt lat="47.85434" lon="-3.98927">
        <ele>6.253</ele>
        <time>2016-04-28T00:10:17Z</time>
      </trkpt>
      <trkpt lat="47.85424" lon="-3.99068">
        <ele>5.308</ele>
        <time>2016-04-28T00:09:57Z</time>
      </trkpt>
      <trkpt lat="47.8538" lon="-3.99358">
        <ele>3.615</ele>
        <time>2016-04-28T00:09:37Z</time>
      </trkpt>
      <trkpt lat="47.85434" lon="-3.99361">
        <ele>4.041</ele>
        <time>2016-04-28T00:09:17Z</time>
      </trkpt>
      <trkpt lat="47.85361" lon="-3.99556">
        <ele>3.071</ele>
        <time>2016-04-28T00:08:57Z</time>
      </trkpt>
      <trkpt lat="47.85299" lon="-3.9982">
        <ele>2.835</ele>
        <time>2016-04-28T00:08:37Z</time>
      </trkpt>
      <trkpt lat="47.85238" lon="-4.0014">
        <ele>5.477</ele>
        <time>2016-04-28T00:08:17Z</time>
      </trkpt>
      <trkpt lat="47.85306" lon="-4.00127">
        <ele>4.092</ele>
        <time>2016-04-28T00:07:57Z</time>
      </trkpt>
      <trkpt lat="47.85355" lon="-4.00148">
        <ele>4.281</ele>
        <time>2016-04-28T00:07:37Z</time>
      </trkpt>
      <trkpt lat="47.85333" lon="-4.00294">
        <ele>4.638</ele>
        <time>2016-04-28T00:07:17Z</time>
      </trkpt>
      <trkpt lat="47.85346" lon="-4.00438">
        <ele>6.131</ele>
        <time>2016-04-28T00:06:57Z</time>
      </trkpt>
      <trkpt lat="47.85319" lon="-4.0053">
        <ele>4.489</ele>
        <time>2016-04-28T00:06:37Z</time>
      </trkpt>
      <trkpt lat="47.85338" lon="-4.00655">
        <ele>5.063</ele>
        <time>2016-04-28T00:06:17Z</time>
      </trkpt>
      <trkpt lat="47.85329" lon="-4.00781">
        <ele>2.008</ele>
        <time>2016-04-28T00:05:57Z</time>
      </trkpt>
      <trkpt lat="47.85339" lon="-4.00916">
        <ele>4.019</ele>
        <time>2016-04-28T00:05:37Z</time>
      </trkpt>
      <trkpt lat="47.85368" lon="-4.01036">
        <ele>3.79</ele>
        <time>2016-04-28T00:05:17Z</time>
      </trkpt>
      <trkpt lat="47.85434" lon="-4.01266">
        <ele>3.776</ele>
        <time>2016-04-28T00:04:57Z</time>
      </trkpt>
      <trkpt lat="47.85484" lon="-4.01382">
        <ele>3.926</ele>
        <time>2016-04-28T00:04:37Z</time>
      </trkpt>
      <trkpt lat="47.8552" lon="-4.01401">
        <ele>4.068</ele>
        <time>2016-04-28T00:04:17Z</time>
      </trkpt>
      <trkpt lat="47.85568" lon="-4.01463">
        <ele>3.233</ele>
        <time>2016-04-28T00:03:57Z</time>
      </trkpt>
      <trkpt lat="47.85689" lon="-4.01592">
        <ele>3.092</ele>
        <time>2016-04-28T00:03:37Z</time>
      </trkpt>
      <trkpt lat="47.85634" lon="-4.01691">
        <ele>4.929</ele>
        <time>2016-04-28T00:03:17Z</time>
      </trkpt>
      <trkpt lat="47.85571" lon="-4.01678">
        <ele>4.252</ele>
        <time>2016-04-28T00:02:57Z</time>
      </trkpt>
      <trkpt lat="47.85502" lon="-4.01721">
        <ele>3.14</ele>
        <time>2016-04-28T00:02:37Z</time>
      </trkpt>
      <trkpt lat="47.85389" lon="-4.0188">
        <ele>2.344</ele>
        <time>2016-04-28T00:02:17Z</time>
      </trkpt>
      <trkpt lat="47.85369" lon="-4.01946">
        <ele>2.308</ele>
        <time>2016-04-28T00:01:57Z</time>
      </trkpt>
      <trkpt lat="47.85332" lon="-4.02062">
        <ele>2.417</ele>
        <time>2016-04-28T00:01:37Z</time>
      </trkpt>
      <trkpt lat="47.85315" lon="-4.0218">
        <ele>3.743</ele>
        <time>2016-04-28T00:01:17Z</time>
      </trkpt>
      <trkpt lat="47.85253" lon="-4.0241">
        <ele>4.782</ele>
        <time>2016-04-28T00:00:57Z</time>
      </trkpt>
      <trkpt lat="47.85271" lon="-4.02564">
        <ele>3.07</ele>
        <time>2016-04-28T00:00:37Z</time>
      </trkpt>
      <trkpt lat="47.85263" lon="-4.02631">
        <ele>3.042</ele>
        <time>2016-04-28T00:00:17Z</time>
      </trkpt>
      <trkpt lat="47.85264" lon="-4.0274">
        <ele>3.817</ele>
        <time>2016-04-27T23:59:57Z</time>
      </trkpt>
      <trkpt lat="47.85281" lon="-4.0289">
        <ele>6.946</ele>
        <time>2016-04-27T23:59:37Z</time>
      </trkpt>
      <trkpt lat="47.85319" lon="-4.02935">
        <ele>5.553</ele>
        <time>2016-04-27T23:59:17Z</time>
      </trkpt>
      <trkpt lat="47.85375" lon="-4.02948">
        <ele>5.666</ele>
        <time>2016-04-27T23:58:57Z</time>
      </trkpt>
      <trkpt lat="47.85304" lon="-4.0332">
        <ele>4.474</ele>
        <time>2016-04-27T23:57:17Z</time>
      </trkpt>
      <trkpt lat="47.85234" lon="-4.03352">
        <ele>2.798</ele>
        <time>2016-04-27T23:56:57Z</time>
      </trkpt>
      <trkpt lat="47.85133" lon="-4.03341">
        <ele>4.008</ele>
        <time>2016-04-27T23:56:37Z</time>
      </trkpt>
      <trkpt lat="47.85106" lon="-4.03397">
        <ele>4.42</ele>
        <time>2016-04-27T23:56:17Z</time>
      </trkpt>
      <trkpt lat="47.85084" lon="-4.03506">
        <ele>6</ele>
        <time>2016-04-27T23:55:57Z</time>
      </trkpt>
      <trkpt lat="47.85093" lon="-4.03607">
        <ele>4.429</ele>
        <time>2016-04-27T23:55:37Z</time>
      </trkpt>
      <trkpt lat="47.85113" lon="-4.03719">
        <ele>5.044</ele>
        <time>2016-04-27T23:55:17Z</time>
      </trkpt>
      <trkpt lat="47.85116" lon="-4.03764">
        <ele>4.636</ele>
        <time>2016-04-27T23:54:57Z</time>
      </trkpt>
      <trkpt lat="47.8507" lon="-4.03738">
        <ele>4.381</ele>
        <time>2016-04-27T23:54:37Z</time>
      </trkpt>
      <trkpt lat="47.8507" lon="-4.03738">
        <ele>4.35</ele>
        <time>2016-04-27T23:54:17Z</time>
      </trkpt>
      <trkpt lat="47.8497" lon="-4.03728">
        <ele>5.757</ele>
        <time>2020-12-18T21:36:11Z</time>
      </trkpt>
      <trkpt lat="47.84898" lon="-4.03706">
        <ele>3.03</ele>
        <time>2016-04-27T23:53:37Z</time>
      </trkpt>
      <trkpt lat="47.8478" lon="-4.03605">
        <ele>4.098</ele>
        <time>2016-04-27T23:53:17Z</time>
      </trkpt>
      <trkpt lat="47.84484" lon="-4.03965">
        <ele>1.942</ele>
        <time>2016-04-27T23:52:57Z</time>
      </trkpt>
      <trkpt lat="47.84455" lon="-4.04045">
        <ele>1.408</ele>
        <time>2016-04-27T23:52:37Z</time>
      </trkpt>
      <trkpt lat="47.84534" lon="-4.04139">
        <ele>3.216</ele>
        <time>2016-04-27T23:52:17Z</time>
      </trkpt>
      <trkpt lat="47.84648" lon="-4.04118">
        <ele>5.006</ele>
        <time>2016-04-27T23:51:57Z</time>
      </trkpt>
      <trkpt lat="47.84787" lon="-4.04328">
        <ele>5.564</ele>
        <time>2016-04-27T23:51:37Z</time>
      </trkpt>
      <trkpt lat="47.84933" lon="-4.04507">
        <ele>4.657</ele>
        <time>2020-12-18T21:33:31Z</time>
      </trkpt>
      <trkpt lat="47.84964" lon="-4.04495">
        <ele>5.059</ele>
        <time>2020-12-18T21:33:11Z</time>
      </trkpt>
      <trkpt lat="47.85107" lon="-4.04656">
        <ele>3.824</ele>
        <time>2016-04-27T23:50:37Z</time>
      </trkpt>
      <trkpt lat="47.85363" lon="-4.05055">
        <ele>3.963</ele>
        <time>2016-04-27T23:50:17Z</time>
      </trkpt>
      <trkpt lat="47.85433" lon="-4.05214">
        <ele>4.23</ele>
        <time>2016-04-27T23:49:57Z</time>
      </trkpt>
      <trkpt lat="47.85469" lon="-4.05143">
        <ele>1.993</ele>
        <time>2016-04-27T23:49:37Z</time>
      </trkpt>
      <trkpt lat="47.85579" lon="-4.05137">
        <ele>5.151</ele>
        <time>2016-04-27T23:49:17Z</time>
      </trkpt>
      <trkpt lat="47.85677" lon="-4.05032">
        <ele>6.945</ele>
        <time>2016-04-27T23:48:57Z</time>
      </trkpt>
      <trkpt lat="47.85716" lon="-4.05036">
        <ele>7.808</ele>
        <time>2016-04-27T23:48:37Z</time>
      </trkpt>
      <trkpt lat="47.85843" lon="-4.05133">
        <ele>9.12</ele>
        <time>2016-04-27T23:48:17Z</time>
      </trkpt>
      <trkpt lat="47.85983" lon="-4.05148">
        <ele>7.773</ele>
        <time>2016-04-27T23:47:57Z</time>
      </trkpt>
      <trkpt lat="47.8605" lon="-4.05225">
        <ele>8.892</ele>
        <time>2016-04-27T23:47:37Z</time>
      </trkpt>
      <trkpt lat="47.86078" lon="-4.05236">
        <ele>9.036</ele>
        <time>2016-04-27T23:47:17Z</time>
      </trkpt>
      <trkpt lat="47.86214" lon="-4.05382">
        <ele>6.668</ele>
        <time>2020-12-18T21:29:11Z</time>
      </trkpt>
      <trkpt lat="47.86206" lon="-4.05411">
        <ele>6.123</ele>
        <time>2020-12-18T21:28:51Z</time>
      </trkpt>
      <trkpt lat="47.86218" lon="-4.05555">
        <ele>6.272</ele>
        <time>2020-12-18T21:28:31Z</time>
      </trkpt>
      <trkpt lat="47.86202" lon="-4.05606">
        <ele>5.929</ele>
        <time>2020-12-18T21:28:11Z</time>
      </trkpt>
      <trkpt lat="47.86208" lon="-4.05654">
        <ele>5.892</ele>
        <time>2020-12-18T21:27:51Z</time>
      </trkpt>
      <trkpt lat="47.86265" lon="-4.05721">
        <ele>6.59</ele>
        <time>2020-12-18T21:27:31Z</time>
      </trkpt>
      <trkpt lat="47.86311" lon="-4.05811">
        <ele>8.054</ele>
        <time>2016-04-27T23:40:37Z</time>
      </trkpt>
      <trkpt lat="47.86389" lon="-4.05761">
        <ele>10.008</ele>
        <time>2016-04-27T23:40:17Z</time>
      </trkpt>
      <trkpt lat="47.86419" lon="-4.05927">
        <ele>9.926</ele>
        <time>2016-04-27T23:39:57Z</time>
      </trkpt>
      <trkpt lat="47.86088" lon="-4.06225">
        <ele>3.142</ele>
        <time>2016-04-27T23:39:37Z</time>
      </trkpt>
      <trkpt lat="47.86112" lon="-4.06335">
        <ele>4.087</ele>
        <time>2016-04-27T23:39:17Z</time>
      </trkpt>
      <trkpt lat="47.86151" lon="-4.06353">
        <ele>3.645</ele>
        <time>2016-04-27T23:38:57Z</time>
      </trkpt>
      <trkpt lat="47.8623" lon="-4.06321">
        <ele>3.317</ele>
        <time>2016-04-27T23:38:37Z</time>
      </trkpt>
      <trkpt lat="47.86226" lon="-4.06482">
        <ele>0.752</ele>
        <time>2016-04-27T23:38:17Z</time>
      </trkpt>
      <trkpt lat="47.86393" lon="-4.06421">
        <ele>6.771</ele>
        <time>2016-04-27T23:37:57Z</time>
      </trkpt>
      <trkpt lat="47.86475" lon="-4.06319">
        <ele>4.928</ele>
        <time>2016-04-27T23:37:37Z</time>
      </trkpt>
      <trkpt lat="47.8651" lon="-4.06313">
        <ele>3.831</ele>
        <time>2016-04-27T23:37:17Z</time>
      </trkpt>
      <trkpt lat="47.8659" lon="-4.06185">
        <ele>8.859</ele>
        <time>2016-04-27T23:36:57Z</time>
      </trkpt>
      <trkpt lat="47.86604" lon="-4.06198">
        <ele>9.213</ele>
        <time>2020-12-18T21:23:11Z</time>
      </trkpt>
      <trkpt lat="47.86577" lon="-4.06261">
        <ele>5.008</ele>
        <time>2020-12-18T21:22:51Z</time>
      </trkpt>
      <trkpt lat="47.86576" lon="-4.06326">
        <ele>4.014</ele>
        <time>2020-12-18T21:22:31Z</time>
      </trkpt>
      <trkpt lat="47.86638" lon="-4.06345">
        <ele>6.913</ele>
        <time>2020-12-18T21:22:11Z</time>
      </trkpt>
      <trkpt lat="47.86717" lon="-4.06314">
        <ele>7.272</ele>
        <time>2020-12-18T21:21:51Z</time>
      </trkpt>
      <trkpt lat="47.86744" lon="-4.06319">
        <ele>5.969</ele>
        <time>2020-12-18T21:21:31Z</time>
      </trkpt>
      <trkpt lat="47.86753" lon="-4.06386">
        <ele>5.081</ele>
        <time>2016-04-27T23:35:57Z</time>
      </trkpt>
      <trkpt lat="47.86659" lon="-4.06401">
        <ele>6.486</ele>
        <time>2016-04-27T23:35:37Z</time>
      </trkpt>
      <trkpt lat="47.86589" lon="-4.06441">
        <ele>7.855</ele>
        <time>2016-04-27T23:35:17Z</time>
      </trkpt>
      <trkpt lat="47.86512" lon="-4.06433">
        <ele>6.072</ele>
        <time>2016-04-27T23:34:57Z</time>
      </trkpt>
      <trkpt lat="47.86424" lon="-4.065">
        <ele>5.045</ele>
        <time>2016-04-27T23:34:37Z</time>
      </trkpt>
      <trkpt lat="47.86378" lon="-4.06604">
        <ele>5.313</ele>
        <time>2016-04-27T23:34:17Z</time>
      </trkpt>
      <trkpt lat="47.86307" lon="-4.0668">
        <ele>4.037</ele>
        <time>2016-04-27T23:33:57Z</time>
      </trkpt>
      <trkpt lat="47.8632" lon="-4.0674">
        <ele>3.408</ele>
        <time>2016-04-27T23:33:37Z</time>
      </trkpt>
      <trkpt lat="47.86355" lon="-4.06778">
        <ele>2.817</ele>
        <time>2016-04-27T23:33:17Z</time>
      </trkpt>
      <trkpt lat="47.86498" lon="-4.06788">
        <ele>7.498</ele>
        <time>2016-04-27T23:32:57Z</time>
      </trkpt>
      <trkpt lat="47.86569" lon="-4.06836">
        <ele>9.518</ele>
        <time>2016-04-27T23:32:37Z</time>
      </trkpt>
      <trkpt lat="47.86617" lon="-4.0683">
        <ele>10.074</ele>
        <time>2016-04-27T23:32:17Z</time>
      </trkpt>
      <trkpt lat="47.86663" lon="-4.06806">
        <ele>9.136</ele>
        <time>2016-04-27T23:31:57Z</time>
      </trkpt>
      <trkpt lat="47.8675" lon="-4.06678">
        <ele>9.461</ele>
        <time>2016-04-27T23:31:37Z</time>
      </trkpt>
      <trkpt lat="47.86933" lon="-4.0652">
        <ele>11.95</ele>
        <time>2016-04-27T23:31:17Z</time>
      </trkpt>
      <trkpt lat="47.87049" lon="-4.0647">
        <ele>12.267</ele>
        <time>2016-04-27T23:30:57Z</time>
      </trkpt>
      <trkpt lat="47.87104" lon="-4.066">
        <ele>15.15</ele>
        <time>2016-04-27T23:30:37Z</time>
      </trkpt>
      <trkpt lat="47.87163" lon="-4.06798">
        <ele>12.758</ele>
        <time>2016-04-27T23:30:17Z</time>
      </trkpt>
      <trkpt lat="47.87231" lon="-4.06978">
        <ele>16.222</ele>
        <time>2016-04-27T23:29:57Z</time>
      </trkpt>
      <trkpt lat="47.8728" lon="-4.0703">
        <ele>16.108</ele>
        <time>2016-04-27T23:29:37Z</time>
      </trkpt>
      <trkpt lat="47.87576" lon="-4.07231">
        <ele>19.514</ele>
        <time>2016-04-27T23:29:17Z</time>
      </trkpt>
      <trkpt lat="47.87625" lon="-4.07315">
        <ele>20.068</ele>
        <time>2016-04-27T23:28:57Z</time>
      </trkpt>
      <trkpt lat="47.87631" lon="-4.07401">
        <ele>18.665</ele>
        <time>2016-04-27T23:28:37Z</time>
      </trkpt>
      <trkpt lat="47.87595" lon="-4.07525">
        <ele>19.861</ele>
        <time>2016-04-27T23:28:17Z</time>
      </trkpt>
      <trkpt lat="47.87531" lon="-4.07643">
        <ele>18.483</ele>
        <time>2016-04-27T23:27:57Z</time>
      </trkpt>
      <trkpt lat="47.87526" lon="-4.07697">
        <ele>14.118</ele>
        <time>2016-04-27T23:27:37Z</time>
      </trkpt>
      <trkpt lat="47.87543" lon="-4.07841">
        <ele>7.347</ele>
        <time>2016-04-27T23:27:17Z</time>
      </trkpt>
      <trkpt lat="47.87504" lon="-4.07819">
        <ele>9.564</ele>
        <time>2016-04-27T23:26:57Z</time>
      </trkpt>
      <trkpt lat="47.87453" lon="-4.07809">
        <ele>8.897</ele>
        <time>2016-04-27T23:26:37Z</time>
      </trkpt>
      <trkpt lat="47.87346" lon="-4.07883">
        <ele>9.555</ele>
        <time>2016-04-27T23:26:17Z</time>
      </trkpt>
      <trkpt lat="47.87392" lon="-4.07989">
        <ele>9.319</ele>
        <time>2016-04-27T23:25:57Z</time>
      </trkpt>
      <trkpt lat="47.87328" lon="-4.08059">
        <ele>7.508</ele>
        <time>2016-04-27T23:25:37Z</time>
      </trkpt>
      <trkpt lat="47.87274" lon="-4.08145">
        <ele>2.914</ele>
        <time>2016-04-27T23:25:17Z</time>
      </trkpt>
      <trkpt lat="47.87278" lon="-4.08189">
        <ele>3.086</ele>
        <time>2016-04-27T23:24:57Z</time>
      </trkpt>
      <trkpt lat="47.87361" lon="-4.08237">
        <ele>2.535</ele>
        <time>2016-04-27T23:24:37Z</time>
      </trkpt>
      <trkpt lat="47.87373" lon="-4.08339">
        <ele>2.611</ele>
        <time>2016-04-27T23:24:17Z</time>
      </trkpt>
      <trkpt lat="47.87316" lon="-4.08442">
        <ele>4.613</ele>
        <time>2016-04-27T23:23:57Z</time>
      </trkpt>
      <trkpt lat="47.87232" lon="-4.08406">
        <ele>3.938</ele>
        <time>2016-04-27T23:23:37Z</time>
      </trkpt>
      <trkpt lat="47.87173" lon="-4.08305">
        <ele>4.817</ele>
        <time>2016-04-27T23:23:17Z</time>
      </trkpt>
      <trkpt lat="47.87064" lon="-4.08265">
        <ele>5.944</ele>
        <time>2016-04-27T23:22:57Z</time>
      </trkpt>
      <trkpt lat="47.86999" lon="-4.08249">
        <ele>6.087</ele>
        <time>2016-04-27T23:22:37Z</time>
      </trkpt>
      <trkpt lat="47.87" lon="-4.08153">
        <ele>4.095</ele>
        <time>2016-04-27T23:22:17Z</time>
      </trkpt>
      <trkpt lat="47.86988" lon="-4.08101">
        <ele>4.299</ele>
        <time>2016-04-27T23:21:57Z</time>
      </trkpt>
      <trkpt lat="47.86906" lon="-4.08065">
        <ele>5.408</ele>
        <time>2016-04-27T23:21:37Z</time>
      </trkpt>
      <trkpt lat="47.8679" lon="-4.07957">
        <ele>1.718</ele>
        <time>2016-04-27T23:21:17Z</time>
      </trkpt>
      <trkpt lat="47.86748" lon="-4.07879">
        <ele>2.017</ele>
        <time>2016-04-27T23:20:57Z</time>
      </trkpt>
      <trkpt lat="47.86723" lon="-4.07791">
        <ele>3.036</ele>
        <time>2020-12-18T21:05:51Z</time>
      </trkpt>
      <trkpt lat="47.86649" lon="-4.07793">
        <ele>3.39</ele>
        <time>2016-04-27T23:18:57Z</time>
      </trkpt>
      <trkpt lat="47.866" lon="-4.07847">
        <ele>3.592</ele>
        <time>2016-04-27T23:18:37Z</time>
      </trkpt>
      <trkpt lat="47.86475" lon="-4.08129">
        <ele>4.277</ele>
        <time>2016-04-27T23:18:17Z</time>
      </trkpt>
      <trkpt lat="47.86469" lon="-4.08303">
        <ele>4.536</ele>
        <time>2016-04-27T23:17:57Z</time>
      </trkpt>
      <trkpt lat="47.86487" lon="-4.08406">
        <ele>2.433</ele>
        <time>2016-04-27T23:17:37Z</time>
      </trkpt>
      <trkpt lat="47.86494" lon="-4.08468">
        <ele>3.116</ele>
        <time>2016-04-27T23:17:17Z</time>
      </trkpt>
      <trkpt lat="47.8648" lon="-4.08514">
        <ele>5.154</ele>
        <time>2016-04-27T23:16:57Z</time>
      </trkpt>
      <trkpt lat="47.86479" lon="-4.08558">
        <ele>4.978</ele>
        <time>2016-04-27T23:16:37Z</time>
      </trkpt>
      <trkpt lat="47.86447" lon="-4.08638">
        <ele>0.408</ele>
        <time>2016-04-27T23:16:17Z</time>
      </trkpt>
      <trkpt lat="47.86463" lon="-4.0876">
        <ele>8.911</ele>
        <time>2016-04-27T23:15:57Z</time>
      </trkpt>
      <trkpt lat="47.86436" lon="-4.08836">
        <ele>4.283</ele>
        <time>2016-04-27T23:15:37Z</time>
      </trkpt>
      <trkpt lat="47.86381" lon="-4.0892">
        <ele>0.523</ele>
        <time>2016-04-27T23:15:17Z</time>
      </trkpt>
      <trkpt lat="47.86279" lon="-4.09021">
        <ele>5.147</ele>
        <time>2016-04-27T23:14:57Z</time>
      </trkpt>
      <trkpt lat="47.86191" lon="-4.09062">
        <ele>5.179</ele>
        <time>2016-04-27T23:12:37Z</time>
      </trkpt>
      <trkpt lat="47.86116" lon="-4.09059">
        <ele>2.144</ele>
        <time>2016-04-27T23:12:17Z</time>
      </trkpt>
      <trkpt lat="47.86144" lon="-4.09345">
        <ele>5.943</ele>
        <time>2016-04-27T23:11:57Z</time>
      </trkpt>
      <trkpt lat="47.86142" lon="-4.09392">
        <ele>3.52</ele>
        <time>2016-04-27T23:11:37Z</time>
      </trkpt>
      <trkpt lat="47.86165" lon="-4.09465">
        <ele>3.543</ele>
        <time>2016-04-27T23:11:17Z</time>
      </trkpt>
      <trkpt lat="47.8622" lon="-4.09542">
        <ele>9.281</ele>
        <time>2016-04-27T23:10:57Z</time>
      </trkpt>
      <trkpt lat="47.86232" lon="-4.09617">
        <ele>7.655</ele>
        <time>2016-04-27T23:10:37Z</time>
      </trkpt>
      <trkpt lat="47.86315" lon="-4.09778">
        <ele>11.308</ele>
        <time>2016-04-27T23:10:17Z</time>
      </trkpt>
      <trkpt lat="47.86351" lon="-4.09866">
        <ele>5.52</ele>
        <time>2016-04-27T23:09:57Z</time>
      </trkpt>
      <trkpt lat="47.86432" lon="-4.09888">
        <ele>5.273</ele>
        <time>2016-04-27T23:09:37Z</time>
      </trkpt>
      <trkpt lat="47.86509" lon="-4.09963">
        <ele>4.292</ele>
        <time>2016-04-27T23:09:17Z</time>
      </trkpt>
      <trkpt lat="47.86554" lon="-4.10064">
        <ele>4.615</ele>
        <time>2016-04-27T23:07:57Z</time>
      </trkpt>
      <trkpt lat="47.86609" lon="-4.10139">
        <ele>4.867</ele>
        <time>2016-04-27T23:07:37Z</time>
      </trkpt>
      <trkpt lat="47.86672" lon="-4.10186">
        <ele>5.142</ele>
        <time>2016-04-27T23:07:17Z</time>
      </trkpt>
      <trkpt lat="47.86702" lon="-4.10188">
        <ele>5.371</ele>
        <time>2016-04-27T23:06:57Z</time>
      </trkpt>
      <trkpt lat="47.86747" lon="-4.10122">
        <ele>8.498</ele>
        <time>2016-04-27T23:06:37Z</time>
      </trkpt>
      <trkpt lat="47.86799" lon="-4.10113">
        <ele>3.931</ele>
        <time>2016-04-27T23:06:17Z</time>
      </trkpt>
      <trkpt lat="47.86848" lon="-4.10044">
        <ele>1.369</ele>
        <time>2016-04-27T23:05:57Z</time>
      </trkpt>
      <trkpt lat="47.86885" lon="-4.10034">
        <ele>0.923</ele>
        <time>2016-04-27T23:05:37Z</time>
      </trkpt>
      <trkpt lat="47.86997" lon="-4.10107">
        <ele>4.208</ele>
        <time>2016-04-27T23:05:17Z</time>
      </trkpt>
      <trkpt lat="47.87051" lon="-4.10188">
        <ele>4.213</ele>
        <time>2016-04-27T23:04:57Z</time>
      </trkpt>
      <trkpt lat="47.87128" lon="-4.10392">
        <ele>5.085</ele>
        <time>2016-04-27T23:04:37Z</time>
      </trkpt>
      <trkpt lat="47.87154" lon="-4.10531">
        <ele>5.773</ele>
        <time>2016-04-27T23:04:17Z</time>
      </trkpt>
      <trkpt lat="47.87163" lon="-4.10819">
        <ele>5.78</ele>
        <time>2016-04-27T23:03:57Z</time>
      </trkpt>
      <trkpt lat="47.87151" lon="-4.1092">
        <ele>7.532</ele>
        <time>2016-04-27T23:03:37Z</time>
      </trkpt>
      <trkpt lat="47.87121" lon="-4.11024">
        <ele>0.027</ele>
        <time>2020-12-18T20:52:51Z</time>
      </trkpt>
      <trkpt lat="47.87177" lon="-4.11096">
        <ele>0.096</ele>
        <time>2016-04-27T23:02:17Z</time>
      </trkpt>
      <trkpt lat="47.87275" lon="-4.11154">
        <ele>7.543</ele>
        <time>2016-04-27T23:01:57Z</time>
      </trkpt>
      <trkpt lat="47.87377" lon="-4.11358">
        <ele>4.746</ele>
        <time>2016-04-27T23:01:37Z</time>
      </trkpt>
      <trkpt lat="47.87412" lon="-4.11375">
        <ele>7.214</ele>
        <time>2016-04-27T23:01:17Z</time>
      </trkpt>
      <trkpt lat="47.87455" lon="-4.11443">
        <ele>6.088</ele>
        <time>2016-04-27T23:00:57Z</time>
      </trkpt>
      <trkpt lat="47.87482" lon="-4.1147">
        <ele>6.408</ele>
        <time>2016-04-27T23:00:37Z</time>
      </trkpt>
      <trkpt lat="47.87511" lon="-4.11477">
        <ele>7.614</ele>
        <time>2016-04-27T23:00:17Z</time>
      </trkpt>
      <trkpt lat="47.87607" lon="-4.1157">
        <ele>3.704</ele>
        <time>2016-04-27T22:59:57Z</time>
      </trkpt>
      <trkpt lat="47.8764" lon="-4.11567">
        <ele>3.824</ele>
        <time>2016-04-27T22:59:37Z</time>
      </trkpt>
      <trkpt lat="47.87644" lon="-4.11596">
        <ele>1.824</ele>
        <time>2016-04-27T22:59:17Z</time>
      </trkpt>
      <trkpt lat="47.87674" lon="-4.11641">
        <ele>1.586</ele>
        <time>2016-04-27T22:58:57Z</time>
      </trkpt>
      <trkpt lat="47.87737" lon="-4.11642">
        <ele>3.861</ele>
        <time>2016-04-27T22:58:37Z</time>
      </trkpt>
      <trkpt lat="47.87748" lon="-4.11653">
        <ele>3.48</ele>
        <time>2016-04-27T22:58:17Z</time>
      </trkpt>
      <trkpt lat="47.87793" lon="-4.11651">
        <ele>5.327</ele>
        <time>2020-12-18T20:48:11Z</time>
      </trkpt>
      <trkpt lat="47.87812" lon="-4.1167">
        <ele>4.62</ele>
        <time>2020-12-18T20:47:51Z</time>
      </trkpt>
      <trkpt lat="47.87856" lon="-4.1167">
        <ele>3.228</ele>
        <time>2020-12-18T20:47:31Z</time>
      </trkpt>
      <trkpt lat="47.87874" lon="-4.11658">
        <ele>3.852</ele>
        <time>2020-12-18T20:47:11Z</time>
      </trkpt>
      <trkpt lat="47.87932" lon="-4.11752">
        <ele>0.008</ele>
        <time>2016-04-27T22:57:17Z</time>
      </trkpt>
      <trkpt lat="47.8795" lon="-4.11692">
        <ele>5.519</ele>
        <time>2016-04-27T22:56:57Z</time>
      </trkpt>
      <trkpt lat="47.88037" lon="-4.11581">
        <ele>11.481</ele>
        <time>2016-04-27T22:56:37Z</time>
      </trkpt>
      <trkpt lat="47.88097" lon="-4.11589">
        <ele>3.867</ele>
        <time>2016-04-27T22:56:17Z</time>
      </trkpt>
      <trkpt lat="47.8813" lon="-4.11555">
        <ele>3.36</ele>
        <time>2016-04-27T22:55:57Z</time>
      </trkpt>
      <trkpt lat="47.88159" lon="-4.11553">
        <ele>1.362</ele>
        <time>2016-04-27T22:55:37Z</time>
      </trkpt>
      <trkpt lat="47.88225" lon="-4.11467">
        <ele>0.947</ele>
        <time>2016-04-27T22:55:17Z</time>
      </trkpt>
      <trkpt lat="47.8825" lon="-4.11413">
        <ele>0.036</ele>
        <time>2016-04-27T22:54:37Z</time>
      </trkpt>
      <trkpt lat="47.88258" lon="-4.11317">
        <ele>0.053</ele>
        <time>2016-04-27T22:54:17Z</time>
      </trkpt>
      <trkpt lat="47.88278" lon="-4.11246">
        <ele>0.036</ele>
        <time>2016-04-27T22:53:57Z</time>
      </trkpt>
      <trkpt lat="47.8827" lon="-4.11207">
        <ele>0.044</ele>
        <time>2016-04-27T22:53:37Z</time>
      </trkpt>
      <trkpt lat="47.88206" lon="-4.11139">
        <ele>7.058</ele>
        <time>2020-12-18T20:43:11Z</time>
      </trkpt>
      <trkpt lat="47.88201" lon="-4.11077">
        <ele>0.008</ele>
        <time>2016-04-27T22:52:17Z</time>
      </trkpt>
      <trkpt lat="47.88186" lon="-4.10916">
        <ele>2.411</ele>
        <time>2016-04-27T22:51:57Z</time>
      </trkpt>
      <trkpt lat="47.88149" lon="-4.1089">
        <ele>9.083</ele>
        <time>2016-04-27T22:51:37Z</time>
      </trkpt>
      <trkpt lat="47.88139" lon="-4.10849">
        <ele>9.023</ele>
        <time>2016-04-27T22:51:17Z</time>
      </trkpt>
      <trkpt lat="47.88152" lon="-4.10742">
        <ele>0.092</ele>
        <time>2016-04-27T22:50:57Z</time>
      </trkpt>
      <trkpt lat="47.8811" lon="-4.10649">
        <ele>9.474</ele>
        <time>2020-12-18T20:41:11Z</time>
      </trkpt>
      <trkpt lat="47.88079" lon="-4.10598">
        <ele>8.599</ele>
        <time>2020-12-18T20:40:51Z</time>
      </trkpt>
      <trkpt lat="47.88085" lon="-4.10546">
        <ele>7.028</ele>
        <time>2016-04-27T22:49:57Z</time>
      </trkpt>
      <trkpt lat="47.88119" lon="-4.10563">
        <ele>8.755</ele>
        <time>2016-04-27T22:49:37Z</time>
      </trkpt>
      <trkpt lat="47.88149" lon="-4.10588">
        <ele>10.678</ele>
        <time>2016-04-27T22:49:17Z</time>
      </trkpt>
      <trkpt lat="47.88214" lon="-4.10687">
        <ele>1.476</ele>
        <time>2016-04-27T22:48:57Z</time>
      </trkpt>
      <trkpt lat="47.88227" lon="-4.10695">
        <ele>1.23</ele>
        <time>2016-04-27T22:48:37Z</time>
      </trkpt>
      <trkpt lat="47.8836" lon="-4.10946">
        <ele>5.108</ele>
        <time>2016-04-27T22:48:17Z</time>
      </trkpt>
      <trkpt lat="47.88326" lon="-4.10999">
        <ele>7.61</ele>
        <time>2016-04-27T22:47:57Z</time>
      </trkpt>
      <trkpt lat="47.88323" lon="-4.11037">
        <ele>7.164</ele>
        <time>2016-04-27T22:47:37Z</time>
      </trkpt>
      <trkpt lat="47.8836" lon="-4.11086">
        <ele>4.843</ele>
        <time>2016-04-27T22:47:17Z</time>
      </trkpt>
      <trkpt lat="47.88402" lon="-4.1109">
        <ele>6.41</ele>
        <time>2016-04-27T22:46:57Z</time>
      </trkpt>
      <trkpt lat="47.88456" lon="-4.11123">
        <ele>6.432</ele>
        <time>2016-04-27T22:46:37Z</time>
      </trkpt>
      <trkpt lat="47.88484" lon="-4.11176">
        <ele>8.187</ele>
        <time>2016-04-27T22:46:17Z</time>
      </trkpt>
      <trkpt lat="47.88454" lon="-4.11274">
        <ele>7.036</ele>
        <time>2016-04-27T22:45:57Z</time>
      </trkpt>
      <trkpt lat="47.88493" lon="-4.11324">
        <ele>11.043</ele>
        <time>2016-04-27T22:45:37Z</time>
      </trkpt>
      <trkpt lat="47.88491" lon="-4.11342">
        <ele>9.926</ele>
        <time>2016-04-27T22:45:17Z</time>
      </trkpt>
      <trkpt lat="47.8852" lon="-4.11366">
        <ele>11.084</ele>
        <time>2016-04-27T22:44:57Z</time>
      </trkpt>
      <trkpt lat="47.88521" lon="-4.11461">
        <ele>4.168</ele>
        <time>2016-04-27T22:44:37Z</time>
      </trkpt>
      <trkpt lat="47.88504" lon="-4.11549">
        <ele>9.808</ele>
        <time>2016-04-27T22:44:17Z</time>
      </trkpt>
      <trkpt lat="47.88475" lon="-4.11601">
        <ele>9.208</ele>
        <time>2016-04-27T22:43:57Z</time>
      </trkpt>
      <trkpt lat="47.88459" lon="-4.11615">
        <ele>7.462</ele>
        <time>2016-04-27T22:41:37Z</time>
      </trkpt>
      <trkpt lat="47.88446" lon="-4.11674">
        <ele>4.022</ele>
        <time>2016-04-27T22:41:17Z</time>
      </trkpt>
      <trkpt lat="47.88476" lon="-4.11672">
        <ele>8.026</ele>
        <time>2016-04-27T22:40:57Z</time>
      </trkpt>
      <trkpt lat="47.88475" lon="-4.11691">
        <ele>7.228</ele>
        <time>2016-04-27T22:38:17Z</time>
      </trkpt>
      <trkpt lat="47.88493" lon="-4.11704">
        <ele>7.413</ele>
        <time>2016-04-27T22:37:57Z</time>
      </trkpt>
      <trkpt lat="47.8851" lon="-4.11731">
        <ele>8.112</ele>
        <time>2016-04-27T22:37:37Z</time>
      </trkpt>
      <trkpt lat="47.88542" lon="-4.11815">
        <ele>7.159</ele>
        <time>2016-04-27T22:37:17Z</time>
      </trkpt>
      <trkpt lat="47.88598" lon="-4.11878">
        <ele>15.712</ele>
        <time>2020-12-18T20:31:51Z</time>
      </trkpt>
      <trkpt lat="47.88607" lon="-4.1202">
        <ele>0.81</ele>
        <time>2020-12-18T20:31:31Z</time>
      </trkpt>
      <trkpt lat="47.87975" lon="-4.12954">
        <ele>22.334</ele>
        <time>2016-04-27T22:25:37Z</time>
      </trkpt>
      <trkpt lat="47.87883" lon="-4.13102">
        <ele>22.708</ele>
        <time>2016-04-27T22:25:17Z</time>
      </trkpt>
      <trkpt lat="47.87831" lon="-4.13272">
        <ele>27.717</ele>
        <time>2016-04-27T22:24:57Z</time>
      </trkpt>
      <trkpt lat="47.87809" lon="-4.13439">
        <ele>30.461</ele>
        <time>2016-04-27T22:24:37Z</time>
      </trkpt>
      <trkpt lat="47.8777" lon="-4.13422">
        <ele>28.381</ele>
        <time>2016-04-27T22:24:17Z</time>
      </trkpt>
      <trkpt lat="47.87717" lon="-4.13332">
        <ele>25.089</ele>
        <time>2016-04-27T22:23:57Z</time>
      </trkpt>
      <trkpt lat="47.87467" lon="-4.12999">
        <ele>22.261</ele>
        <time>2016-04-27T22:23:37Z</time>
      </trkpt>
      <trkpt lat="47.87426" lon="-4.12913">
        <ele>23.056</ele>
        <time>2016-04-27T22:23:17Z</time>
      </trkpt>
      <trkpt lat="47.87376" lon="-4.12772">
        <ele>19.925</ele>
        <time>2016-04-27T22:22:57Z</time>
      </trkpt>
      <trkpt lat="47.87495" lon="-4.12626">
        <ele>19.822</ele>
        <time>2016-04-27T22:22:37Z</time>
      </trkpt>
      <trkpt lat="47.87611" lon="-4.12458">
        <ele>21.535</ele>
        <time>2016-04-27T22:22:17Z</time>
      </trkpt>
      <trkpt lat="47.87624" lon="-4.12409">
        <ele>21.373</ele>
        <time>2016-04-27T22:21:57Z</time>
      </trkpt>
      <trkpt lat="47.87654" lon="-4.12355">
        <ele>22.167</ele>
        <time>2016-04-27T22:21:37Z</time>
      </trkpt>
      <trkpt lat="47.87658" lon="-4.12315">
        <ele>20.008</ele>
        <time>2016-04-27T22:21:17Z</time>
      </trkpt>
      <trkpt lat="47.87611" lon="-4.12255">
        <ele>16.009</ele>
        <time>2016-04-27T22:20:57Z</time>
      </trkpt>
      <trkpt lat="47.87533" lon="-4.12186">
        <ele>16.354</ele>
        <time>2016-04-27T22:20:37Z</time>
      </trkpt>
      <trkpt lat="47.87504" lon="-4.12179">
        <ele>14.814</ele>
        <time>2016-04-27T22:20:17Z</time>
      </trkpt>
      <trkpt lat="47.87498" lon="-4.12104">
        <ele>13.271</ele>
        <time>2016-04-27T22:19:57Z</time>
      </trkpt>
      <trkpt lat="47.87481" lon="-4.12053">
        <ele>7.333</ele>
        <time>2016-04-27T22:19:37Z</time>
      </trkpt>
      <trkpt lat="47.87432" lon="-4.12089">
        <ele>9.148</ele>
        <time>2016-04-27T22:19:17Z</time>
      </trkpt>
      <trkpt lat="47.87404" lon="-4.1206">
        <ele>7.647</ele>
        <time>2020-12-18T20:24:31Z</time>
      </trkpt>
      <trkpt lat="47.87393" lon="-4.11999">
        <ele>5.544</ele>
        <time>2020-12-18T20:24:11Z</time>
      </trkpt>
      <trkpt lat="47.87369" lon="-4.12008">
        <ele>9.877</ele>
        <time>2016-04-27T22:18:17Z</time>
      </trkpt>
      <trkpt lat="47.8733" lon="-4.11875">
        <ele>14.035</ele>
        <time>2016-04-27T22:17:57Z</time>
      </trkpt>
      <trkpt lat="47.87265" lon="-4.11821">
        <ele>14.189</ele>
        <time>2016-04-27T22:17:37Z</time>
      </trkpt>
      <trkpt lat="47.87084" lon="-4.11759">
        <ele>14.008</ele>
        <time>2016-04-27T22:17:17Z</time>
      </trkpt>
      <trkpt lat="47.87092" lon="-4.11699">
        <ele>12.413</ele>
        <time>2016-04-27T22:16:57Z</time>
      </trkpt>
      <trkpt lat="47.87068" lon="-4.11686">
        <ele>11.849</ele>
        <time>2016-04-27T22:16:37Z</time>
      </trkpt>
      <trkpt lat="47.87064" lon="-4.11656">
        <ele>11.237</ele>
        <time>2016-04-27T22:16:17Z</time>
      </trkpt>
      <trkpt lat="47.87031" lon="-4.11647">
        <ele>11.977</ele>
        <time>2016-04-27T22:15:57Z</time>
      </trkpt>
      <trkpt lat="47.87029" lon="-4.11493">
        <ele>4.289</ele>
        <time>2016-04-27T22:15:37Z</time>
      </trkpt>
      <trkpt lat="47.86982" lon="-4.11497">
        <ele>4.324</ele>
        <time>2016-04-27T22:12:57Z</time>
      </trkpt>
      <trkpt lat="47.86946" lon="-4.11463">
        <ele>4.673</ele>
        <time>2016-04-27T22:12:37Z</time>
      </trkpt>
      <trkpt lat="47.86938" lon="-4.11411">
        <ele>2.99</ele>
        <time>2016-04-27T22:12:17Z</time>
      </trkpt>
      <trkpt lat="47.86895" lon="-4.11355">
        <ele>2.843</ele>
        <time>2016-04-27T22:11:57Z</time>
      </trkpt>
      <trkpt lat="47.86866" lon="-4.1136">
        <ele>3.871</ele>
        <time>2016-04-27T22:11:37Z</time>
      </trkpt>
      <trkpt lat="47.86829" lon="-4.11332">
        <ele>4.135</ele>
        <time>2016-04-27T22:11:17Z</time>
      </trkpt>
      <trkpt lat="47.8674" lon="-4.11298">
        <ele>4.808</ele>
        <time>2016-04-27T22:10:57Z</time>
      </trkpt>
      <trkpt lat="47.86659" lon="-4.11295">
        <ele>3.526</ele>
        <time>2016-04-27T22:10:37Z</time>
      </trkpt>
      <trkpt lat="47.86592" lon="-4.11293">
        <ele>5.115</ele>
        <time>2016-04-27T22:10:17Z</time>
      </trkpt>
      <trkpt lat="47.86501" lon="-4.11248">
        <ele>4.698</ele>
        <time>2016-04-27T22:09:57Z</time>
      </trkpt>
      <trkpt lat="47.86419" lon="-4.1128">
        <ele>5.257</ele>
        <time>2016-04-27T22:09:37Z</time>
      </trkpt>
      <trkpt lat="47.86427" lon="-4.11375">
        <ele>10.569</ele>
        <time>2016-04-27T22:09:17Z</time>
      </trkpt>
      <trkpt lat="47.8636" lon="-4.11377">
        <ele>9.194</ele>
        <time>2016-04-27T22:08:57Z</time>
      </trkpt>
      <trkpt lat="47.86301" lon="-4.1136">
        <ele>7.653</ele>
        <time>2020-12-18T20:16:31Z</time>
      </trkpt>
      <trkpt lat="47.8625" lon="-4.11333">
        <ele>3.09</ele>
        <time>2020-12-18T20:16:11Z</time>
      </trkpt>
      <trkpt lat="47.86244" lon="-4.1136">
        <ele>2.633</ele>
        <time>2020-12-18T20:15:51Z</time>
      </trkpt>
      <trkpt lat="47.86246" lon="-4.11486">
        <ele>3.121</ele>
        <time>2016-04-27T22:07:57Z</time>
      </trkpt>
      <trkpt lat="47.86338" lon="-4.11611">
        <ele>4.735</ele>
        <time>2016-04-27T22:07:37Z</time>
      </trkpt>
      <trkpt lat="47.86422" lon="-4.11737">
        <ele>7.008</ele>
        <time>2016-04-27T22:07:17Z</time>
      </trkpt>
      <trkpt lat="47.86416" lon="-4.11845">
        <ele>3.921</ele>
        <time>2016-04-27T22:06:57Z</time>
      </trkpt>
      <trkpt lat="47.86438" lon="-4.11918">
        <ele>6.465</ele>
        <time>2016-04-27T22:06:37Z</time>
      </trkpt>
      <trkpt lat="47.86494" lon="-4.1204">
        <ele>6.993</ele>
        <time>2016-04-27T22:06:17Z</time>
      </trkpt>
      <trkpt lat="47.86511" lon="-4.12126">
        <ele>5.17</ele>
        <time>2016-04-27T22:05:57Z</time>
      </trkpt>
      <trkpt lat="47.86535" lon="-4.12137">
        <ele>6.362</ele>
        <time>2016-04-27T22:05:37Z</time>
      </trkpt>
      <trkpt lat="47.86521" lon="-4.12244">
        <ele>5.117</ele>
        <time>2016-04-27T22:05:17Z</time>
      </trkpt>
      <trkpt lat="47.86554" lon="-4.12293">
        <ele>4.546</ele>
        <time>2016-04-27T22:04:57Z</time>
      </trkpt>
      <trkpt lat="47.86498" lon="-4.12516">
        <ele>3.163</ele>
        <time>2016-04-27T22:04:17Z</time>
      </trkpt>
      <trkpt lat="47.86366" lon="-4.13036">
        <ele>1.686</ele>
        <time>2016-04-27T22:03:57Z</time>
      </trkpt>
      <trkpt lat="47.86296" lon="-4.13274">
        <ele>2.684</ele>
        <time>2016-04-27T22:03:37Z</time>
      </trkpt>
      <trkpt lat="47.86086" lon="-4.13838">
        <ele>2.368</ele>
        <time>2016-04-27T22:03:17Z</time>
      </trkpt>
      <trkpt lat="47.86008" lon="-4.14005">
        <ele>2.508</ele>
        <time>2016-04-27T22:02:57Z</time>
      </trkpt>
      <trkpt lat="47.85938" lon="-4.14211">
        <ele>2.22</ele>
        <time>2016-04-27T22:02:37Z</time>
      </trkpt>
      <trkpt lat="47.85713" lon="-4.14636">
        <ele>2.7</ele>
        <time>2016-04-27T22:02:17Z</time>
      </trkpt>
      <trkpt lat="47.85595" lon="-4.14972">
        <ele>3.629</ele>
        <time>2016-04-27T22:01:57Z</time>
      </trkpt>
      <trkpt lat="47.856" lon="-4.15006">
        <ele>3.985</ele>
        <time>2016-04-27T22:01:37Z</time>
      </trkpt>
      <trkpt lat="47.85582" lon="-4.15065">
        <ele>4.637</ele>
        <time>2016-04-27T22:01:17Z</time>
      </trkpt>
      <trkpt lat="47.85539" lon="-4.15124">
        <ele>2.482</ele>
        <time>2020-12-18T20:08:51Z</time>
      </trkpt>
      <trkpt lat="47.85507" lon="-4.15147">
        <ele>3.021</ele>
        <time>2016-04-27T22:00:17Z</time>
      </trkpt>
      <trkpt lat="47.8548" lon="-4.15138">
        <ele>3.068</ele>
        <time>2016-04-27T21:59:57Z</time>
      </trkpt>
      <trkpt lat="47.8533" lon="-4.15432">
        <ele>5.991</ele>
        <time>2016-04-27T21:59:37Z</time>
      </trkpt>
      <trkpt lat="47.85133" lon="-4.15701">
        <ele>2.489</ele>
        <time>2016-04-27T21:59:17Z</time>
      </trkpt>
      <trkpt lat="47.85105" lon="-4.15781">
        <ele>1.743</ele>
        <time>2020-12-18T20:07:11Z</time>
      </trkpt>
      <trkpt lat="47.85035" lon="-4.16044">
        <ele>6.008</ele>
        <time>2020-12-18T20:06:51Z</time>
      </trkpt>
      <trkpt lat="47.84951" lon="-4.16226">
        <ele>0.127</ele>
        <time>2020-12-18T20:06:31Z</time>
      </trkpt>
      <trkpt lat="47.84819" lon="-4.1643">
        <ele>1.561</ele>
        <time>2020-12-18T20:06:11Z</time>
      </trkpt>
      <trkpt lat="47.84709" lon="-4.16533">
        <ele>3.077</ele>
        <time>2020-12-18T20:05:51Z</time>
      </trkpt>
      <trkpt lat="47.84595" lon="-4.16621">
        <ele>4.342</ele>
        <time>2020-12-18T20:05:31Z</time>
      </trkpt>
      <trkpt lat="47.84547" lon="-4.16661">
        <ele>6.294</ele>
        <time>2020-12-18T20:05:11Z</time>
      </trkpt>
      <trkpt lat="47.84452" lon="-4.1673">
        <ele>2.679</ele>
        <time>2020-12-18T20:04:51Z</time>
      </trkpt>
      <trkpt lat="47.84418" lon="-4.16696">
        <ele>1.158</ele>
        <time>2020-12-18T20:04:31Z</time>
      </trkpt>
      <trkpt lat="47.84375" lon="-4.16661">
        <ele>1.725</ele>
        <time>2020-12-18T20:04:11Z</time>
      </trkpt>
      <trkpt lat="47.84332" lon="-4.16656">
        <ele>1.688</ele>
        <time>2020-12-18T20:03:51Z</time>
      </trkpt>
      <trkpt lat="47.84323" lon="-4.1667">
        <ele>2.236</ele>
        <time>2020-12-18T20:03:31Z</time>
      </trkpt>
      <trkpt lat="47.84293" lon="-4.1668">
        <ele>3.09</ele>
        <time>2020-12-18T20:03:11Z</time>
      </trkpt>
      <trkpt lat="47.84257" lon="-4.16705">
        <ele>5.108</ele>
        <time>2020-12-18T20:02:51Z</time>
      </trkpt>
      <trkpt lat="47.84227" lon="-4.16749">
        <ele>4.31</ele>
        <time>2020-12-18T20:02:31Z</time>
      </trkpt>
      <trkpt lat="47.84171" lon="-4.16776">
        <ele>1.264</ele>
        <time>2020-12-18T20:02:11Z</time>
      </trkpt>
      <trkpt lat="47.84115" lon="-4.16814">
        <ele>3.743</ele>
        <time>2020-12-18T20:01:51Z</time>
      </trkpt>
      <trkpt lat="47.84065" lon="-4.16832">
        <ele>5.292</ele>
        <time>2020-12-18T20:01:31Z</time>
      </trkpt>
      <trkpt lat="47.84026" lon="-4.16833">
        <ele>2.964</ele>
        <time>2020-12-18T20:01:11Z</time>
      </trkpt>
      <trkpt lat="47.8398" lon="-4.16855">
        <ele>2.949</ele>
        <time>2020-12-18T20:00:51Z</time>
      </trkpt>
      <trkpt lat="47.83931" lon="-4.169">
        <ele>2.758</ele>
        <time>2020-12-18T20:00:31Z</time>
      </trkpt>
      <trkpt lat="47.83941" lon="-4.1694">
        <ele>2.975</ele>
        <time>2020-12-18T20:00:11Z</time>
      </trkpt>
      <trkpt lat="47.84018" lon="-4.16958">
        <ele>6.678</ele>
        <time>2020-12-18T19:59:51Z</time>
      </trkpt>
      <trkpt lat="47.84028" lon="-4.16947">
        <ele>7.096</ele>
        <time>2020-12-18T19:59:31Z</time>
      </trkpt>
      <trkpt lat="47.84056" lon="-4.16946">
        <ele>7.07</ele>
        <time>2020-12-18T19:59:11Z</time>
      </trkpt>
      <trkpt lat="47.84105" lon="-4.16963">
        <ele>6.508</ele>
        <time>2020-12-18T19:58:51Z</time>
      </trkpt>
      <trkpt lat="47.84115" lon="-4.16927">
        <ele>6.61</ele>
        <time>2020-12-18T19:58:31Z</time>
      </trkpt>
      <trkpt lat="47.84209" lon="-4.16856">
        <ele>4.564</ele>
        <time>2020-12-18T19:58:11Z</time>
      </trkpt>
      <trkpt lat="47.84246" lon="-4.16845">
        <ele>5.043</ele>
        <time>2020-12-18T19:57:51Z</time>
      </trkpt>
      <trkpt lat="47.84314" lon="-4.16868">
        <ele>4.751</ele>
        <time>2020-12-18T19:57:31Z</time>
      </trkpt>
      <trkpt lat="47.84378" lon="-4.16862">
        <ele>5.653</ele>
        <time>2020-12-18T19:57:11Z</time>
      </trkpt>
      <trkpt lat="47.84453" lon="-4.16879">
        <ele>3.768</ele>
        <time>2020-12-18T19:56:51Z</time>
      </trkpt>
      <trkpt lat="47.84683" lon="-4.1685">
        <ele>6.457</ele>
        <time>2020-12-18T19:56:31Z</time>
      </trkpt>
      <trkpt lat="47.84754" lon="-4.16808">
        <ele>5.164</ele>
        <time>2020-12-18T19:56:11Z</time>
      </trkpt>
      <trkpt lat="47.84988" lon="-4.16544">
        <ele>3.617</ele>
        <time>2016-04-27T21:57:17Z</time>
      </trkpt>
      <trkpt lat="47.85094" lon="-4.16424">
        <ele>2.545</ele>
        <time>2016-04-27T21:56:57Z</time>
      </trkpt>
      <trkpt lat="47.85202" lon="-4.16515">
        <ele>2.689</ele>
        <time>2016-04-27T21:56:37Z</time>
      </trkpt>
      <trkpt lat="47.85677" lon="-4.16632">
        <ele>0.408</ele>
        <time>2016-04-27T21:56:17Z</time>
      </trkpt>
      <trkpt lat="47.85734" lon="-4.16535">
        <ele>-0.718</ele>
        <time>2016-04-27T21:55:57Z</time>
      </trkpt>
      <trkpt lat="47.85899" lon="-4.16516">
        <ele>2.217</ele>
        <time>2016-04-27T21:55:37Z</time>
      </trkpt>
      <trkpt lat="47.8598" lon="-4.1646">
        <ele>3.036</ele>
        <time>2016-04-27T21:55:17Z</time>
      </trkpt>
      <trkpt lat="47.85996" lon="-4.164">
        <ele>2.043</ele>
        <time>2016-04-27T21:54:57Z</time>
      </trkpt>
      <trkpt lat="47.86024" lon="-4.16422">
        <ele>2.055</ele>
        <time>2016-04-27T21:54:37Z</time>
      </trkpt>
      <trkpt lat="47.86089" lon="-4.1657">
        <ele>3.02</ele>
        <time>2016-04-27T21:54:17Z</time>
      </trkpt>
      <trkpt lat="47.86147" lon="-4.16662">
        <ele>4.029</ele>
        <time>2016-04-27T21:53:57Z</time>
      </trkpt>
      <trkpt lat="47.86127" lon="-4.16688">
        <ele>3.916</ele>
        <time>2016-04-27T21:53:37Z</time>
      </trkpt>
      <trkpt lat="47.8614" lon="-4.16746">
        <ele>5.849</ele>
        <time>2016-04-27T21:53:17Z</time>
      </trkpt>
      <trkpt lat="47.86183" lon="-4.16789">
        <ele>7.477</ele>
        <time>2016-04-27T21:52:57Z</time>
      </trkpt>
      <trkpt lat="47.86238" lon="-4.16784">
        <ele>6.841</ele>
        <time>2020-12-18T19:51:11Z</time>
      </trkpt>
      <trkpt lat="47.86273" lon="-4.16799">
        <ele>5.608</ele>
        <time>2016-04-27T21:52:37Z</time>
      </trkpt>
      <trkpt lat="47.86344" lon="-4.16786">
        <ele>6.111</ele>
        <time>2016-04-27T21:52:17Z</time>
      </trkpt>
      <trkpt lat="47.86386" lon="-4.16731">
        <ele>6.456</ele>
        <time>2016-04-27T21:51:57Z</time>
      </trkpt>
      <trkpt lat="47.86498" lon="-4.16771">
        <ele>5.354</ele>
        <time>2016-04-27T21:51:37Z</time>
      </trkpt>
      <trkpt lat="47.86579" lon="-4.16765">
        <ele>8.164</ele>
        <time>2016-04-27T21:51:17Z</time>
      </trkpt>
      <trkpt lat="47.86592" lon="-4.16643">
        <ele>9.796</ele>
        <time>2016-04-27T21:50:57Z</time>
      </trkpt>
      <trkpt lat="47.86576" lon="-4.16619">
        <ele>8.971</ele>
        <time>2016-04-27T21:50:37Z</time>
      </trkpt>
      <trkpt lat="47.86625" lon="-4.16377">
        <ele>5.26</ele>
        <time>2016-04-27T21:50:17Z</time>
      </trkpt>
      <trkpt lat="47.86802" lon="-4.16553">
        <ele>7.297</ele>
        <time>2016-04-27T21:49:57Z</time>
      </trkpt>
      <trkpt lat="47.86878" lon="-4.16583">
        <ele>9.24</ele>
        <time>2016-04-27T21:49:37Z</time>
      </trkpt>
      <trkpt lat="47.87013" lon="-4.1658">
        <ele>12.658</ele>
        <time>2016-04-27T21:49:17Z</time>
      </trkpt>
      <trkpt lat="47.87235" lon="-4.16542">
        <ele>12.052</ele>
        <time>2016-04-27T21:48:57Z</time>
      </trkpt>
      <trkpt lat="47.8732" lon="-4.16548">
        <ele>10.508</ele>
        <time>2016-04-27T21:48:37Z</time>
      </trkpt>
      <trkpt lat="47.87349" lon="-4.16537">
        <ele>10.011</ele>
        <time>2016-04-27T21:48:17Z</time>
      </trkpt>
      <trkpt lat="47.87378" lon="-4.16503">
        <ele>10.083</ele>
        <time>2020-12-18T19:46:11Z</time>
      </trkpt>
      <trkpt lat="47.87723" lon="-4.16612">
        <ele>17.062</ele>
        <time>2020-12-18T19:45:51Z</time>
      </trkpt>
      <trkpt lat="47.87736" lon="-4.16662">
        <ele>17.054</ele>
        <time>2020-12-18T19:45:31Z</time>
      </trkpt>
      <trkpt lat="47.87786" lon="-4.16722">
        <ele>18.766</ele>
        <time>2016-04-27T21:46:57Z</time>
      </trkpt>
      <trkpt lat="47.87795" lon="-4.16941">
        <ele>13.481</ele>
        <time>2016-04-27T21:46:37Z</time>
      </trkpt>
      <trkpt lat="47.87905" lon="-4.17455">
        <ele>10.72</ele>
        <time>2016-04-27T21:46:17Z</time>
      </trkpt>
      <trkpt lat="47.88132" lon="-4.17801">
        <ele>9.317</ele>
        <time>2016-04-27T21:45:57Z</time>
      </trkpt>
      <trkpt lat="47.88166" lon="-4.17896">
        <ele>11.76</ele>
        <time>2016-04-27T21:45:37Z</time>
      </trkpt>
      <trkpt lat="47.88181" lon="-4.18078">
        <ele>13.758</ele>
        <time>2016-04-27T21:45:17Z</time>
      </trkpt>
      <trkpt lat="47.88201" lon="-4.18162">
        <ele>19.972</ele>
        <time>2016-04-27T21:44:57Z</time>
      </trkpt>
      <trkpt lat="47.88173" lon="-4.18166">
        <ele>17.708</ele>
        <time>2016-04-27T21:44:37Z</time>
      </trkpt>
      <trkpt lat="47.8814" lon="-4.18198">
        <ele>16.319</ele>
        <time>2016-04-27T21:44:17Z</time>
      </trkpt>
      <trkpt lat="47.88074" lon="-4.18185">
        <ele>12.781</ele>
        <time>2016-04-27T21:43:57Z</time>
      </trkpt>
      <trkpt lat="47.88032" lon="-4.18194">
        <ele>9.567</ele>
        <time>2016-04-27T21:43:37Z</time>
      </trkpt>
      <trkpt lat="47.87983" lon="-4.18179">
        <ele>10.073</ele>
        <time>2016-04-27T21:43:17Z</time>
      </trkpt>
      <trkpt lat="47.87952" lon="-4.18207">
        <ele>7.745</ele>
        <time>2016-04-27T21:42:57Z</time>
      </trkpt>
      <trkpt lat="47.87959" lon="-4.1825">
        <ele>6.08</ele>
        <time>2016-04-27T21:42:37Z</time>
      </trkpt>
      <trkpt lat="47.88018" lon="-4.18288">
        <ele>5.669</ele>
        <time>2016-04-27T21:42:17Z</time>
      </trkpt>
      <trkpt lat="47.88055" lon="-4.18383">
        <ele>8.246</ele>
        <time>2016-04-27T21:41:37Z</time>
      </trkpt>
      <trkpt lat="47.88113" lon="-4.18428">
        <ele>6.359</ele>
        <time>2016-04-27T21:41:17Z</time>
      </trkpt>
      <trkpt lat="47.88168" lon="-4.18406">
        <ele>12.597</ele>
        <time>2016-04-27T21:40:57Z</time>
      </trkpt>
      <trkpt lat="47.88264" lon="-4.18426">
        <ele>10.241</ele>
        <time>2016-04-27T21:40:37Z</time>
      </trkpt>
      <trkpt lat="47.88294" lon="-4.18381">
        <ele>12.708</ele>
        <time>2016-04-27T21:40:17Z</time>
      </trkpt>
      <trkpt lat="47.88327" lon="-4.18383">
        <ele>13.82</ele>
        <time>2016-04-27T21:39:57Z</time>
      </trkpt>
      <trkpt lat="47.88385" lon="-4.18477">
        <ele>11.8</ele>
        <time>2016-04-27T21:39:37Z</time>
      </trkpt>
      <trkpt lat="47.8851" lon="-4.18539">
        <ele>19.557</ele>
        <time>2016-04-27T21:39:17Z</time>
      </trkpt>
      <trkpt lat="47.88394" lon="-4.19357">
        <ele>12.749</ele>
        <time>2016-04-27T21:38:57Z</time>
      </trkpt>
      <trkpt lat="47.88362" lon="-4.19666">
        <ele>9.941</ele>
        <time>2016-04-27T21:38:37Z</time>
      </trkpt>
      <trkpt lat="47.8836" lon="-4.19843">
        <ele>13.646</ele>
        <time>2016-04-27T21:38:17Z</time>
      </trkpt>
      <trkpt lat="47.88319" lon="-4.19773">
        <ele>18.735</ele>
        <time>2016-04-27T21:37:57Z</time>
      </trkpt>
      <trkpt lat="47.88219" lon="-4.19778">
        <ele>29.122</ele>
        <time>2016-04-27T21:37:37Z</time>
      </trkpt>
      <trkpt lat="47.88149" lon="-4.19657">
        <ele>30.095</ele>
        <time>2016-04-27T21:37:17Z</time>
      </trkpt>
      <trkpt lat="47.88142" lon="-4.19876">
        <ele>29.413</ele>
        <time>2016-04-27T21:35:57Z</time>
      </trkpt>
      <trkpt lat="47.88122" lon="-4.20029">
        <ele>33.457</ele>
        <time>2016-04-27T21:35:37Z</time>
      </trkpt>
      <trkpt lat="47.88122" lon="-4.20145">
        <ele>34.808</ele>
        <time>2016-04-27T21:35:17Z</time>
      </trkpt>
      <trkpt lat="47.88134" lon="-4.20271">
        <ele>33.111</ele>
        <time>2016-04-27T21:34:57Z</time>
      </trkpt>
      <trkpt lat="47.87845" lon="-4.20179">
        <ele>24.065</ele>
        <time>2016-04-27T21:34:37Z</time>
      </trkpt>
      <trkpt lat="47.87824" lon="-4.20406">
        <ele>25.015</ele>
        <time>2016-04-27T21:33:57Z</time>
      </trkpt>
      <trkpt lat="47.87783" lon="-4.20396">
        <ele>20.71</ele>
        <time>2016-04-27T21:33:37Z</time>
      </trkpt>
      <trkpt lat="47.87755" lon="-4.20366">
        <ele>17.572</ele>
        <time>2016-04-27T21:33:17Z</time>
      </trkpt>
      <trkpt lat="47.87747" lon="-4.20232">
        <ele>14.767</ele>
        <time>2016-04-27T21:32:57Z</time>
      </trkpt>
      <trkpt lat="47.87687" lon="-4.2023">
        <ele>10.236</ele>
        <time>2016-04-27T21:32:37Z</time>
      </trkpt>
      <trkpt lat="47.87537" lon="-4.20153">
        <ele>4.333</ele>
        <time>2016-04-27T21:32:17Z</time>
      </trkpt>
      <trkpt lat="47.87436" lon="-4.20374">
        <ele>3.516</ele>
        <time>2016-04-27T21:31:57Z</time>
      </trkpt>
      <trkpt lat="47.87301" lon="-4.20269">
        <ele>7.014</ele>
        <time>2016-04-27T21:31:37Z</time>
      </trkpt>
      <trkpt lat="47.87246" lon="-4.204">
        <ele>8.168</ele>
        <time>2016-04-27T21:31:17Z</time>
      </trkpt>
      <trkpt lat="47.87189" lon="-4.20578">
        <ele>10.008</ele>
        <time>2016-04-27T21:30:57Z</time>
      </trkpt>
      <trkpt lat="47.8716" lon="-4.20623">
        <ele>10.714</ele>
        <time>2016-04-27T21:30:37Z</time>
      </trkpt>
      <trkpt lat="47.87149" lon="-4.20844">
        <ele>9.468</ele>
        <time>2016-04-27T21:30:17Z</time>
      </trkpt>
      <trkpt lat="47.87163" lon="-4.2117">
        <ele>6.927</ele>
        <time>2016-04-27T21:29:57Z</time>
      </trkpt>
      <trkpt lat="47.87115" lon="-4.21492">
        <ele>6.743</ele>
        <time>2016-04-27T21:29:37Z</time>
      </trkpt>
      <trkpt lat="47.87056" lon="-4.21634">
        <ele>9.085</ele>
        <time>2016-04-27T21:29:17Z</time>
      </trkpt>
      <trkpt lat="47.87035" lon="-4.21762">
        <ele>10.79</ele>
        <time>2016-04-27T21:28:57Z</time>
      </trkpt>
      <trkpt lat="47.86914" lon="-4.21752">
        <ele>7.279</ele>
        <time>2016-04-27T21:28:37Z</time>
      </trkpt>
      <trkpt lat="47.86888" lon="-4.21786">
        <ele>8.456</ele>
        <time>2016-04-27T21:28:17Z</time>
      </trkpt>
      <trkpt lat="47.86874" lon="-4.21915">
        <ele>6.189</ele>
        <time>2016-04-27T21:27:57Z</time>
      </trkpt>
      <trkpt lat="47.86797" lon="-4.21889">
        <ele>6.077</ele>
        <time>2016-04-27T21:27:37Z</time>
      </trkpt>
      <trkpt lat="47.86784" lon="-4.22091">
        <ele>4.411</ele>
        <time>2016-04-27T21:27:17Z</time>
      </trkpt>
      <trkpt lat="47.86796" lon="-4.22162">
        <ele>5.508</ele>
        <time>2016-04-27T21:26:57Z</time>
      </trkpt>
      <trkpt lat="47.86787" lon="-4.22222">
        <ele>5.314</ele>
        <time>2016-04-27T21:26:37Z</time>
      </trkpt>
      <trkpt lat="47.86717" lon="-4.22207">
        <ele>7.759</ele>
        <time>2016-04-27T21:25:57Z</time>
      </trkpt>
      <trkpt lat="47.86747" lon="-4.21973">
        <ele>6.256</ele>
        <time>2016-04-27T21:25:37Z</time>
      </trkpt>
      <trkpt lat="47.8674" lon="-4.21863">
        <ele>5.352</ele>
        <time>2016-04-27T21:25:17Z</time>
      </trkpt>
      <trkpt lat="47.86639" lon="-4.21683">
        <ele>6.674</ele>
        <time>2016-04-27T21:24:57Z</time>
      </trkpt>
      <trkpt lat="47.86602" lon="-4.21595">
        <ele>6.269</ele>
        <time>2016-04-27T21:24:37Z</time>
      </trkpt>
      <trkpt lat="47.866" lon="-4.21462">
        <ele>6.778</ele>
        <time>2016-04-27T21:24:17Z</time>
      </trkpt>
      <trkpt lat="47.86633" lon="-4.21372">
        <ele>12.025</ele>
        <time>2016-04-27T21:23:57Z</time>
      </trkpt>
      <trkpt lat="47.86678" lon="-4.21183">
        <ele>4.688</ele>
        <time>2016-04-27T21:23:37Z</time>
      </trkpt>
      <trkpt lat="47.86674" lon="-4.21095">
        <ele>5.756</ele>
        <time>2016-04-27T21:23:17Z</time>
      </trkpt>
      <trkpt lat="47.86541" lon="-4.20803">
        <ele>4.95</ele>
        <time>2016-04-27T21:22:57Z</time>
      </trkpt>
      <trkpt lat="47.86399" lon="-4.20679">
        <ele>4.408</ele>
        <time>2016-04-27T21:22:37Z</time>
      </trkpt>
      <trkpt lat="47.86361" lon="-4.20589">
        <ele>1.414</ele>
        <time>2016-04-27T21:22:17Z</time>
      </trkpt>
      <trkpt lat="47.86322" lon="-4.20569">
        <ele>2.222</ele>
        <time>2016-04-27T21:21:57Z</time>
      </trkpt>
      <trkpt lat="47.86292" lon="-4.20589">
        <ele>2.342</ele>
        <time>2016-04-27T21:21:37Z</time>
      </trkpt>
      <trkpt lat="47.86207" lon="-4.20567">
        <ele>7.627</ele>
        <time>2016-04-27T21:21:17Z</time>
      </trkpt>
      <trkpt lat="47.86181" lon="-4.20514">
        <ele>8.179</ele>
        <time>2016-04-27T21:20:57Z</time>
      </trkpt>
      <trkpt lat="47.86078" lon="-4.20415">
        <ele>14.224</ele>
        <time>2016-04-27T21:20:37Z</time>
      </trkpt>
      <trkpt lat="47.86046" lon="-4.20278">
        <ele>10.793</ele>
        <time>2016-04-27T21:20:17Z</time>
      </trkpt>
      <trkpt lat="47.86023" lon="-4.2022">
        <ele>6.17</ele>
        <time>2016-04-27T21:19:57Z</time>
      </trkpt>
      <trkpt lat="47.86006" lon="-4.20078">
        <ele>4.453</ele>
        <time>2016-04-27T21:19:37Z</time>
      </trkpt>
      <trkpt lat="47.85931" lon="-4.20026">
        <ele>6.461</ele>
        <time>2016-04-27T21:18:17Z</time>
      </trkpt>
      <trkpt lat="47.85915" lon="-4.19979">
        <ele>6.435</ele>
        <time>2016-04-27T21:17:57Z</time>
      </trkpt>
      <trkpt lat="47.85826" lon="-4.19941">
        <ele>7.108</ele>
        <time>2016-04-27T21:17:37Z</time>
      </trkpt>
      <trkpt lat="47.85785" lon="-4.19893">
        <ele>5.124</ele>
        <time>2016-04-27T21:17:17Z</time>
      </trkpt>
      <trkpt lat="47.85741" lon="-4.19868">
        <ele>5.831</ele>
        <time>2016-04-27T21:16:57Z</time>
      </trkpt>
      <trkpt lat="47.85695" lon="-4.19782">
        <ele>5.796</ele>
        <time>2016-04-27T21:16:37Z</time>
      </trkpt>
      <trkpt lat="47.85695" lon="-4.19733">
        <ele>6.353</ele>
        <time>2016-04-27T21:16:17Z</time>
      </trkpt>
      <trkpt lat="47.85689" lon="-4.19683">
        <ele>6.525</ele>
        <time>2016-04-27T21:15:57Z</time>
      </trkpt>
      <trkpt lat="47.85705" lon="-4.19625">
        <ele>4.63</ele>
        <time>2016-04-27T21:15:37Z</time>
      </trkpt>
      <trkpt lat="47.85499" lon="-4.19514">
        <ele>8.079</ele>
        <time>2016-04-27T21:15:17Z</time>
      </trkpt>
      <trkpt lat="47.85482" lon="-4.19486">
        <ele>3.966</ele>
        <time>2016-04-27T21:14:57Z</time>
      </trkpt>
      <trkpt lat="47.85456" lon="-4.19471">
        <ele>4.029</ele>
        <time>2016-04-27T21:14:37Z</time>
      </trkpt>
      <trkpt lat="47.85427" lon="-4.19411">
        <ele>1.817</ele>
        <time>2016-04-27T21:14:17Z</time>
      </trkpt>
      <trkpt lat="47.85359" lon="-4.19404">
        <ele>6.271</ele>
        <time>2016-04-27T21:13:57Z</time>
      </trkpt>
      <trkpt lat="47.85306" lon="-4.19346">
        <ele>6.008</ele>
        <time>2016-04-27T21:13:37Z</time>
      </trkpt>
      <trkpt lat="47.85291" lon="-4.19426">
        <ele>9.014</ele>
        <time>2016-04-27T21:13:17Z</time>
      </trkpt>
      <trkpt lat="47.8526" lon="-4.19462">
        <ele>8.459</ele>
        <time>2016-04-27T21:12:57Z</time>
      </trkpt>
      <trkpt lat="47.85237" lon="-4.19574">
        <ele>10.556</ele>
        <time>2016-04-27T21:12:37Z</time>
      </trkpt>
      <trkpt lat="47.85198" lon="-4.19632">
        <ele>12.192</ele>
        <time>2016-04-27T21:12:17Z</time>
      </trkpt>
      <trkpt lat="47.85186" lon="-4.1967">
        <ele>12.744</ele>
        <time>2016-04-27T21:11:57Z</time>
      </trkpt>
      <trkpt lat="47.8511" lon="-4.19569">
        <ele>12.079</ele>
        <time>2016-04-27T21:11:37Z</time>
      </trkpt>
      <trkpt lat="47.85024" lon="-4.19404">
        <ele>13.378</ele>
        <time>2016-04-27T21:11:17Z</time>
      </trkpt>
      <trkpt lat="47.84868" lon="-4.19183">
        <ele>9.665</ele>
        <time>2016-04-27T21:10:57Z</time>
      </trkpt>
      <trkpt lat="47.84823" lon="-4.19136">
        <ele>9.958</ele>
        <time>2016-04-27T21:10:37Z</time>
      </trkpt>
      <trkpt lat="47.84796" lon="-4.19066">
        <ele>8.026</ele>
        <time>2020-12-18T19:11:31Z</time>
      </trkpt>
      <trkpt lat="47.84804" lon="-4.19034">
        <ele>7.21</ele>
        <time>2020-12-18T19:11:11Z</time>
      </trkpt>
      <trkpt lat="47.8476" lon="-4.18986">
        <ele>5.208</ele>
        <time>2016-04-27T21:09:17Z</time>
      </trkpt>
      <trkpt lat="47.84724" lon="-4.18988">
        <ele>6.509</ele>
        <time>2020-12-18T19:10:31Z</time>
      </trkpt>
      <trkpt lat="47.84705" lon="-4.19003">
        <ele>6.981</ele>
        <time>2020-12-18T19:10:11Z</time>
      </trkpt>
      <trkpt lat="47.84723" lon="-4.19121">
        <ele>5.441</ele>
        <time>2016-04-27T21:08:17Z</time>
      </trkpt>
      <trkpt lat="47.84725" lon="-4.1918">
        <ele>7.654</ele>
        <time>2020-12-18T19:09:31Z</time>
      </trkpt>
      <trkpt lat="47.84714" lon="-4.19194">
        <ele>8.356</ele>
        <time>2016-04-27T21:07:57Z</time>
      </trkpt>
      <trkpt lat="47.84703" lon="-4.19142">
        <ele>6.281</ele>
        <time>2016-04-27T21:07:37Z</time>
      </trkpt>
      <trkpt lat="47.84695" lon="-4.19106">
        <ele>4.07</ele>
        <time>2016-04-27T21:07:17Z</time>
      </trkpt>
      <trkpt lat="47.84677" lon="-4.19093">
        <ele>4.017</ele>
        <time>2016-04-27T21:06:57Z</time>
      </trkpt>
      <trkpt lat="47.84643" lon="-4.19057">
        <ele>5.81</ele>
        <time>2016-04-27T21:06:37Z</time>
      </trkpt>
      <trkpt lat="47.84527" lon="-4.19001">
        <ele>4.088</ele>
        <time>2016-04-27T21:06:17Z</time>
      </trkpt>
      <trkpt lat="47.84508" lon="-4.18919">
        <ele>0.852</ele>
        <time>2016-04-27T21:05:57Z</time>
      </trkpt>
      <trkpt lat="47.84491" lon="-4.18887">
        <ele>1.308</ele>
        <time>2016-04-27T21:05:37Z</time>
      </trkpt>
      <trkpt lat="47.84495" lon="-4.18838">
        <ele>2.619</ele>
        <time>2016-04-27T21:05:17Z</time>
      </trkpt>
      <trkpt lat="47.84489" lon="-4.18767">
        <ele>4.081</ele>
        <time>2016-04-27T21:04:57Z</time>
      </trkpt>
      <trkpt lat="47.84502" lon="-4.18703">
        <ele>4.867</ele>
        <time>2016-04-27T21:04:37Z</time>
      </trkpt>
      <trkpt lat="47.8444" lon="-4.18619">
        <ele>4.183</ele>
        <time>2016-04-27T21:04:17Z</time>
      </trkpt>
      <trkpt lat="47.8438" lon="-4.18612">
        <ele>4.085</ele>
        <time>2016-04-27T21:03:57Z</time>
      </trkpt>
      <trkpt lat="47.84304" lon="-4.18516">
        <ele>5.07</ele>
        <time>2016-04-27T21:03:37Z</time>
      </trkpt>
      <trkpt lat="47.84298" lon="-4.18454">
        <ele>4.319</ele>
        <time>2016-04-27T21:03:17Z</time>
      </trkpt>
      <trkpt lat="47.84283" lon="-4.18456">
        <ele>4.456</ele>
        <time>2016-04-27T21:02:57Z</time>
      </trkpt>
      <trkpt lat="47.84237" lon="-4.18432">
        <ele>7.449</ele>
        <time>2016-04-27T21:02:37Z</time>
      </trkpt>
      <trkpt lat="47.84217" lon="-4.18441">
        <ele>9.577</ele>
        <time>2016-04-27T21:02:17Z</time>
      </trkpt>
      <trkpt lat="47.84184" lon="-4.18552">
        <ele>7.821</ele>
        <time>2016-04-27T21:01:57Z</time>
      </trkpt>
      <trkpt lat="47.84134" lon="-4.18632">
        <ele>11.308</ele>
        <time>2016-04-27T21:01:37Z</time>
      </trkpt>
      <trkpt lat="47.84027" lon="-4.18615">
        <ele>12.823</ele>
        <time>2016-04-27T21:01:17Z</time>
      </trkpt>
      <trkpt lat="47.83968" lon="-4.18587">
        <ele>7.703</ele>
        <time>2016-04-27T21:00:57Z</time>
      </trkpt>
      <trkpt lat="47.8391" lon="-4.18509">
        <ele>5.459</ele>
        <time>2016-04-27T21:00:37Z</time>
      </trkpt>
      <trkpt lat="47.8386" lon="-4.18533">
        <ele>4.562</ele>
        <time>2016-04-27T21:00:17Z</time>
      </trkpt>
      <trkpt lat="47.83857" lon="-4.18555">
        <ele>6.444</ele>
        <time>2016-04-27T20:59:57Z</time>
      </trkpt>
      <trkpt lat="47.838" lon="-4.18544">
        <ele>9.559</ele>
        <time>2016-04-27T20:59:37Z</time>
      </trkpt>
      <trkpt lat="47.83618" lon="-4.18424">
        <ele>9.428</ele>
        <time>2016-04-27T20:59:17Z</time>
      </trkpt>
      <trkpt lat="47.8356" lon="-4.18334">
        <ele>6.095</ele>
        <time>2016-04-27T20:58:57Z</time>
      </trkpt>
      <trkpt lat="47.83385" lon="-4.18164">
        <ele>9.238</ele>
        <time>2016-04-27T20:58:37Z</time>
      </trkpt>
      <trkpt lat="47.83346" lon="-4.18051">
        <ele>9.576</ele>
        <time>2020-12-18T18:59:31Z</time>
      </trkpt>
      <trkpt lat="47.83305" lon="-4.17943">
        <ele>10.01</ele>
        <time>2020-12-18T18:59:11Z</time>
      </trkpt>
      <trkpt lat="47.83259" lon="-4.17949">
        <ele>10.408</ele>
        <time>2020-12-18T18:58:51Z</time>
      </trkpt>
      <trkpt lat="47.83249" lon="-4.17853">
        <ele>6.822</ele>
        <time>2020-12-18T18:58:31Z</time>
      </trkpt>
      <trkpt lat="47.8329" lon="-4.17831">
        <ele>4.002</ele>
        <time>2020-12-18T18:58:11Z</time>
      </trkpt>
      <trkpt lat="47.83281" lon="-4.17763">
        <ele>5.449</ele>
        <time>2020-12-18T18:57:51Z</time>
      </trkpt>
      <trkpt lat="47.83236" lon="-4.17798">
        <ele>6.65</ele>
        <time>2020-12-18T18:57:31Z</time>
      </trkpt>
      <trkpt lat="47.83231" lon="-4.17822">
        <ele>7.212</ele>
        <time>2020-12-18T18:57:11Z</time>
      </trkpt>
      <trkpt lat="47.83217" lon="-4.17802">
        <ele>8.427</ele>
        <time>2020-12-18T18:56:51Z</time>
      </trkpt>
      <trkpt lat="47.83172" lon="-4.17765">
        <ele>9.816</ele>
        <time>2020-12-18T18:56:31Z</time>
      </trkpt>
      <trkpt lat="47.83165" lon="-4.17693">
        <ele>10.023</ele>
        <time>2020-12-18T18:56:11Z</time>
      </trkpt>
      <trkpt lat="47.83202" lon="-4.1754">
        <ele>5.156</ele>
        <time>2020-12-18T18:55:51Z</time>
      </trkpt>
      <trkpt lat="47.83198" lon="-4.17497">
        <ele>4.224</ele>
        <time>2020-12-18T18:55:31Z</time>
      </trkpt>
      <trkpt lat="47.83249" lon="-4.17484">
        <ele>5.458</ele>
        <time>2020-12-18T18:55:11Z</time>
      </trkpt>
      <trkpt lat="47.83291" lon="-4.17507">
        <ele>3.308</ele>
        <time>2016-04-27T20:56:37Z</time>
      </trkpt>
      <trkpt lat="47.83361" lon="-4.17255">
        <ele>5.22</ele>
        <time>2020-12-18T18:54:31Z</time>
      </trkpt>
      <trkpt lat="47.83379" lon="-4.17078">
        <ele>4.9</ele>
        <time>2020-12-18T18:54:11Z</time>
      </trkpt>
      <trkpt lat="47.83407" lon="-4.17026">
        <ele>4.229</ele>
        <time>2020-12-18T18:53:51Z</time>
      </trkpt>
      <trkpt lat="47.83461" lon="-4.16995">
        <ele>5.271</ele>
        <time>2020-12-18T18:53:31Z</time>
      </trkpt>
      <trkpt lat="47.83524" lon="-4.1699">
        <ele>3.583</ele>
        <time>2020-12-18T18:53:11Z</time>
      </trkpt>
      <trkpt lat="47.8353" lon="-4.16945">
        <ele>5.838</ele>
        <time>2020-12-18T18:52:51Z</time>
      </trkpt>
      <trkpt lat="47.83429" lon="-4.16909">
        <ele>8.077</ele>
        <time>2020-12-18T18:52:31Z</time>
      </trkpt>
      <trkpt lat="47.83492" lon="-4.16797">
        <ele>7.194</ele>
        <time>2020-12-18T18:52:11Z</time>
      </trkpt>
      <trkpt lat="47.83452" lon="-4.16759">
        <ele>9.037</ele>
        <time>2020-12-18T18:51:51Z</time>
      </trkpt>
      <trkpt lat="47.83448" lon="-4.16717">
        <ele>8.465</ele>
        <time>2020-12-18T18:51:31Z</time>
      </trkpt>
      <trkpt lat="47.83465" lon="-4.16592">
        <ele>5.399</ele>
        <time>2020-12-18T18:51:11Z</time>
      </trkpt>
      <trkpt lat="47.83449" lon="-4.16522">
        <ele>8.608</ele>
        <time>2020-12-18T18:50:51Z</time>
      </trkpt>
      <trkpt lat="47.83254" lon="-4.16616">
        <ele>8.015</ele>
        <time>2020-12-18T18:50:31Z</time>
      </trkpt>
      <trkpt lat="47.83233" lon="-4.16358">
        <ele>7.123</ele>
        <time>2020-12-18T18:50:11Z</time>
      </trkpt>
      <trkpt lat="47.83224" lon="-4.16271">
        <ele>7.833</ele>
        <time>2020-12-18T18:49:51Z</time>
      </trkpt>
      <trkpt lat="47.83194" lon="-4.16156">
        <ele>7.029</ele>
        <time>2020-12-18T18:49:31Z</time>
      </trkpt>
      <trkpt lat="47.83145" lon="-4.16059">
        <ele>5.011</ele>
        <time>2020-12-18T18:49:11Z</time>
      </trkpt>
      <trkpt lat="47.83102" lon="-4.15965">
        <ele>2.296</ele>
        <time>2020-12-18T18:48:51Z</time>
      </trkpt>
      <trkpt lat="47.82982" lon="-4.16137">
        <ele>4.655</ele>
        <time>2020-12-18T18:48:31Z</time>
      </trkpt>
      <trkpt lat="47.82944" lon="-4.16198">
        <ele>4.062</ele>
        <time>2020-12-18T18:48:11Z</time>
      </trkpt>
      <trkpt lat="47.8293" lon="-4.16202">
        <ele>4.195</ele>
        <time>2020-12-18T18:47:51Z</time>
      </trkpt>
      <trkpt lat="47.82784" lon="-4.1633">
        <ele>3.993</ele>
        <time>2020-12-18T18:47:31Z</time>
      </trkpt>
      <trkpt lat="47.82752" lon="-4.16335">
        <ele>3.167</ele>
        <time>2020-12-18T18:47:11Z</time>
      </trkpt>
      <trkpt lat="47.82661" lon="-4.16321">
        <ele>5.108</ele>
        <time>2020-12-18T18:46:51Z</time>
      </trkpt>
      <trkpt lat="47.82633" lon="-4.16601">
        <ele>5.005</ele>
        <time>2020-12-18T18:46:31Z</time>
      </trkpt>
      <trkpt lat="47.8261" lon="-4.16591">
        <ele>5.032</ele>
        <time>2020-12-18T18:46:11Z</time>
      </trkpt>
      <trkpt lat="47.82589" lon="-4.16681">
        <ele>5.612</ele>
        <time>2020-12-18T18:45:51Z</time>
      </trkpt>
      <trkpt lat="47.82583" lon="-4.16914">
        <ele>6.929</ele>
        <time>2020-12-18T18:45:31Z</time>
      </trkpt>
      <trkpt lat="47.82605" lon="-4.1702">
        <ele>5.451</ele>
        <time>2016-04-27T20:52:17Z</time>
      </trkpt>
      <trkpt lat="47.82539" lon="-4.17055">
        <ele>6.036</ele>
        <time>2016-04-27T20:51:57Z</time>
      </trkpt>
      <trkpt lat="47.82474" lon="-4.1704">
        <ele>6.015</ele>
        <time>2016-04-27T20:51:37Z</time>
      </trkpt>
      <trkpt lat="47.82434" lon="-4.1704">
        <ele>6.612</ele>
        <time>2016-04-27T20:51:17Z</time>
      </trkpt>
      <trkpt lat="47.82293" lon="-4.16999">
        <ele>8.025</ele>
        <time>2016-04-27T20:50:57Z</time>
      </trkpt>
      <trkpt lat="47.82274" lon="-4.17022">
        <ele>7.943</ele>
        <time>2016-04-27T20:50:37Z</time>
      </trkpt>
      <trkpt lat="47.82254" lon="-4.17177">
        <ele>6.037</ele>
        <time>2016-04-27T20:50:17Z</time>
      </trkpt>
      <trkpt lat="47.82265" lon="-4.17237">
        <ele>5.008</ele>
        <time>2016-04-27T20:49:57Z</time>
      </trkpt>
      <trkpt lat="47.8226" lon="-4.17325">
        <ele>4.019</ele>
        <time>2016-04-27T20:49:37Z</time>
      </trkpt>
      <trkpt lat="47.8225" lon="-4.17391">
        <ele>5.009</ele>
        <time>2016-04-27T20:49:17Z</time>
      </trkpt>
      <trkpt lat="47.82206" lon="-4.17353">
        <ele>5.219</ele>
        <time>2016-04-27T20:48:57Z</time>
      </trkpt>
      <trkpt lat="47.82091" lon="-4.17297">
        <ele>6.289</ele>
        <time>2016-04-27T20:48:37Z</time>
      </trkpt>
      <trkpt lat="47.82078" lon="-4.17355">
        <ele>7.221</ele>
        <time>2016-04-27T20:48:17Z</time>
      </trkpt>
      <trkpt lat="47.82072" lon="-4.17574">
        <ele>5.826</ele>
        <time>2016-04-27T20:47:57Z</time>
      </trkpt>
      <trkpt lat="47.82013" lon="-4.17563">
        <ele>8.965</ele>
        <time>2016-04-27T20:47:37Z</time>
      </trkpt>
      <trkpt lat="47.81967" lon="-4.1758">
        <ele>9.182</ele>
        <time>2016-04-27T20:47:17Z</time>
      </trkpt>
      <trkpt lat="47.81878" lon="-4.17542">
        <ele>8.625</ele>
        <time>2016-04-27T20:46:57Z</time>
      </trkpt>
      <trkpt lat="47.81737" lon="-4.17497">
        <ele>8.013</ele>
        <time>2016-04-27T20:46:37Z</time>
      </trkpt>
      <trkpt lat="47.81702" lon="-4.17505">
        <ele>7.297</ele>
        <time>2016-04-27T20:46:17Z</time>
      </trkpt>
      <trkpt lat="47.81669" lon="-4.1749">
        <ele>7.908</ele>
        <time>2016-04-27T20:45:57Z</time>
      </trkpt>
      <trkpt lat="47.81656" lon="-4.17385">
        <ele>7.403</ele>
        <time>2016-04-27T20:45:37Z</time>
      </trkpt>
      <trkpt lat="47.81667" lon="-4.17374">
        <ele>6.921</ele>
        <time>2016-04-27T20:45:17Z</time>
      </trkpt>
      <trkpt lat="47.81657" lon="-4.17301">
        <ele>5.111</ele>
        <time>2016-04-27T20:44:57Z</time>
      </trkpt>
      <trkpt lat="47.81659" lon="-4.17205">
        <ele>6.725</ele>
        <time>2016-04-27T20:44:37Z</time>
      </trkpt>
      <trkpt lat="47.81685" lon="-4.16988">
        <ele>7.017</ele>
        <time>2016-04-27T20:44:17Z</time>
      </trkpt>
      <trkpt lat="47.81703" lon="-4.16806">
        <ele>4.092</ele>
        <time>2016-04-27T20:43:57Z</time>
      </trkpt>
      <trkpt lat="47.81715" lon="-4.16746">
        <ele>3.921</ele>
        <time>2016-04-27T20:43:37Z</time>
      </trkpt>
      <trkpt lat="47.81657" lon="-4.16741">
        <ele>3.768</ele>
        <time>2016-04-27T20:43:17Z</time>
      </trkpt>
      <trkpt lat="47.8159" lon="-4.16711">
        <ele>5.711</ele>
        <time>2016-04-27T20:42:57Z</time>
      </trkpt>
      <trkpt lat="47.81544" lon="-4.16664">
        <ele>5.849</ele>
        <time>2016-04-27T20:42:37Z</time>
      </trkpt>
      <trkpt lat="47.81522" lon="-4.16563">
        <ele>2.573</ele>
        <time>2016-04-27T20:41:37Z</time>
      </trkpt>
      <trkpt lat="47.815" lon="-4.16525">
        <ele>2.008</ele>
        <time>2016-04-27T20:40:57Z</time>
      </trkpt>
      <trkpt lat="47.81453" lon="-4.16522">
        <ele>3.825</ele>
        <time>2016-04-27T20:40:37Z</time>
      </trkpt>
      <trkpt lat="47.81476" lon="-4.16638">
        <ele>6.905</ele>
        <time>2016-04-27T20:40:17Z</time>
      </trkpt>
      <trkpt lat="47.81477" lon="-4.16782">
        <ele>6.079</ele>
        <time>2016-04-27T20:39:57Z</time>
      </trkpt>
      <trkpt lat="47.81456" lon="-4.1684">
        <ele>6.119</ele>
        <time>2016-04-27T20:39:37Z</time>
      </trkpt>
      <trkpt lat="47.8144" lon="-4.16949">
        <ele>7.881</ele>
        <time>2016-04-27T20:39:17Z</time>
      </trkpt>
      <trkpt lat="47.81388" lon="-4.17207">
        <ele>5.036</ele>
        <time>2016-04-27T20:38:57Z</time>
      </trkpt>
      <trkpt lat="47.8131" lon="-4.17464">
        <ele>2.475</ele>
        <time>2016-04-27T20:38:37Z</time>
      </trkpt>
      <trkpt lat="47.81274" lon="-4.17497">
        <ele>4.082</ele>
        <time>2016-04-27T20:38:17Z</time>
      </trkpt>
      <trkpt lat="47.81189" lon="-4.17529">
        <ele>6.085</ele>
        <time>2016-04-27T20:37:57Z</time>
      </trkpt>
      <trkpt lat="47.81144" lon="-4.1758">
        <ele>4.553</ele>
        <time>2016-04-27T20:37:37Z</time>
      </trkpt>
      <trkpt lat="47.81068" lon="-4.17563">
        <ele>4.497</ele>
        <time>2016-04-27T20:37:17Z</time>
      </trkpt>
      <trkpt lat="47.81025" lon="-4.17505">
        <ele>3.408</ele>
        <time>2016-04-27T20:36:17Z</time>
      </trkpt>
      <trkpt lat="47.8099" lon="-4.17537">
        <ele>5.811</ele>
        <time>2016-04-27T20:35:17Z</time>
      </trkpt>
      <trkpt lat="47.8093" lon="-4.17565">
        <ele>5.465</ele>
        <time>2016-04-27T20:34:57Z</time>
      </trkpt>
      <trkpt lat="47.80918" lon="-4.1758">
        <ele>5.915</ele>
        <time>2016-04-27T20:34:37Z</time>
      </trkpt>
      <trkpt lat="47.8083" lon="-4.17552">
        <ele>4.827</ele>
        <time>2016-04-27T20:34:17Z</time>
      </trkpt>
      <trkpt lat="47.80788" lon="-4.17557">
        <ele>4.629</ele>
        <time>2016-04-27T20:33:57Z</time>
      </trkpt>
      <trkpt lat="47.80696" lon="-4.17651">
        <ele>6.124</ele>
        <time>2016-04-27T20:33:37Z</time>
      </trkpt>
      <trkpt lat="47.80656" lon="-4.1767">
        <ele>5.043</ele>
        <time>2016-04-27T20:33:17Z</time>
      </trkpt>
      <trkpt lat="47.80587" lon="-4.17722">
        <ele>5.98</ele>
        <time>2016-04-27T20:32:57Z</time>
      </trkpt>
      <trkpt lat="47.805" lon="-4.17803">
        <ele>5.073</ele>
        <time>2016-04-27T20:32:37Z</time>
      </trkpt>
      <trkpt lat="47.80431" lon="-4.17941">
        <ele>6.041</ele>
        <time>2016-04-27T20:32:17Z</time>
      </trkpt>
      <trkpt lat="47.80435" lon="-4.17992">
        <ele>5.395</ele>
        <time>2016-04-27T20:31:57Z</time>
      </trkpt>
      <trkpt lat="47.80425" lon="-4.18003">
        <ele>4.908</ele>
        <time>2016-04-27T20:31:37Z</time>
      </trkpt>
      <trkpt lat="47.80388" lon="-4.17977">
        <ele>4.919</ele>
        <time>2016-04-27T20:31:17Z</time>
      </trkpt>
      <trkpt lat="47.80362" lon="-4.18042">
        <ele>3.081</ele>
        <time>2016-04-27T20:30:57Z</time>
      </trkpt>
      <trkpt lat="47.80314" lon="-4.18115">
        <ele>2.491</ele>
        <time>2016-04-27T20:30:37Z</time>
      </trkpt>
      <trkpt lat="47.80266" lon="-4.18229">
        <ele>3.124</ele>
        <time>2016-04-27T20:30:17Z</time>
      </trkpt>
      <trkpt lat="47.80232" lon="-4.18266">
        <ele>2.636</ele>
        <time>2016-04-27T20:29:57Z</time>
      </trkpt>
      <trkpt lat="47.80191" lon="-4.18234">
        <ele>4.031</ele>
        <time>2016-04-27T20:29:37Z</time>
      </trkpt>
      <trkpt lat="47.8016" lon="-4.18263">
        <ele>4.95</ele>
        <time>2016-04-27T20:29:17Z</time>
      </trkpt>
      <trkpt lat="47.80023" lon="-4.18349">
        <ele>2.447</ele>
        <time>2016-04-27T20:28:57Z</time>
      </trkpt>
      <trkpt lat="47.79978" lon="-4.18524">
        <ele>3.95</ele>
        <time>2016-04-27T20:28:37Z</time>
      </trkpt>
      <trkpt lat="47.80164" lon="-4.18625">
        <ele>2.188</ele>
        <time>2016-04-27T20:28:17Z</time>
      </trkpt>
      <trkpt lat="47.80236" lon="-4.18743">
        <ele>2.922</ele>
        <time>2016-04-27T20:27:57Z</time>
      </trkpt>
      <trkpt lat="47.80231" lon="-4.18799">
        <ele>3.008</ele>
        <time>2016-04-27T20:27:37Z</time>
      </trkpt>
      <trkpt lat="47.80196" lon="-4.18915">
        <ele>5.016</ele>
        <time>2016-04-27T20:27:17Z</time>
      </trkpt>
      <trkpt lat="47.80179" lon="-4.19016">
        <ele>7.406</ele>
        <time>2016-04-27T20:26:57Z</time>
      </trkpt>
      <trkpt lat="47.80092" lon="-4.18992">
        <ele>7.264</ele>
        <time>2016-04-27T20:26:37Z</time>
      </trkpt>
      <trkpt lat="47.79996" lon="-4.19022">
        <ele>5.057</ele>
        <time>2016-04-27T20:26:17Z</time>
      </trkpt>
      <trkpt lat="47.79942" lon="-4.19018">
        <ele>5.629</ele>
        <time>2016-04-27T20:25:57Z</time>
      </trkpt>
      <trkpt lat="47.79893" lon="-4.18986">
        <ele>4.224</ele>
        <time>2016-04-27T20:25:37Z</time>
      </trkpt>
      <trkpt lat="47.79836" lon="-4.19085">
        <ele>2.023</ele>
        <time>2020-12-18T18:20:31Z</time>
      </trkpt>
      <trkpt lat="47.79802" lon="-4.19104">
        <ele>2.04</ele>
        <time>2020-12-18T18:20:11Z</time>
      </trkpt>
      <trkpt lat="47.79751" lon="-4.19222">
        <ele>4.073</ele>
        <time>2016-04-27T20:24:37Z</time>
      </trkpt>
      <trkpt lat="47.79716" lon="-4.19248">
        <ele>4.711</ele>
        <time>2016-04-27T20:24:17Z</time>
      </trkpt>
      <trkpt lat="47.7968" lon="-4.1925">
        <ele>3.545</ele>
        <time>2016-04-27T20:23:57Z</time>
      </trkpt>
      <trkpt lat="47.79664" lon="-4.1923">
        <ele>2.308</ele>
        <time>2016-04-27T20:23:37Z</time>
      </trkpt>
      <trkpt lat="47.79633" lon="-4.19224">
        <ele>2.027</ele>
        <time>2016-04-27T20:23:17Z</time>
      </trkpt>
      <trkpt lat="47.79608" lon="-4.19248">
        <ele>1.907</ele>
        <time>2016-04-27T20:22:57Z</time>
      </trkpt>
      <trkpt lat="47.79635" lon="-4.19288">
        <ele>2.999</ele>
        <time>2016-04-27T20:22:37Z</time>
      </trkpt>
      <trkpt lat="47.79673" lon="-4.19384">
        <ele>4.433</ele>
        <time>2020-12-18T18:17:31Z</time>
      </trkpt>
      <trkpt lat="47.7967" lon="-4.19456">
        <ele>2.885</ele>
        <time>2016-04-27T20:21:57Z</time>
      </trkpt>
      <trkpt lat="47.79739" lon="-4.19484">
        <ele>5.23</ele>
        <time>2016-04-27T20:21:37Z</time>
      </trkpt>
      <trkpt lat="47.79739" lon="-4.19632">
        <ele>5.639</ele>
        <time>2016-04-27T20:21:17Z</time>
      </trkpt>
      <trkpt lat="47.79867" lon="-4.19831">
        <ele>5.146</ele>
        <time>2016-04-27T20:20:57Z</time>
      </trkpt>
      <trkpt lat="47.79951" lon="-4.20052">
        <ele>4.969</ele>
        <time>2016-04-27T20:20:37Z</time>
      </trkpt>
      <trkpt lat="47.79996" lon="-4.20235">
        <ele>4.587</ele>
        <time>2016-04-27T20:20:17Z</time>
      </trkpt>
      <trkpt lat="47.8001" lon="-4.2046">
        <ele>4.381</ele>
        <time>2016-04-27T20:19:57Z</time>
      </trkpt>
      <trkpt lat="47.79996" lon="-4.20709">
        <ele>2.808</ele>
        <time>2016-04-27T20:19:37Z</time>
      </trkpt>
      <trkpt lat="47.80185" lon="-4.20848">
        <ele>4.517</ele>
        <time>2016-04-27T20:19:17Z</time>
      </trkpt>
      <trkpt lat="47.80189" lon="-4.20926">
        <ele>4.152</ele>
        <time>2016-04-27T20:18:57Z</time>
      </trkpt>
      <trkpt lat="47.80222" lon="-4.20973">
        <ele>2.058</ele>
        <time>2016-04-27T20:18:37Z</time>
      </trkpt>
      <trkpt lat="47.80339" lon="-4.21039">
        <ele>2.835</ele>
        <time>2016-04-27T20:18:17Z</time>
      </trkpt>
      <trkpt lat="47.80287" lon="-4.2132">
        <ele>1.037</ele>
        <time>2016-04-27T20:17:57Z</time>
      </trkpt>
      <trkpt lat="47.80268" lon="-4.21308">
        <ele>0.112</ele>
        <time>2016-04-27T20:17:37Z</time>
      </trkpt>
      <trkpt lat="47.80241" lon="-4.21325">
        <ele>1.881</ele>
        <time>2016-04-27T20:17:17Z</time>
      </trkpt>
      <trkpt lat="47.80212" lon="-4.21295">
        <ele>2.618</ele>
        <time>2016-04-27T20:16:57Z</time>
      </trkpt>
      <trkpt lat="47.80199" lon="-4.21247">
        <ele>1.921</ele>
        <time>2016-04-27T20:16:37Z</time>
      </trkpt>
      <trkpt lat="47.8016" lon="-4.21224">
        <ele>1.689</ele>
        <time>2016-04-27T20:16:17Z</time>
      </trkpt>
      <trkpt lat="47.80154" lon="-4.2135">
        <ele>6.753</ele>
        <time>2016-04-27T20:15:57Z</time>
      </trkpt>
      <trkpt lat="47.80095" lon="-4.2135">
        <ele>6.408</ele>
        <time>2016-04-27T20:15:17Z</time>
      </trkpt>
      <trkpt lat="47.80076" lon="-4.21456">
        <ele>6.819</ele>
        <time>2016-04-27T20:14:57Z</time>
      </trkpt>
      <trkpt lat="47.8003" lon="-4.21443">
        <ele>5.99</ele>
        <time>2016-04-27T20:14:37Z</time>
      </trkpt>
      <trkpt lat="47.79974" lon="-4.21408">
        <ele>4.976</ele>
        <time>2016-04-27T20:14:17Z</time>
      </trkpt>
      <trkpt lat="47.79976" lon="-4.21378">
        <ele>4.879</ele>
        <time>2016-04-27T20:13:57Z</time>
      </trkpt>
      <trkpt lat="47.79955" lon="-4.21363">
        <ele>5.621</ele>
        <time>2016-04-27T20:13:37Z</time>
      </trkpt>
      <trkpt lat="47.79934" lon="-4.2129">
        <ele>3.856</ele>
        <time>2016-04-27T20:13:17Z</time>
      </trkpt>
      <trkpt lat="47.79898" lon="-4.21284">
        <ele>6.015</ele>
        <time>2016-04-27T20:12:57Z</time>
      </trkpt>
      <trkpt lat="47.79842" lon="-4.21323">
        <ele>6.142</ele>
        <time>2016-04-27T20:12:37Z</time>
      </trkpt>
      <trkpt lat="47.79808" lon="-4.21325">
        <ele>5.175</ele>
        <time>2020-12-18T18:07:51Z</time>
      </trkpt>
      <trkpt lat="47.79781" lon="-4.21266">
        <ele>5.043</ele>
        <time>2020-12-18T18:07:31Z</time>
      </trkpt>
      <trkpt lat="47.79762" lon="-4.21294">
        <ele>3.687</ele>
        <time>2020-12-18T18:07:11Z</time>
      </trkpt>
      <trkpt lat="47.7978" lon="-4.21357">
        <ele>4.108</ele>
        <time>2016-04-27T20:11:57Z</time>
      </trkpt>
      <trkpt lat="47.79782" lon="-4.21402">
        <ele>4.603</ele>
        <time>2016-04-27T20:11:37Z</time>
      </trkpt>
      <trkpt lat="47.79769" lon="-4.2149">
        <ele>5.421</ele>
        <time>2016-04-27T20:11:17Z</time>
      </trkpt>
      <trkpt lat="47.79736" lon="-4.21531">
        <ele>4.011</ele>
        <time>2016-04-27T20:10:57Z</time>
      </trkpt>
      <trkpt lat="47.79682" lon="-4.21554">
        <ele>1.057</ele>
        <time>2016-04-27T20:10:37Z</time>
      </trkpt>
      <trkpt lat="47.79624" lon="-4.2155">
        <ele>0.559</ele>
        <time>2016-04-27T20:10:17Z</time>
      </trkpt>
      <trkpt lat="47.79559" lon="-4.2164">
        <ele>4.264</ele>
        <time>2016-04-27T20:09:57Z</time>
      </trkpt>
      <trkpt lat="47.79529" lon="-4.21653">
        <ele>4.513</ele>
        <time>2016-04-27T20:09:37Z</time>
      </trkpt>
      <trkpt lat="47.79509" lon="-4.21633">
        <ele>4.29</ele>
        <time>2020-12-18T18:04:11Z</time>
      </trkpt>
      <trkpt lat="47.79483" lon="-4.21629">
        <ele>4.533</ele>
        <time>2020-12-18T18:03:51Z</time>
      </trkpt>
      <trkpt lat="47.79484" lon="-4.21655">
        <ele>5.641</ele>
        <time>2016-04-27T20:08:57Z</time>
      </trkpt>
      <trkpt lat="47.79393" lon="-4.21677">
        <ele>3.775</ele>
        <time>2016-04-27T20:08:37Z</time>
      </trkpt>
      <trkpt lat="47.79372" lon="-4.21722">
        <ele>4.108</ele>
        <time>2016-04-27T20:08:17Z</time>
      </trkpt>
      <trkpt lat="47.79374" lon="-4.21795">
        <ele>5.025</ele>
        <time>2016-04-27T20:07:57Z</time>
      </trkpt>
      <trkpt lat="47.79338" lon="-4.21863">
        <ele>3.523</ele>
        <time>2016-04-27T20:07:37Z</time>
      </trkpt>
      <trkpt lat="47.79276" lon="-4.21915">
        <ele>0.097</ele>
        <time>2016-04-27T20:07:17Z</time>
      </trkpt>
      <trkpt lat="47.79347" lon="-4.22071">
        <ele>3.66</ele>
        <time>2016-04-27T20:06:57Z</time>
      </trkpt>
      <trkpt lat="47.79364" lon="-4.22153">
        <ele>4.232</ele>
        <time>2016-04-27T20:06:37Z</time>
      </trkpt>
      <trkpt lat="47.79366" lon="-4.2226">
        <ele>6.227</ele>
        <time>2016-04-27T20:06:17Z</time>
      </trkpt>
      <trkpt lat="47.79246" lon="-4.2238">
        <ele>2.616</ele>
        <time>2016-04-27T20:05:57Z</time>
      </trkpt>
      <trkpt lat="47.79265" lon="-4.22443">
        <ele>5.153</ele>
        <time>2016-04-27T20:05:37Z</time>
      </trkpt>
      <trkpt lat="47.79327" lon="-4.22524">
        <ele>5.716</ele>
        <time>2016-04-27T20:05:17Z</time>
      </trkpt>
      <trkpt lat="47.79356" lon="-4.22509">
        <ele>7.514</ele>
        <time>2016-04-27T20:04:57Z</time>
      </trkpt>
      <trkpt lat="47.79398" lon="-4.22509">
        <ele>8.738</ele>
        <time>2016-04-27T20:04:37Z</time>
      </trkpt>
      <trkpt lat="47.79412" lon="-4.22546">
        <ele>7.208</ele>
        <time>2016-04-27T20:04:17Z</time>
      </trkpt>
      <trkpt lat="47.79405" lon="-4.22599">
        <ele>5.611</ele>
        <time>2016-04-27T20:03:57Z</time>
      </trkpt>
      <trkpt lat="47.79448" lon="-4.22668">
        <ele>6.047</ele>
        <time>2016-04-27T20:03:37Z</time>
      </trkpt>
      <trkpt lat="47.79485" lon="-4.22752">
        <ele>4.526</ele>
        <time>2016-04-27T20:03:17Z</time>
      </trkpt>
      <trkpt lat="47.79527" lon="-4.228">
        <ele>6.067</ele>
        <time>2016-04-27T20:02:57Z</time>
      </trkpt>
      <trkpt lat="47.7954" lon="-4.22862">
        <ele>4.149</ele>
        <time>2016-04-27T20:02:37Z</time>
      </trkpt>
      <trkpt lat="47.79502" lon="-4.23126">
        <ele>4.934</ele>
        <time>2016-04-27T20:02:17Z</time>
      </trkpt>
      <trkpt lat="47.79451" lon="-4.23197">
        <ele>5.073</ele>
        <time>2016-04-27T20:01:57Z</time>
      </trkpt>
      <trkpt lat="47.79436" lon="-4.23454">
        <ele>6.86</ele>
        <time>2016-04-27T20:01:37Z</time>
      </trkpt>
      <trkpt lat="47.79445" lon="-4.23506">
        <ele>6.893</ele>
        <time>2016-04-27T20:01:17Z</time>
      </trkpt>
      <trkpt lat="47.79439" lon="-4.23624">
        <ele>5.631</ele>
        <time>2016-04-27T20:00:57Z</time>
      </trkpt>
      <trkpt lat="47.79461" lon="-4.23792">
        <ele>3.915</ele>
        <time>2016-04-27T20:00:37Z</time>
      </trkpt>
      <trkpt lat="47.79445" lon="-4.23827">
        <ele>4.008</ele>
        <time>2016-04-27T20:00:17Z</time>
      </trkpt>
      <trkpt lat="47.79421" lon="-4.23968">
        <ele>2.021</ele>
        <time>2016-04-27T19:59:57Z</time>
      </trkpt>
      <trkpt lat="47.79426" lon="-4.24002">
        <ele>2.065</ele>
        <time>2016-04-27T19:59:37Z</time>
      </trkpt>
      <trkpt lat="47.794" lon="-4.24132">
        <ele>2.093</ele>
        <time>2016-04-27T19:59:17Z</time>
      </trkpt>
      <trkpt lat="47.79403" lon="-4.24238">
        <ele>3.393</ele>
        <time>2016-04-27T19:58:57Z</time>
      </trkpt>
      <trkpt lat="47.79378" lon="-4.24261">
        <ele>4.625</ele>
        <time>2016-04-27T19:58:37Z</time>
      </trkpt>
      <trkpt lat="47.79376" lon="-4.24412">
        <ele>5.12</ele>
        <time>2016-04-27T19:58:17Z</time>
      </trkpt>
      <trkpt lat="47.79305" lon="-4.24535">
        <ele>2.849</ele>
        <time>2016-04-27T19:57:57Z</time>
      </trkpt>
      <trkpt lat="47.79287" lon="-4.24648">
        <ele>0.256</ele>
        <time>2016-04-27T19:57:37Z</time>
      </trkpt>
      <trkpt lat="47.79269" lon="-4.24689">
        <ele>1.249</ele>
        <time>2016-04-27T19:57:17Z</time>
      </trkpt>
      <trkpt lat="47.79256" lon="-4.24795">
        <ele>2.537</ele>
        <time>2016-04-27T19:56:57Z</time>
      </trkpt>
      <trkpt lat="47.79256" lon="-4.24921">
        <ele>1.111</ele>
        <time>2016-04-27T19:56:37Z</time>
      </trkpt>
      <trkpt lat="47.79288" lon="-4.25112">
        <ele>0.708</ele>
        <time>2016-04-27T19:56:17Z</time>
      </trkpt>
      <trkpt lat="47.79292" lon="-4.2523">
        <ele>2.514</ele>
        <time>2016-04-27T19:55:57Z</time>
      </trkpt>
      <trkpt lat="47.79269" lon="-4.2546">
        <ele>3.359</ele>
        <time>2016-04-27T19:55:37Z</time>
      </trkpt>
      <trkpt lat="47.79282" lon="-4.25554">
        <ele>0.956</ele>
        <time>2016-04-27T19:55:17Z</time>
      </trkpt>
      <trkpt lat="47.79287" lon="-4.25653">
        <ele>1.945</ele>
        <time>2016-04-27T19:54:57Z</time>
      </trkpt>
      <trkpt lat="47.79268" lon="-4.25717">
        <ele>3.487</ele>
        <time>2016-04-27T19:54:37Z</time>
      </trkpt>
      <trkpt lat="47.79263" lon="-4.25777">
        <ele>2.532</ele>
        <time>2016-04-27T19:54:17Z</time>
      </trkpt>
      <trkpt lat="47.79251" lon="-4.25844">
        <ele>3.081</ele>
        <time>2016-04-27T19:53:57Z</time>
      </trkpt>
      <trkpt lat="47.79227" lon="-4.2609">
        <ele>3.818</ele>
        <time>2016-04-27T19:53:37Z</time>
      </trkpt>
      <trkpt lat="47.7919" lon="-4.2627">
        <ele>3.081</ele>
        <time>2016-04-27T19:53:17Z</time>
      </trkpt>
      <trkpt lat="47.79164" lon="-4.26272">
        <ele>2.769</ele>
        <time>2016-04-27T19:52:57Z</time>
      </trkpt>
      <trkpt lat="47.79112" lon="-4.26429">
        <ele>1.993</ele>
        <time>2016-04-27T19:52:37Z</time>
      </trkpt>
      <trkpt lat="47.79053" lon="-4.26638">
        <ele>2.808</ele>
        <time>2016-04-27T19:52:17Z</time>
      </trkpt>
      <trkpt lat="47.79044" lon="-4.26766">
        <ele>2.514</ele>
        <time>2016-04-27T19:51:57Z</time>
      </trkpt>
      <trkpt lat="47.79122" lon="-4.26942">
        <ele>2.613</ele>
        <time>2016-04-27T19:51:37Z</time>
      </trkpt>
      <trkpt lat="47.79167" lon="-4.27133">
        <ele>2.072</ele>
        <time>2016-04-27T19:51:17Z</time>
      </trkpt>
      <trkpt lat="47.79199" lon="-4.27223">
        <ele>1.144</ele>
        <time>2016-04-27T19:50:57Z</time>
      </trkpt>
      <trkpt lat="47.79225" lon="-4.27211">
        <ele>2.036</ele>
        <time>2016-04-27T19:50:37Z</time>
      </trkpt>
      <trkpt lat="47.79251" lon="-4.27226">
        <ele>2.021</ele>
        <time>2016-04-27T19:50:17Z</time>
      </trkpt>
      <trkpt lat="47.79238" lon="-4.27464">
        <ele>3.08</ele>
        <time>2016-04-27T19:49:57Z</time>
      </trkpt>
      <trkpt lat="47.79217" lon="-4.27565">
        <ele>4.747</ele>
        <time>2016-04-27T19:49:37Z</time>
      </trkpt>
      <trkpt lat="47.79186" lon="-4.27629">
        <ele>5.39</ele>
        <time>2016-04-27T19:46:57Z</time>
      </trkpt>
      <trkpt lat="47.79223" lon="-4.27695">
        <ele>4.078</ele>
        <time>2016-04-27T19:46:37Z</time>
      </trkpt>
      <trkpt lat="47.79219" lon="-4.2782">
        <ele>3.252</ele>
        <time>2016-04-27T19:46:17Z</time>
      </trkpt>
      <trkpt lat="47.79275" lon="-4.27869">
        <ele>4.008</ele>
        <time>2016-04-27T19:44:57Z</time>
      </trkpt>
      <trkpt lat="47.79334" lon="-4.27893">
        <ele>4.818</ele>
        <time>2016-04-27T19:44:37Z</time>
      </trkpt>
      <trkpt lat="47.79354" lon="-4.27889">
        <ele>3.544</ele>
        <time>2016-04-27T19:44:17Z</time>
      </trkpt>
      <trkpt lat="47.79389" lon="-4.27792">
        <ele>2.563</ele>
        <time>2020-12-18T17:41:51Z</time>
      </trkpt>
      <trkpt lat="47.79421" lon="-4.27796">
        <ele>2.971</ele>
        <time>2020-12-18T17:41:31Z</time>
      </trkpt>
      <trkpt lat="47.79484" lon="-4.27648">
        <ele>4.763</ele>
        <time>2016-04-27T19:43:17Z</time>
      </trkpt>
      <trkpt lat="47.79524" lon="-4.27601">
        <ele>4.778</ele>
        <time>2016-04-27T19:42:57Z</time>
      </trkpt>
      <trkpt lat="47.79542" lon="-4.27427">
        <ele>5.647</ele>
        <time>2016-04-27T19:42:37Z</time>
      </trkpt>
      <trkpt lat="47.79559" lon="-4.27376">
        <ele>4.964</ele>
        <time>2016-04-27T19:42:17Z</time>
      </trkpt>
      <trkpt lat="47.79599" lon="-4.27326">
        <ele>6.667</ele>
        <time>2016-04-27T19:41:57Z</time>
      </trkpt>
      <trkpt lat="47.7966" lon="-4.2738">
        <ele>3.665</ele>
        <time>2016-04-27T19:41:37Z</time>
      </trkpt>
      <trkpt lat="47.79696" lon="-4.27455">
        <ele>1.689</ele>
        <time>2016-04-27T19:41:17Z</time>
      </trkpt>
      <trkpt lat="47.79705" lon="-4.27554">
        <ele>3.608</ele>
        <time>2016-04-27T19:40:57Z</time>
      </trkpt>
      <trkpt lat="47.79597" lon="-4.27711">
        <ele>4.71</ele>
        <time>2020-12-18T17:38:31Z</time>
      </trkpt>
      <trkpt lat="47.79607" lon="-4.27725">
        <ele>6.055</ele>
        <time>2020-12-18T17:38:11Z</time>
      </trkpt>
      <trkpt lat="47.79582" lon="-4.278">
        <ele>2.334</ele>
        <time>2020-12-18T17:37:51Z</time>
      </trkpt>
      <trkpt lat="47.79566" lon="-4.27923">
        <ele>3.179</ele>
        <time>2020-12-18T17:37:31Z</time>
      </trkpt>
      <trkpt lat="47.79544" lon="-4.28006">
        <ele>2.671</ele>
        <time>2020-12-18T17:37:11Z</time>
      </trkpt>
      <trkpt lat="47.79491" lon="-4.28101">
        <ele>5.766</ele>
        <time>2020-12-18T17:36:51Z</time>
      </trkpt>
      <trkpt lat="47.79423" lon="-4.28262">
        <ele>5.965</ele>
        <time>2020-12-18T17:36:31Z</time>
      </trkpt>
      <trkpt lat="47.79377" lon="-4.28351">
        <ele>7.012</ele>
        <time>2020-12-18T17:36:11Z</time>
      </trkpt>
      <trkpt lat="47.79313" lon="-4.28282">
        <ele>5.375</ele>
        <time>2020-12-18T17:35:51Z</time>
      </trkpt>
      <trkpt lat="47.79258" lon="-4.28399">
        <ele>7.953</ele>
        <time>2016-04-27T19:38:37Z</time>
      </trkpt>
      <trkpt lat="47.79233" lon="-4.28537">
        <ele>5.147</ele>
        <time>2016-04-27T19:38:17Z</time>
      </trkpt>
      <trkpt lat="47.79311" lon="-4.28577">
        <ele>6.908</ele>
        <time>2016-04-27T19:37:57Z</time>
      </trkpt>
      <trkpt lat="47.79321" lon="-4.28642">
        <ele>7.717</ele>
        <time>2016-04-27T19:37:37Z</time>
      </trkpt>
      <trkpt lat="47.79347" lon="-4.28646">
        <ele>9.098</ele>
        <time>2016-04-27T19:37:17Z</time>
      </trkpt>
      <trkpt lat="47.79337" lon="-4.28811">
        <ele>7.018</ele>
        <time>2016-04-27T19:36:57Z</time>
      </trkpt>
      <trkpt lat="47.79313" lon="-4.29045">
        <ele>7.52</ele>
        <time>2016-04-27T19:36:37Z</time>
      </trkpt>
      <trkpt lat="47.79292" lon="-4.29103">
        <ele>6.372</ele>
        <time>2016-04-27T19:36:17Z</time>
      </trkpt>
      <trkpt lat="47.79213" lon="-4.29198">
        <ele>5.327</ele>
        <time>2016-04-27T19:35:57Z</time>
      </trkpt>
      <trkpt lat="47.79263" lon="-4.29292">
        <ele>5.516</ele>
        <time>2016-04-27T19:35:37Z</time>
      </trkpt>
      <trkpt lat="47.79307" lon="-4.2932">
        <ele>5.523</ele>
        <time>2016-04-27T19:35:17Z</time>
      </trkpt>
      <trkpt lat="47.79424" lon="-4.29324">
        <ele>3.766</ele>
        <time>2016-04-27T19:34:57Z</time>
      </trkpt>
      <trkpt lat="47.79553" lon="-4.29298">
        <ele>2.684</ele>
        <time>2016-04-27T19:34:37Z</time>
      </trkpt>
      <trkpt lat="47.79647" lon="-4.29318">
        <ele>2.318</ele>
        <time>2016-04-27T19:34:17Z</time>
      </trkpt>
      <trkpt lat="47.79752" lon="-4.29365">
        <ele>3.808</ele>
        <time>2016-04-27T19:33:57Z</time>
      </trkpt>
      <trkpt lat="47.7984" lon="-4.29464">
        <ele>0.808</ele>
        <time>2016-04-27T19:33:37Z</time>
      </trkpt>
      <trkpt lat="47.79869" lon="-4.29526">
        <ele>-0.426</ele>
        <time>2016-04-27T19:33:17Z</time>
      </trkpt>
      <trkpt lat="47.79918" lon="-4.29562">
        <ele>3.825</ele>
        <time>2016-04-27T19:32:57Z</time>
      </trkpt>
      <trkpt lat="47.7996" lon="-4.29622">
        <ele>4.271</ele>
        <time>2016-04-27T19:32:37Z</time>
      </trkpt>
      <trkpt lat="47.80025" lon="-4.29749">
        <ele>5.953</ele>
        <time>2016-04-27T19:32:17Z</time>
      </trkpt>
      <trkpt lat="47.80048" lon="-4.29876">
        <ele>3.458</ele>
        <time>2016-04-27T19:31:57Z</time>
      </trkpt>
      <trkpt lat="47.80078" lon="-4.29925">
        <ele>5.367</ele>
        <time>2016-04-27T19:31:37Z</time>
      </trkpt>
      <trkpt lat="47.80085" lon="-4.29996">
        <ele>3.294</ele>
        <time>2016-04-27T19:31:17Z</time>
      </trkpt>
      <trkpt lat="47.80097" lon="-4.30067">
        <ele>2.517</ele>
        <time>2016-04-27T19:30:17Z</time>
      </trkpt>
      <trkpt lat="47.80097" lon="-4.3014">
        <ele>4.075</ele>
        <time>2016-04-27T19:29:57Z</time>
      </trkpt>
      <trkpt lat="47.80128" lon="-4.30262">
        <ele>5.619</ele>
        <time>2016-04-27T19:29:37Z</time>
      </trkpt>
      <trkpt lat="47.80125" lon="-4.30367">
        <ele>5.408</ele>
        <time>2016-04-27T19:29:17Z</time>
      </trkpt>
      <trkpt lat="47.80141" lon="-4.30491">
        <ele>5.117</ele>
        <time>2016-04-27T19:28:57Z</time>
      </trkpt>
      <trkpt lat="47.80136" lon="-4.30616">
        <ele>5.97</ele>
        <time>2016-04-27T19:28:37Z</time>
      </trkpt>
      <trkpt lat="47.80166" lon="-4.3074">
        <ele>8.338</ele>
        <time>2016-04-27T19:28:17Z</time>
      </trkpt>
      <trkpt lat="47.80143" lon="-4.30809">
        <ele>7.125</ele>
        <time>2016-04-27T19:27:57Z</time>
      </trkpt>
      <trkpt lat="47.80169" lon="-4.30903">
        <ele>5.597</ele>
        <time>2016-04-27T19:27:37Z</time>
      </trkpt>
      <trkpt lat="47.80164" lon="-4.30936">
        <ele>4.992</ele>
        <time>2016-04-27T19:27:17Z</time>
      </trkpt>
      <trkpt lat="47.80143" lon="-4.31071">
        <ele>5.061</ele>
        <time>2016-04-27T19:26:57Z</time>
      </trkpt>
      <trkpt lat="47.80088" lon="-4.31425">
        <ele>4.538</ele>
        <time>2016-04-27T19:26:37Z</time>
      </trkpt>
      <trkpt lat="47.80088" lon="-4.31556">
        <ele>5.041</ele>
        <time>2016-04-27T19:26:17Z</time>
      </trkpt>
      <trkpt lat="47.80051" lon="-4.31614">
        <ele>4.169</ele>
        <time>2016-04-27T19:25:57Z</time>
      </trkpt>
      <trkpt lat="47.80035" lon="-4.31689">
        <ele>4.273</ele>
        <time>2016-04-27T19:25:37Z</time>
      </trkpt>
      <trkpt lat="47.80029" lon="-4.31809">
        <ele>5.008</ele>
        <time>2016-04-27T19:25:17Z</time>
      </trkpt>
      <trkpt lat="47.79938" lon="-4.3209">
        <ele>2.126</ele>
        <time>2016-04-27T19:24:57Z</time>
      </trkpt>
      <trkpt lat="47.79928" lon="-4.32172">
        <ele>3.133</ele>
        <time>2016-04-27T19:24:37Z</time>
      </trkpt>
      <trkpt lat="47.79852" lon="-4.32332">
        <ele>2.778</ele>
        <time>2016-04-27T19:24:17Z</time>
      </trkpt>
      <trkpt lat="47.7983" lon="-4.32414">
        <ele>3.886</ele>
        <time>2016-04-27T19:23:57Z</time>
      </trkpt>
      <trkpt lat="47.79823" lon="-4.32521">
        <ele>4.648</ele>
        <time>2016-04-27T19:23:37Z</time>
      </trkpt>
      <trkpt lat="47.79847" lon="-4.32624">
        <ele>7.753</ele>
        <time>2016-04-27T19:23:17Z</time>
      </trkpt>
      <trkpt lat="47.7984" lon="-4.32783">
        <ele>6.272</ele>
        <time>2016-04-27T19:22:57Z</time>
      </trkpt>
      <trkpt lat="47.79908" lon="-4.33133">
        <ele>1.919</ele>
        <time>2016-04-27T19:22:37Z</time>
      </trkpt>
      <trkpt lat="47.79919" lon="-4.33206">
        <ele>3.992</ele>
        <time>2016-04-27T19:22:17Z</time>
      </trkpt>
      <trkpt lat="47.79915" lon="-4.33328">
        <ele>3.99</ele>
        <time>2016-04-27T19:21:57Z</time>
      </trkpt>
      <trkpt lat="47.79931" lon="-4.33427">
        <ele>3.114</ele>
        <time>2016-04-27T19:21:37Z</time>
      </trkpt>
      <trkpt lat="47.79932" lon="-4.33637">
        <ele>2.008</ele>
        <time>2016-04-27T19:21:17Z</time>
      </trkpt>
      <trkpt lat="47.79947" lon="-4.33669">
        <ele>2.017</ele>
        <time>2016-04-27T19:20:57Z</time>
      </trkpt>
      <trkpt lat="47.79945" lon="-4.33969">
        <ele>3.007</ele>
        <time>2016-04-27T19:20:37Z</time>
      </trkpt>
      <trkpt lat="47.80001" lon="-4.3417">
        <ele>4.284</ele>
        <time>2016-04-27T19:20:17Z</time>
      </trkpt>
      <trkpt lat="47.80013" lon="-4.34493">
        <ele>1.437</ele>
        <time>2016-04-27T19:19:57Z</time>
      </trkpt>
      <trkpt lat="47.79993" lon="-4.34648">
        <ele>3.569</ele>
        <time>2016-04-27T19:19:37Z</time>
      </trkpt>
      <trkpt lat="47.79951" lon="-4.34794">
        <ele>2.774</ele>
        <time>2016-04-27T19:19:17Z</time>
      </trkpt>
      <trkpt lat="47.79932" lon="-4.34899">
        <ele>5.273</ele>
        <time>2016-04-27T19:18:57Z</time>
      </trkpt>
      <trkpt lat="47.79878" lon="-4.34982">
        <ele>4.47</ele>
        <time>2016-04-27T19:18:37Z</time>
      </trkpt>
      <trkpt lat="47.79844" lon="-4.34965">
        <ele>4.933</ele>
        <time>2016-04-27T19:18:17Z</time>
      </trkpt>
      <trkpt lat="47.7981" lon="-4.35051">
        <ele>1.321</ele>
        <time>2016-04-27T19:17:57Z</time>
      </trkpt>
      <trkpt lat="47.79742" lon="-4.35358">
        <ele>3.735</ele>
        <time>2016-04-27T19:17:37Z</time>
      </trkpt>
      <trkpt lat="47.79729" lon="-4.35517">
        <ele>4.008</ele>
        <time>2016-04-27T19:17:17Z</time>
      </trkpt>
      <trkpt lat="47.79711" lon="-4.35556">
        <ele>3.221</ele>
        <time>2016-04-27T19:16:57Z</time>
      </trkpt>
      <trkpt lat="47.79702" lon="-4.35622">
        <ele>4.465</ele>
        <time>2016-04-27T19:16:37Z</time>
      </trkpt>
      <trkpt lat="47.79682" lon="-4.3568">
        <ele>4.393</ele>
        <time>2016-04-27T19:16:17Z</time>
      </trkpt>
      <trkpt lat="47.79679" lon="-4.36002">
        <ele>3.857</ele>
        <time>2016-04-27T19:15:57Z</time>
      </trkpt>
      <trkpt lat="47.79707" lon="-4.36088">
        <ele>3.049</ele>
        <time>2016-04-27T19:15:37Z</time>
      </trkpt>
      <trkpt lat="47.79716" lon="-4.3615">
        <ele>4.994</ele>
        <time>2016-04-27T19:15:17Z</time>
      </trkpt>
      <trkpt lat="47.79667" lon="-4.36195">
        <ele>6.033</ele>
        <time>2016-04-27T19:14:57Z</time>
      </trkpt>
      <trkpt lat="47.79631" lon="-4.36191">
        <ele>3.32</ele>
        <time>2016-04-27T19:14:37Z</time>
      </trkpt>
      <trkpt lat="47.79598" lon="-4.36253">
        <ele>4.213</ele>
        <time>2016-04-27T19:14:17Z</time>
      </trkpt>
      <trkpt lat="47.79582" lon="-4.36328">
        <ele>4.951</ele>
        <time>2016-04-27T19:13:57Z</time>
      </trkpt>
      <trkpt lat="47.79612" lon="-4.36431">
        <ele>4.045</ele>
        <time>2016-04-27T19:13:37Z</time>
      </trkpt>
      <trkpt lat="47.79618" lon="-4.36579">
        <ele>4.408</ele>
        <time>2016-04-27T19:13:17Z</time>
      </trkpt>
      <trkpt lat="47.79609" lon="-4.36639">
        <ele>2.922</ele>
        <time>2016-04-27T19:12:57Z</time>
      </trkpt>
      <trkpt lat="47.7963" lon="-4.36718">
        <ele>2.357</ele>
        <time>2016-04-27T19:12:37Z</time>
      </trkpt>
      <trkpt lat="47.7963" lon="-4.36811">
        <ele>2.894</ele>
        <time>2016-04-27T19:11:37Z</time>
      </trkpt>
      <trkpt lat="47.797" lon="-4.36969">
        <ele>2.734</ele>
        <time>2016-04-27T19:11:17Z</time>
      </trkpt>
      <trkpt lat="47.79729" lon="-4.37032">
        <ele>3.346</ele>
        <time>2016-04-27T19:10:57Z</time>
      </trkpt>
      <trkpt lat="47.79744" lon="-4.37154">
        <ele>3.271</ele>
        <time>2016-04-27T19:10:37Z</time>
      </trkpt>
      <trkpt lat="47.79781" lon="-4.37274">
        <ele>6.11</ele>
        <time>2016-04-27T19:10:17Z</time>
      </trkpt>
      <trkpt lat="47.79774" lon="-4.37321">
        <ele>4.947</ele>
        <time>2016-04-27T19:09:57Z</time>
      </trkpt>
      <trkpt lat="47.79797" lon="-4.37341">
        <ele>4.71</ele>
        <time>2016-04-27T19:09:37Z</time>
      </trkpt>
      <trkpt lat="47.79778" lon="-4.37396">
        <ele>3.758</ele>
        <time>2016-04-27T19:09:17Z</time>
      </trkpt>
      <trkpt lat="47.79814" lon="-4.3742">
        <ele>3.042</ele>
        <time>2016-04-27T19:08:57Z</time>
      </trkpt>
      <trkpt lat="47.79844" lon="-4.37373">
        <ele>3.608</ele>
        <time>2016-04-27T19:08:37Z</time>
      </trkpt>
      <trkpt lat="47.79899" lon="-4.37349">
        <ele>2.019</ele>
        <time>2016-04-27T19:08:17Z</time>
      </trkpt>
      <trkpt lat="47.79958" lon="-4.3736">
        <ele>1.081</ele>
        <time>2016-04-27T19:07:57Z</time>
      </trkpt>
      <trkpt lat="47.80019" lon="-4.37399">
        <ele>1.867</ele>
        <time>2016-04-27T19:07:37Z</time>
      </trkpt>
      <trkpt lat="47.80173" lon="-4.37394">
        <ele>2.457</ele>
        <time>2016-04-27T19:07:17Z</time>
      </trkpt>
      <trkpt lat="47.80343" lon="-4.37459">
        <ele>1.799</ele>
        <time>2016-04-27T19:06:57Z</time>
      </trkpt>
      <trkpt lat="47.80407" lon="-4.37446">
        <ele>2.654</ele>
        <time>2016-04-27T19:06:37Z</time>
      </trkpt>
      <trkpt lat="47.80506" lon="-4.37364">
        <ele>2.073</ele>
        <time>2016-04-27T19:06:17Z</time>
      </trkpt>
      <trkpt lat="47.80528" lon="-4.37298">
        <ele>2.32</ele>
        <time>2016-04-27T19:05:57Z</time>
      </trkpt>
      <trkpt lat="47.80581" lon="-4.37281">
        <ele>2.943</ele>
        <time>2016-04-27T19:05:37Z</time>
      </trkpt>
      <trkpt lat="47.80608" lon="-4.37304">
        <ele>1.951</ele>
        <time>2016-04-27T19:05:17Z</time>
      </trkpt>
      <trkpt lat="47.80626" lon="-4.37257">
        <ele>3.285</ele>
        <time>2016-04-27T19:04:57Z</time>
      </trkpt>
      <trkpt lat="47.8069" lon="-4.37231">
        <ele>1.008</ele>
        <time>2016-04-27T19:04:37Z</time>
      </trkpt>
      <trkpt lat="47.80763" lon="-4.37158">
        <ele>2.521</ele>
        <time>2016-04-27T19:04:17Z</time>
      </trkpt>
      <trkpt lat="47.80914" lon="-4.37135">
        <ele>2.965</ele>
        <time>2016-04-27T19:03:57Z</time>
      </trkpt>
      <trkpt lat="47.81025" lon="-4.37163">
        <ele>4.993</ele>
        <time>2016-04-27T19:03:37Z</time>
      </trkpt>
      <trkpt lat="47.81157" lon="-4.37261">
        <ele>3.754</ele>
        <time>2016-04-27T19:03:17Z</time>
      </trkpt>
      <trkpt lat="47.81319" lon="-4.37491">
        <ele>1.246</ele>
        <time>2016-04-27T19:02:57Z</time>
      </trkpt>
      <trkpt lat="47.81443" lon="-4.37465">
        <ele>1.061</ele>
        <time>2016-04-27T19:02:37Z</time>
      </trkpt>
      <trkpt lat="47.81587" lon="-4.37517">
        <ele>6.13</ele>
        <time>2016-04-27T19:02:17Z</time>
      </trkpt>
      <trkpt lat="47.81585" lon="-4.37568">
        <ele>7.017</ele>
        <time>2016-04-27T19:01:57Z</time>
      </trkpt>
      <trkpt lat="47.81693" lon="-4.37667">
        <ele>3.08</ele>
        <time>2016-04-27T19:01:37Z</time>
      </trkpt>
      <trkpt lat="47.81708" lon="-4.37654">
        <ele>4.418</ele>
        <time>2016-04-27T19:01:17Z</time>
      </trkpt>
      <trkpt lat="47.81738" lon="-4.37738">
        <ele>3.482</ele>
        <time>2016-04-27T19:00:57Z</time>
      </trkpt>
      <trkpt lat="47.8176" lon="-4.37771">
        <ele>5.108</ele>
        <time>2016-04-27T19:00:37Z</time>
      </trkpt>
      <trkpt lat="47.81684" lon="-4.37926">
        <ele>3.418</ele>
        <time>2016-04-27T19:00:17Z</time>
      </trkpt>
      <trkpt lat="47.81734" lon="-4.37978">
        <ele>6.644</ele>
        <time>2016-04-27T18:59:57Z</time>
      </trkpt>
      <trkpt lat="47.81764" lon="-4.37978">
        <ele>6.063</ele>
        <time>2016-04-27T18:59:37Z</time>
      </trkpt>
      <trkpt lat="47.81763" lon="-4.38006">
        <ele>5.962</ele>
        <time>2016-04-27T18:59:17Z</time>
      </trkpt>
      <trkpt lat="47.81779" lon="-4.38025">
        <ele>5.174</ele>
        <time>2016-04-27T18:58:57Z</time>
      </trkpt>
      <trkpt lat="47.81937" lon="-4.38025">
        <ele>6.139</ele>
        <time>2016-04-27T18:58:37Z</time>
      </trkpt>
      <trkpt lat="47.82081" lon="-4.37969">
        <ele>6.368</ele>
        <time>2016-04-27T18:58:17Z</time>
      </trkpt>
      <trkpt lat="47.82098" lon="-4.37944">
        <ele>8.175</ele>
        <time>2016-04-27T18:57:57Z</time>
      </trkpt>
      <trkpt lat="47.82136" lon="-4.37944">
        <ele>9.148</ele>
        <time>2016-04-27T18:57:37Z</time>
      </trkpt>
      <trkpt lat="47.82169" lon="-4.37875">
        <ele>8.566</ele>
        <time>2016-04-27T18:57:17Z</time>
      </trkpt>
      <trkpt lat="47.82136" lon="-4.37811">
        <ele>9.49</ele>
        <time>2020-12-18T16:55:11Z</time>
      </trkpt>
      <trkpt lat="47.82145" lon="-4.37752">
        <ele>6.708</ele>
        <time>2020-12-18T16:54:51Z</time>
      </trkpt>
      <trkpt lat="47.82176" lon="-4.37714">
        <ele>6.309</ele>
        <time>2016-04-27T18:56:17Z</time>
      </trkpt>
      <trkpt lat="47.82303" lon="-4.37638">
        <ele>5.281</ele>
        <time>2020-12-18T16:54:11Z</time>
      </trkpt>
      <trkpt lat="47.82324" lon="-4.37591">
        <ele>7.841</ele>
        <time>2020-12-18T16:53:51Z</time>
      </trkpt>
      <trkpt lat="47.8239" lon="-4.37506">
        <ele>6.98</ele>
        <time>2020-12-18T16:53:31Z</time>
      </trkpt>
      <trkpt lat="47.82433" lon="-4.37398">
        <ele>5.052</ele>
        <time>2020-12-18T16:53:11Z</time>
      </trkpt>
      <trkpt lat="47.82456" lon="-4.373">
        <ele>5.437</ele>
        <time>2016-04-27T18:54:37Z</time>
      </trkpt>
      <trkpt lat="47.82542" lon="-4.37167">
        <ele>4.056</ele>
        <time>2016-04-27T18:54:17Z</time>
      </trkpt>
      <trkpt lat="47.82548" lon="-4.37122">
        <ele>4.673</ele>
        <time>2016-04-27T18:53:57Z</time>
      </trkpt>
      <trkpt lat="47.82528" lon="-4.37038">
        <ele>4.186</ele>
        <time>2016-04-27T18:53:37Z</time>
      </trkpt>
      <trkpt lat="47.8249" lon="-4.36995">
        <ele>4.484</ele>
        <time>2016-04-27T18:52:17Z</time>
      </trkpt>
      <trkpt lat="47.8247" lon="-4.36937">
        <ele>5.318</ele>
        <time>2016-04-27T18:51:37Z</time>
      </trkpt>
      <trkpt lat="47.82453" lon="-4.36909">
        <ele>6.908</ele>
        <time>2016-04-27T18:50:57Z</time>
      </trkpt>
      <trkpt lat="47.82477" lon="-4.36753">
        <ele>5.605</ele>
        <time>2016-04-27T18:50:37Z</time>
      </trkpt>
      <trkpt lat="47.82503" lon="-4.36733">
        <ele>5.241</ele>
        <time>2016-04-27T18:50:17Z</time>
      </trkpt>
      <trkpt lat="47.82548" lon="-4.36742">
        <ele>4.421</ele>
        <time>2016-04-27T18:49:57Z</time>
      </trkpt>
      <trkpt lat="47.82571" lon="-4.36714">
        <ele>5.313</ele>
        <time>2016-04-27T18:49:37Z</time>
      </trkpt>
      <trkpt lat="47.82601" lon="-4.36693">
        <ele>7.275</ele>
        <time>2016-04-27T18:49:17Z</time>
      </trkpt>
      <trkpt lat="47.82736" lon="-4.36671">
        <ele>4.84</ele>
        <time>2016-04-27T18:48:57Z</time>
      </trkpt>
      <trkpt lat="47.82784" lon="-4.36622">
        <ele>5.829</ele>
        <time>2016-04-27T18:48:37Z</time>
      </trkpt>
      <trkpt lat="47.82804" lon="-4.36579">
        <ele>4.136</ele>
        <time>2016-04-27T18:48:17Z</time>
      </trkpt>
      <trkpt lat="47.82797" lon="-4.36429">
        <ele>4.619</ele>
        <time>2020-12-18T16:47:51Z</time>
      </trkpt>
      <trkpt lat="47.82819" lon="-4.36285">
        <ele>2.067</ele>
        <time>2016-04-27T18:47:17Z</time>
      </trkpt>
      <trkpt lat="47.82712" lon="-4.36324">
        <ele>4.471</ele>
        <time>2016-04-27T18:46:57Z</time>
      </trkpt>
      <trkpt lat="47.82633" lon="-4.36235">
        <ele>5.008</ele>
        <time>2020-12-18T16:46:51Z</time>
      </trkpt>
      <trkpt lat="47.82585" lon="-4.36133">
        <ele>5.814</ele>
        <time>2016-04-27T18:46:17Z</time>
      </trkpt>
      <trkpt lat="47.82574" lon="-4.36049">
        <ele>4.559</ele>
        <time>2016-04-27T18:45:57Z</time>
      </trkpt>
      <trkpt lat="47.82603" lon="-4.35871">
        <ele>4.156</ele>
        <time>2016-04-27T18:45:37Z</time>
      </trkpt>
      <trkpt lat="47.82581" lon="-4.35849">
        <ele>4.792</ele>
        <time>2016-04-27T18:45:17Z</time>
      </trkpt>
      <trkpt lat="47.82568" lon="-4.35804">
        <ele>4.054</ele>
        <time>2016-04-27T18:44:57Z</time>
      </trkpt>
      <trkpt lat="47.82545" lon="-4.35774">
        <ele>4.419</ele>
        <time>2020-12-18T16:44:51Z</time>
      </trkpt>
      <trkpt lat="47.82545" lon="-4.35721">
        <ele>4.458</ele>
        <time>2020-12-18T16:44:31Z</time>
      </trkpt>
      <trkpt lat="47.82542" lon="-4.35661">
        <ele>5.565</ele>
        <time>2020-12-18T16:44:11Z</time>
      </trkpt>
      <trkpt lat="47.82594" lon="-4.35547">
        <ele>4.338</ele>
        <time>2016-04-27T18:43:37Z</time>
      </trkpt>
      <trkpt lat="47.82654" lon="-4.35435">
        <ele>4.586</ele>
        <time>2016-04-27T18:43:17Z</time>
      </trkpt>
      <trkpt lat="47.82712" lon="-4.35279">
        <ele>4.62</ele>
        <time>2016-04-27T18:42:57Z</time>
      </trkpt>
      <trkpt lat="47.82787" lon="-4.35045">
        <ele>7.308</ele>
        <time>2016-04-27T18:42:37Z</time>
      </trkpt>
      <trkpt lat="47.82961" lon="-4.34871">
        <ele>7.51</ele>
        <time>2016-04-27T18:42:17Z</time>
      </trkpt>
      <trkpt lat="47.82999" lon="-4.34807">
        <ele>8.164</ele>
        <time>2016-04-27T18:41:57Z</time>
      </trkpt>
      <trkpt lat="47.83216" lon="-4.34753">
        <ele>4.543</ele>
        <time>2016-04-27T18:41:37Z</time>
      </trkpt>
      <trkpt lat="47.83316" lon="-4.34648">
        <ele>7.122</ele>
        <time>2016-04-27T18:41:17Z</time>
      </trkpt>
      <trkpt lat="47.83365" lon="-4.34663">
        <ele>6.114</ele>
        <time>2016-04-27T18:40:57Z</time>
      </trkpt>
      <trkpt lat="47.83533" lon="-4.34667">
        <ele>1.339</ele>
        <time>2016-04-27T18:40:37Z</time>
      </trkpt>
      <trkpt lat="47.83592" lon="-4.34777">
        <ele>4.778</ele>
        <time>2016-04-27T18:40:17Z</time>
      </trkpt>
      <trkpt lat="47.83666" lon="-4.34854">
        <ele>4.795</ele>
        <time>2016-04-27T18:39:57Z</time>
      </trkpt>
      <trkpt lat="47.83712" lon="-4.3486">
        <ele>3.418</ele>
        <time>2016-04-27T18:39:37Z</time>
      </trkpt>
      <trkpt lat="47.83728" lon="-4.34558">
        <ele>6.096</ele>
        <time>2016-04-27T18:39:17Z</time>
      </trkpt>
      <trkpt lat="47.83847" lon="-4.34465">
        <ele>6.19</ele>
        <time>2016-04-27T18:38:57Z</time>
      </trkpt>
      <trkpt lat="47.8403" lon="-4.34431">
        <ele>6.908</ele>
        <time>2020-12-18T16:38:51Z</time>
      </trkpt>
      <trkpt lat="47.84044" lon="-4.34337">
        <ele>7.614</ele>
        <time>2020-12-18T16:38:31Z</time>
      </trkpt>
      <trkpt lat="47.84095" lon="-4.34247">
        <ele>7.022</ele>
        <time>2020-12-18T16:38:11Z</time>
      </trkpt>
      <trkpt lat="47.84137" lon="-4.34298">
        <ele>6.042</ele>
        <time>2020-12-18T16:37:51Z</time>
      </trkpt>
      <trkpt lat="47.84153" lon="-4.34363">
        <ele>8.065</ele>
        <time>2020-12-18T16:37:31Z</time>
      </trkpt>
      <trkpt lat="47.84183" lon="-4.34337">
        <ele>6.517</ele>
        <time>2016-04-27T18:38:17Z</time>
      </trkpt>
      <trkpt lat="47.84308" lon="-4.34277">
        <ele>4.032</ele>
        <time>2016-04-27T18:37:57Z</time>
      </trkpt>
      <trkpt lat="47.84487" lon="-4.34244">
        <ele>6.881</ele>
        <time>2016-04-27T18:37:37Z</time>
      </trkpt>
      <trkpt lat="47.84704" lon="-4.34249">
        <ele>5.258</ele>
        <time>2016-04-27T18:37:17Z</time>
      </trkpt>
      <trkpt lat="47.84858" lon="-4.343">
        <ele>4.981</ele>
        <time>2016-04-27T18:36:57Z</time>
      </trkpt>
      <trkpt lat="47.85078" lon="-4.34362">
        <ele>7.839</ele>
        <time>2016-04-27T18:36:37Z</time>
      </trkpt>
      <trkpt lat="47.85097" lon="-4.34225">
        <ele>7.043</ele>
        <time>2016-04-27T18:36:17Z</time>
      </trkpt>
      <trkpt lat="47.85155" lon="-4.34214">
        <ele>6.108</ele>
        <time>2016-04-27T18:35:57Z</time>
      </trkpt>
      <trkpt lat="47.85314" lon="-4.34032">
        <ele>7.013</ele>
        <time>2016-04-27T18:35:37Z</time>
      </trkpt>
      <trkpt lat="47.8532" lon="-4.3385">
        <ele>9.485</ele>
        <time>2016-04-27T18:34:37Z</time>
      </trkpt>
      <trkpt lat="47.85317" lon="-4.33691">
        <ele>10.073</ele>
        <time>2016-04-27T18:34:17Z</time>
      </trkpt>
      <trkpt lat="47.85403" lon="-4.33749">
        <ele>10.021</ele>
        <time>2016-04-27T18:33:57Z</time>
      </trkpt>
      <trkpt lat="47.85408" lon="-4.33688">
        <ele>11.053</ele>
        <time>2016-04-27T18:33:37Z</time>
      </trkpt>
      <trkpt lat="47.85483" lon="-4.33714">
        <ele>8.328</ele>
        <time>2016-04-27T18:33:17Z</time>
      </trkpt>
      <trkpt lat="47.8582" lon="-4.33609">
        <ele>10.657</ele>
        <time>2016-04-27T18:32:57Z</time>
      </trkpt>
      <trkpt lat="47.85865" lon="-4.3352">
        <ele>13.954</ele>
        <time>2016-04-27T18:32:37Z</time>
      </trkpt>
      <trkpt lat="47.86002" lon="-4.33441">
        <ele>15.077</ele>
        <time>2016-04-27T18:32:17Z</time>
      </trkpt>
      <trkpt lat="47.86029" lon="-4.33244">
        <ele>17.255</ele>
        <time>2016-04-27T18:31:57Z</time>
      </trkpt>
      <trkpt lat="47.86262" lon="-4.33472">
        <ele>10.479</ele>
        <time>2016-04-27T18:31:37Z</time>
      </trkpt>
      <trkpt lat="47.86386" lon="-4.33574">
        <ele>7.308</ele>
        <time>2016-04-27T18:31:17Z</time>
      </trkpt>
      <trkpt lat="47.86414" lon="-4.33574">
        <ele>7.714</ele>
        <time>2016-04-27T18:30:57Z</time>
      </trkpt>
      <trkpt lat="47.86422" lon="-4.3353">
        <ele>8.886</ele>
        <time>2016-04-27T18:30:37Z</time>
      </trkpt>
      <trkpt lat="47.86485" lon="-4.33259">
        <ele>8.035</ele>
        <time>2016-04-27T18:30:17Z</time>
      </trkpt>
      <trkpt lat="47.86528" lon="-4.33212">
        <ele>8.094</ele>
        <time>2016-04-27T18:29:57Z</time>
      </trkpt>
      <trkpt lat="47.86553" lon="-4.33165">
        <ele>8.146</ele>
        <time>2016-04-27T18:28:17Z</time>
      </trkpt>
      <trkpt lat="47.86583" lon="-4.33051">
        <ele>8.881</ele>
        <time>2016-04-27T18:27:57Z</time>
      </trkpt>
      <trkpt lat="47.8678" lon="-4.32824">
        <ele>10.63</ele>
        <time>2016-04-27T18:26:57Z</time>
      </trkpt>
      <trkpt lat="47.86819" lon="-4.32723">
        <ele>10.577</ele>
        <time>2016-04-27T18:26:37Z</time>
      </trkpt>
      <trkpt lat="47.86826" lon="-4.32667">
        <ele>10.75</ele>
        <time>2016-04-27T18:25:37Z</time>
      </trkpt>
      <trkpt lat="47.86796" lon="-4.32609">
        <ele>12.088</ele>
        <time>2016-04-27T18:25:17Z</time>
      </trkpt>
      <trkpt lat="47.86771" lon="-4.32532">
        <ele>13.212</ele>
        <time>2016-04-27T18:24:57Z</time>
      </trkpt>
      <trkpt lat="47.86776" lon="-4.32481">
        <ele>13.108</ele>
        <time>2016-04-27T18:24:37Z</time>
      </trkpt>
      <trkpt lat="47.86773" lon="-4.32418">
        <ele>14.016</ele>
        <time>2016-04-27T18:24:17Z</time>
      </trkpt>
      <trkpt lat="47.86795" lon="-4.32322">
        <ele>12.706</ele>
        <time>2016-04-27T18:23:57Z</time>
      </trkpt>
      <trkpt lat="47.86846" lon="-4.32234">
        <ele>15.564</ele>
        <time>2016-04-27T18:23:37Z</time>
      </trkpt>
      <trkpt lat="47.86862" lon="-4.32191">
        <ele>15.976</ele>
        <time>2016-04-27T18:23:17Z</time>
      </trkpt>
      <trkpt lat="47.86913" lon="-4.32204">
        <ele>15.238</ele>
        <time>2016-04-27T18:22:57Z</time>
      </trkpt>
      <trkpt lat="47.86959" lon="-4.32191">
        <ele>15.073</ele>
        <time>2016-04-27T18:22:37Z</time>
      </trkpt>
      <trkpt lat="47.86999" lon="-4.32137">
        <ele>15.122</ele>
        <time>2016-04-27T18:22:17Z</time>
      </trkpt>
      <trkpt lat="47.8718" lon="-4.31727">
        <ele>17.319</ele>
        <time>2016-04-27T18:21:57Z</time>
      </trkpt>
      <trkpt lat="47.87185" lon="-4.31663">
        <ele>17.472</ele>
        <time>2016-04-27T18:21:37Z</time>
      </trkpt>
      <trkpt lat="47.87324" lon="-4.31747">
        <ele>6.72</ele>
        <time>2016-04-27T18:21:17Z</time>
      </trkpt>
      <trkpt lat="47.87388" lon="-4.31775">
        <ele>5.924</ele>
        <time>2016-04-27T18:20:57Z</time>
      </trkpt>
      <trkpt lat="47.87462" lon="-4.31749">
        <ele>10.908</ele>
        <time>2016-04-27T18:20:37Z</time>
      </trkpt>
      <trkpt lat="47.87493" lon="-4.31815">
        <ele>13.626</ele>
        <time>2016-04-27T18:20:17Z</time>
      </trkpt>
      <trkpt lat="47.87642" lon="-4.32008">
        <ele>27.242</ele>
        <time>2016-04-27T18:19:57Z</time>
      </trkpt>
      <trkpt lat="47.87557" lon="-4.32146">
        <ele>21.487</ele>
        <time>2016-04-27T18:19:37Z</time>
      </trkpt>
      <trkpt lat="47.87236" lon="-4.32837">
        <ele>20.756</ele>
        <time>2016-04-27T18:19:17Z</time>
      </trkpt>
      <trkpt lat="47.87211" lon="-4.32888">
        <ele>24.088</ele>
        <time>2020-12-18T16:21:11Z</time>
      </trkpt>
      <trkpt lat="47.87085" lon="-4.32769">
        <ele>9.863</ele>
        <time>2020-12-18T16:20:51Z</time>
      </trkpt>
      <trkpt lat="47.87067" lon="-4.32858">
        <ele>10.432</ele>
        <time>2020-12-18T16:20:31Z</time>
      </trkpt>
      <trkpt lat="47.87014" lon="-4.32992">
        <ele>10.279</ele>
        <time>2020-12-18T16:20:11Z</time>
      </trkpt>
      <trkpt lat="47.86978" lon="-4.33032">
        <ele>10.272</ele>
        <time>2020-12-18T16:19:51Z</time>
      </trkpt>
      <trkpt lat="47.86928" lon="-4.3314">
        <ele>8.46</ele>
        <time>2020-12-18T16:19:31Z</time>
      </trkpt>
      <trkpt lat="47.86898" lon="-4.33254">
        <ele>8.464</ele>
        <time>2020-12-18T16:19:11Z</time>
      </trkpt>
      <trkpt lat="47.86855" lon="-4.33346">
        <ele>6.908</ele>
        <time>2020-12-18T16:18:51Z</time>
      </trkpt>
      <trkpt lat="47.8685" lon="-4.33424">
        <ele>7.117</ele>
        <time>2020-12-18T16:18:31Z</time>
      </trkpt>
      <trkpt lat="47.86864" lon="-4.3354">
        <ele>7.289</ele>
        <time>2020-12-18T16:18:11Z</time>
      </trkpt>
      <trkpt lat="47.86867" lon="-4.33695">
        <ele>7.085</ele>
        <time>2020-12-18T16:17:51Z</time>
      </trkpt>
      <trkpt lat="47.86861" lon="-4.33835">
        <ele>9.046</ele>
        <time>2020-12-18T16:17:31Z</time>
      </trkpt>
      <trkpt lat="47.86932" lon="-4.33836">
        <ele>11.598</ele>
        <time>2020-12-18T16:17:11Z</time>
      </trkpt>
      <trkpt lat="47.86943" lon="-4.33849">
        <ele>12.013</ele>
        <time>2020-12-18T16:16:51Z</time>
      </trkpt>
      <trkpt lat="47.86992" lon="-4.33802">
        <ele>12.082</ele>
        <time>2016-04-27T18:15:17Z</time>
      </trkpt>
      <trkpt lat="47.87251" lon="-4.33816">
        <ele>14.099</ele>
        <time>2016-04-27T18:14:57Z</time>
      </trkpt>
      <trkpt lat="47.87223" lon="-4.33916">
        <ele>13.032</ele>
        <time>2016-04-27T18:14:37Z</time>
      </trkpt>
      <trkpt lat="47.87171" lon="-4.34008">
        <ele>10.34</ele>
        <time>2016-04-27T18:14:17Z</time>
      </trkpt>
      <trkpt lat="47.87148" lon="-4.34092">
        <ele>8.364</ele>
        <time>2016-04-27T18:13:57Z</time>
      </trkpt>
      <trkpt lat="47.87133" lon="-4.34094">
        <ele>8.008</ele>
        <time>2016-04-27T18:13:37Z</time>
      </trkpt>
      <trkpt lat="47.87114" lon="-4.34134">
        <ele>8.017</ele>
        <time>2016-04-27T18:13:17Z</time>
      </trkpt>
      <trkpt lat="47.86975" lon="-4.34079">
        <ele>10.125</ele>
        <time>2016-04-27T18:12:57Z</time>
      </trkpt>
      <trkpt lat="47.86857" lon="-4.34271">
        <ele>6.083</ele>
        <time>2016-04-27T18:11:37Z</time>
      </trkpt>
      <trkpt lat="47.8712" lon="-4.3493">
        <ele>5.215</ele>
        <time>2020-12-18T16:13:31Z</time>
      </trkpt>
      <trkpt lat="47.8739" lon="-4.35225">
        <ele>5.057</ele>
        <time>2020-12-18T16:13:11Z</time>
      </trkpt>
      <trkpt lat="47.87439" lon="-4.35137">
        <ele>4.132</ele>
        <time>2016-04-27T18:08:17Z</time>
      </trkpt>
      <trkpt lat="47.87474" lon="-4.35182">
        <ele>5.051</ele>
        <time>2016-04-27T18:07:57Z</time>
      </trkpt>
      <trkpt lat="47.87566" lon="-4.35206">
        <ele>4.278</ele>
        <time>2016-04-27T18:07:37Z</time>
      </trkpt>
      <trkpt lat="47.87631" lon="-4.35234">
        <ele>5.611</ele>
        <time>2016-04-27T18:07:17Z</time>
      </trkpt>
      <trkpt lat="47.87779" lon="-4.35266">
        <ele>7.699</ele>
        <time>2016-04-27T18:06:57Z</time>
      </trkpt>
      <trkpt lat="47.87924" lon="-4.35266">
        <ele>6.323</ele>
        <time>2016-04-27T18:06:37Z</time>
      </trkpt>
      <trkpt lat="47.87986" lon="-4.35281">
        <ele>6.008</ele>
        <time>2016-04-27T18:06:17Z</time>
      </trkpt>
      <trkpt lat="47.88205" lon="-4.35208">
        <ele>7.325</ele>
        <time>2016-04-27T18:05:57Z</time>
      </trkpt>
      <trkpt lat="47.88311" lon="-4.35161">
        <ele>6.005</ele>
        <time>2016-04-27T18:05:37Z</time>
      </trkpt>
      <trkpt lat="47.88386" lon="-4.35146">
        <ele>6.279</ele>
        <time>2016-04-27T18:05:17Z</time>
      </trkpt>
      <trkpt lat="47.88461" lon="-4.35098">
        <ele>5.551</ele>
        <time>2016-04-27T18:04:57Z</time>
      </trkpt>
      <trkpt lat="47.88527" lon="-4.35002">
        <ele>6.073</ele>
        <time>2016-04-27T18:04:37Z</time>
      </trkpt>
      <trkpt lat="47.88546" lon="-4.34946">
        <ele>6.068</ele>
        <time>2016-04-27T18:04:17Z</time>
      </trkpt>
      <trkpt lat="47.88694" lon="-4.35043">
        <ele>8.047</ele>
        <time>2016-04-27T18:03:57Z</time>
      </trkpt>
      <trkpt lat="47.88788" lon="-4.3524">
        <ele>4.614</ele>
        <time>2016-04-27T18:03:37Z</time>
      </trkpt>
      <trkpt lat="47.88843" lon="-4.35291">
        <ele>4.547</ele>
        <time>2020-12-18T16:07:51Z</time>
      </trkpt>
      <trkpt lat="47.88852" lon="-4.35274">
        <ele>4.185</ele>
        <time>2020-12-18T16:07:31Z</time>
      </trkpt>
      <trkpt lat="47.88884" lon="-4.35295">
        <ele>4.649</ele>
        <time>2020-12-18T16:07:11Z</time>
      </trkpt>
      <trkpt lat="47.88937" lon="-4.35265">
        <ele>4.108</ele>
        <time>2020-12-18T16:06:51Z</time>
      </trkpt>
      <trkpt lat="47.88952" lon="-4.35233">
        <ele>6.115</ele>
        <time>2020-12-18T16:06:31Z</time>
      </trkpt>
      <trkpt lat="47.88977" lon="-4.35229">
        <ele>5.723</ele>
        <time>2020-12-18T16:06:11Z</time>
      </trkpt>
      <trkpt lat="47.88985" lon="-4.35199">
        <ele>6.533</ele>
        <time>2016-04-27T18:02:57Z</time>
      </trkpt>
      <trkpt lat="47.89017" lon="-4.35173">
        <ele>6.859</ele>
        <time>2016-04-27T18:02:37Z</time>
      </trkpt>
      <trkpt lat="47.8905" lon="-4.35122">
        <ele>6.461</ele>
        <time>2016-04-27T18:02:17Z</time>
      </trkpt>
      <trkpt lat="47.89077" lon="-4.35019">
        <ele>8.616</ele>
        <time>2016-04-27T18:01:57Z</time>
      </trkpt>
      <trkpt lat="47.89089" lon="-4.3489">
        <ele>8.635</ele>
        <time>2016-04-27T18:01:37Z</time>
      </trkpt>
      <trkpt lat="47.89139" lon="-4.34759">
        <ele>9.382</ele>
        <time>2016-04-27T18:01:17Z</time>
      </trkpt>
      <trkpt lat="47.89211" lon="-4.34686">
        <ele>12.275</ele>
        <time>2016-04-27T18:00:57Z</time>
      </trkpt>
      <trkpt lat="47.89224" lon="-4.34665">
        <ele>13.063</ele>
        <time>2016-04-27T18:00:37Z</time>
      </trkpt>
      <trkpt lat="47.89274" lon="-4.34697">
        <ele>16.767</ele>
        <time>2016-04-27T18:00:17Z</time>
      </trkpt>
      <trkpt lat="47.89303" lon="-4.34671">
        <ele>18.008</ele>
        <time>2016-04-27T17:59:57Z</time>
      </trkpt>
      <trkpt lat="47.89463" lon="-4.34809">
        <ele>17.019</ele>
        <time>2016-04-27T17:59:37Z</time>
      </trkpt>
      <trkpt lat="47.89522" lon="-4.34736">
        <ele>16.709</ele>
        <time>2016-04-27T17:59:17Z</time>
      </trkpt>
      <trkpt lat="47.89578" lon="-4.34774">
        <ele>12.719</ele>
        <time>2016-04-27T17:58:57Z</time>
      </trkpt>
      <trkpt lat="47.89607" lon="-4.34781">
        <ele>10.125</ele>
        <time>2020-12-18T16:01:31Z</time>
      </trkpt>
      <trkpt lat="47.89619" lon="-4.34739">
        <ele>11.577</ele>
        <time>2020-12-18T16:01:11Z</time>
      </trkpt>
      <trkpt lat="47.89615" lon="-4.34666">
        <ele>15.342</ele>
        <time>2020-12-18T16:00:51Z</time>
      </trkpt>
      <trkpt lat="47.89625" lon="-4.346">
        <ele>15.551</ele>
        <time>2020-12-18T16:00:31Z</time>
      </trkpt>
      <trkpt lat="47.89617" lon="-4.34514">
        <ele>20.328</ele>
        <time>2020-12-18T16:00:11Z</time>
      </trkpt>
      <trkpt lat="47.89649" lon="-4.34439">
        <ele>18.091</ele>
        <time>2020-12-18T15:59:51Z</time>
      </trkpt>
      <trkpt lat="47.8967" lon="-4.34328">
        <ele>17.719</ele>
        <time>2020-12-18T15:59:31Z</time>
      </trkpt>
      <trkpt lat="47.89716" lon="-4.34208">
        <ele>16.433</ele>
        <time>2020-12-18T15:59:11Z</time>
      </trkpt>
      <trkpt lat="47.8979" lon="-4.34109">
        <ele>19.208</ele>
        <time>2020-12-18T15:58:51Z</time>
      </trkpt>
      <trkpt lat="47.8986" lon="-4.34096">
        <ele>9.92</ele>
        <time>2020-12-18T15:58:31Z</time>
      </trkpt>
      <trkpt lat="47.8986" lon="-4.3403">
        <ele>9.628</ele>
        <time>2020-12-18T15:58:11Z</time>
      </trkpt>
      <trkpt lat="47.89838" lon="-4.33991">
        <ele>12.475</ele>
        <time>2020-12-18T15:57:51Z</time>
      </trkpt>
      <trkpt lat="47.89801" lon="-4.33978">
        <ele>17.491</ele>
        <time>2016-04-27T17:55:17Z</time>
      </trkpt>
      <trkpt lat="47.89893" lon="-4.33847">
        <ele>9.883</ele>
        <time>2016-04-27T17:54:57Z</time>
      </trkpt>
      <trkpt lat="47.89976" lon="-4.33865">
        <ele>3.528</ele>
        <time>2016-04-27T17:54:37Z</time>
      </trkpt>
      <trkpt lat="47.90034" lon="-4.3395">
        <ele>7.047</ele>
        <time>2016-04-27T17:54:17Z</time>
      </trkpt>
      <trkpt lat="47.90251" lon="-4.3397">
        <ele>17.214</ele>
        <time>2016-04-27T17:53:57Z</time>
      </trkpt>
      <trkpt lat="47.90431" lon="-4.33794">
        <ele>23.947</ele>
        <time>2016-04-27T17:53:37Z</time>
      </trkpt>
      <trkpt lat="47.9047" lon="-4.33721">
        <ele>26.125</ele>
        <time>2016-04-27T17:53:17Z</time>
      </trkpt>
      <trkpt lat="47.90565" lon="-4.33815">
        <ele>23.079</ele>
        <time>2016-04-27T17:52:57Z</time>
      </trkpt>
      <trkpt lat="47.90632" lon="-4.33968">
        <ele>27.808</ele>
        <time>2016-04-27T17:52:37Z</time>
      </trkpt>
      <trkpt lat="47.90657" lon="-4.34079">
        <ele>27.718</ele>
        <time>2016-04-27T17:52:17Z</time>
      </trkpt>
      <trkpt lat="47.90649" lon="-4.3418">
        <ele>27.017</ele>
        <time>2016-04-27T17:51:57Z</time>
      </trkpt>
      <trkpt lat="47.90644" lon="-4.343">
        <ele>25.736</ele>
        <time>2016-04-27T17:51:37Z</time>
      </trkpt>
      <trkpt lat="47.90534" lon="-4.34429">
        <ele>25.197</ele>
        <time>2016-04-27T17:51:17Z</time>
      </trkpt>
      <trkpt lat="47.90431" lon="-4.3462">
        <ele>24.739</ele>
        <time>2016-04-27T17:50:57Z</time>
      </trkpt>
      <trkpt lat="47.90317" lon="-4.34669">
        <ele>18.894</ele>
        <time>2016-04-27T17:50:37Z</time>
      </trkpt>
      <trkpt lat="47.90224" lon="-4.34761">
        <ele>17.493</ele>
        <time>2016-04-27T17:50:17Z</time>
      </trkpt>
      <trkpt lat="47.90176" lon="-4.34764">
        <ele>16.36</ele>
        <time>2016-04-27T17:49:57Z</time>
      </trkpt>
      <trkpt lat="47.89942" lon="-4.34699">
        <ele>9.013</ele>
        <time>2016-04-27T17:49:37Z</time>
      </trkpt>
      <trkpt lat="47.89883" lon="-4.34899">
        <ele>8.011</ele>
        <time>2016-04-27T17:49:17Z</time>
      </trkpt>
      <trkpt lat="47.89835" lon="-4.35125">
        <ele>7.165</ele>
        <time>2020-03-29T06:22:16Z</time>
      </trkpt>
      <trkpt lat="47.89819" lon="-4.35185">
        <ele>7.808</ele>
        <time>2020-03-29T06:21:56Z</time>
      </trkpt>
      <trkpt lat="47.89807" lon="-4.35208">
        <ele>7.62</ele>
        <time>2020-03-29T06:21:36Z</time>
      </trkpt>
      <trkpt lat="47.89769" lon="-4.35243">
        <ele>7.773</ele>
        <time>2020-03-29T06:21:16Z</time>
      </trkpt>
      <trkpt lat="47.89721" lon="-4.35303">
        <ele>9.792</ele>
        <time>2016-04-30T01:05:22Z</time>
      </trkpt>
      <trkpt lat="47.89721" lon="-4.35303">
        <ele>9.792</ele>
        <time>2016-04-30T01:05:22Z</time>
      </trkpt>
    </trkseg>
  </trk>
</gpx>